<?xml version="1.0" encoding="UTF-8" standalone="no" ?>
<gpx xmlns="http://www.topografix.com/GPX/1/1" xmlns:xsi="http://www.w3.org/2001/XMLSchema-instance" xsi:schemaLocation="http://www.topografix.com/GPX/1/1 http://www.topografix.com/GPX/1/1/gpx.xsd" version="1.1" creator="VisuGPX - https://www.visugpx.com">
  <metadata>
    <name>Les cinq châteaux et les herbes de Chaudry</name>
    <desc><![CDATA[Randonnée en boucle de 20 km à partir de du parking près de l'église de Maudétour-en-Vexin]]></desc>
  </metadata>
  <trk>
    <name><![CDATA[Les cinq châteaux et les herbes de Chaudry_R]]></name>
    <trkseg>
      <trkpt lat="49.1" lon="1.77584">
        <ele>162.82</ele>
        <time>2019-06-16T07:04:33Z</time>
      </trkpt>
      <trkpt lat="49.09981" lon="1.77581">
        <ele>163.44</ele>
        <time>2019-06-16T07:05:06Z</time>
      </trkpt>
      <trkpt lat="49.09972" lon="1.77586">
        <ele>163.38</ele>
        <time>2019-06-16T07:05:51Z</time>
      </trkpt>
      <trkpt lat="49.09972" lon="1.77587">
        <ele>163.88</ele>
        <time>2019-06-16T07:06:02Z</time>
      </trkpt>
      <trkpt lat="49.09979" lon="1.77589">
        <ele>163.54</ele>
        <time>2019-06-16T07:06:14Z</time>
      </trkpt>
      <trkpt lat="49.0998" lon="1.77593">
        <ele>163.84</ele>
        <time>2019-06-16T07:06:17Z</time>
      </trkpt>
      <trkpt lat="49.09984" lon="1.77607">
        <ele>163.23</ele>
        <time>2019-06-16T07:06:28Z</time>
      </trkpt>
      <trkpt lat="49.09984" lon="1.77608">
        <ele>163.24</ele>
        <time>2019-06-16T07:06:29Z</time>
      </trkpt>
      <trkpt lat="49.09981" lon="1.77628">
        <ele>162.43</ele>
        <time>2019-06-16T07:06:45Z</time>
      </trkpt>
      <trkpt lat="49.09979" lon="1.77645">
        <ele>161.8</ele>
        <time>2019-06-16T07:07:01Z</time>
      </trkpt>
      <trkpt lat="49.09977" lon="1.77661">
        <ele>160.66</ele>
        <time>2019-06-16T07:07:15Z</time>
      </trkpt>
      <trkpt lat="49.09973" lon="1.77685">
        <ele>159.45</ele>
        <time>2019-06-16T07:07:31Z</time>
      </trkpt>
      <trkpt lat="49.09971" lon="1.77698">
        <ele>159.33</ele>
        <time>2019-06-16T07:07:38Z</time>
      </trkpt>
      <trkpt lat="49.09967" lon="1.77722">
        <ele>158.74</ele>
        <time>2019-06-16T07:07:53Z</time>
      </trkpt>
      <trkpt lat="49.09964" lon="1.77741">
        <ele>156.71</ele>
        <time>2019-06-16T07:08:05Z</time>
      </trkpt>
      <trkpt lat="49.0996" lon="1.77766">
        <ele>156.82</ele>
        <time>2019-06-16T07:08:21Z</time>
      </trkpt>
      <trkpt lat="49.09957" lon="1.77792">
        <ele>156.22</ele>
        <time>2019-06-16T07:08:36Z</time>
      </trkpt>
      <trkpt lat="49.09955" lon="1.77809">
        <ele>155.85</ele>
        <time>2019-06-16T07:08:50Z</time>
      </trkpt>
      <trkpt lat="49.0996" lon="1.77808">
        <ele>155.32</ele>
        <time>2019-06-16T07:09:13Z</time>
      </trkpt>
      <trkpt lat="49.09954" lon="1.77808">
        <ele>155.74</ele>
        <time>2019-06-16T07:09:36Z</time>
      </trkpt>
      <trkpt lat="49.09949" lon="1.77813">
        <ele>155.53</ele>
        <time>2019-06-16T07:09:43Z</time>
      </trkpt>
      <trkpt lat="49.09936" lon="1.77825">
        <ele>154.75</ele>
        <time>2019-06-16T07:09:58Z</time>
      </trkpt>
      <trkpt lat="49.09925" lon="1.77837">
        <ele>154.3</ele>
        <time>2019-06-16T07:10:11Z</time>
      </trkpt>
      <trkpt lat="49.0992" lon="1.77843">
        <ele>153.98</ele>
        <time>2019-06-16T07:10:18Z</time>
      </trkpt>
      <trkpt lat="49.0991" lon="1.77856">
        <ele>154.11</ele>
        <time>2019-06-16T07:10:31Z</time>
      </trkpt>
      <trkpt lat="49.09898" lon="1.77874">
        <ele>153.98</ele>
        <time>2019-06-16T07:10:49Z</time>
      </trkpt>
      <trkpt lat="49.09895" lon="1.7789">
        <ele>152.3</ele>
        <time>2019-06-16T07:11:02Z</time>
      </trkpt>
      <trkpt lat="49.09893" lon="1.77898">
        <ele>152.34</ele>
        <time>2019-06-16T07:11:07Z</time>
      </trkpt>
      <trkpt lat="49.09892" lon="1.77906">
        <ele>151.56</ele>
        <time>2019-06-16T07:11:13Z</time>
      </trkpt>
      <trkpt lat="49.09889" lon="1.77926">
        <ele>151.88</ele>
        <time>2019-06-16T07:11:26Z</time>
      </trkpt>
      <trkpt lat="49.09888" lon="1.77932">
        <ele>149.7</ele>
        <time>2019-06-16T07:11:30Z</time>
      </trkpt>
      <trkpt lat="49.09885" lon="1.77954">
        <ele>150.44</ele>
        <time>2019-06-16T07:11:45Z</time>
      </trkpt>
      <trkpt lat="49.09882" lon="1.77974">
        <ele>149.45</ele>
        <time>2019-06-16T07:11:58Z</time>
      </trkpt>
      <trkpt lat="49.09881" lon="1.77998">
        <ele>148.39</ele>
        <time>2019-06-16T07:12:13Z</time>
      </trkpt>
      <trkpt lat="49.09878" lon="1.78018">
        <ele>148.01</ele>
        <time>2019-06-16T07:12:26Z</time>
      </trkpt>
      <trkpt lat="49.09875" lon="1.7804">
        <ele>147.83</ele>
        <time>2019-06-16T07:12:40Z</time>
      </trkpt>
      <trkpt lat="49.09874" lon="1.78058">
        <ele>147.51</ele>
        <time>2019-06-16T07:12:56Z</time>
      </trkpt>
      <trkpt lat="49.09874" lon="1.78073">
        <ele>146.92</ele>
        <time>2019-06-16T07:13:07Z</time>
      </trkpt>
      <trkpt lat="49.09872" lon="1.78099">
        <ele>145.86</ele>
        <time>2019-06-16T07:13:24Z</time>
      </trkpt>
      <trkpt lat="49.09871" lon="1.78113">
        <ele>144.88</ele>
        <time>2019-06-16T07:13:34Z</time>
      </trkpt>
      <trkpt lat="49.09869" lon="1.78137">
        <ele>144.86</ele>
        <time>2019-06-16T07:13:49Z</time>
      </trkpt>
      <trkpt lat="49.09868" lon="1.78163">
        <ele>144.08</ele>
        <time>2019-06-16T07:14:06Z</time>
      </trkpt>
      <trkpt lat="49.09866" lon="1.78191">
        <ele>143.23</ele>
        <time>2019-06-16T07:14:23Z</time>
      </trkpt>
      <trkpt lat="49.09864" lon="1.78221">
        <ele>142.58</ele>
        <time>2019-06-16T07:14:41Z</time>
      </trkpt>
      <trkpt lat="49.0986" lon="1.78246">
        <ele>141.17</ele>
        <time>2019-06-16T07:14:58Z</time>
      </trkpt>
      <trkpt lat="49.09855" lon="1.78273">
        <ele>140.45</ele>
        <time>2019-06-16T07:15:15Z</time>
      </trkpt>
      <trkpt lat="49.09849" lon="1.783">
        <ele>138.92</ele>
        <time>2019-06-16T07:15:32Z</time>
      </trkpt>
      <trkpt lat="49.09842" lon="1.78327">
        <ele>138.11</ele>
        <time>2019-06-16T07:15:49Z</time>
      </trkpt>
      <trkpt lat="49.0984" lon="1.78335">
        <ele>137.33</ele>
        <time>2019-06-16T07:15:54Z</time>
      </trkpt>
      <trkpt lat="49.09838" lon="1.78343">
        <ele>137.21</ele>
        <time>2019-06-16T07:15:59Z</time>
      </trkpt>
      <trkpt lat="49.09831" lon="1.78373">
        <ele>136.23</ele>
        <time>2019-06-16T07:16:18Z</time>
      </trkpt>
      <trkpt lat="49.09825" lon="1.78397">
        <ele>135.15</ele>
        <time>2019-06-16T07:16:34Z</time>
      </trkpt>
      <trkpt lat="49.09819" lon="1.78427">
        <ele>134.49</ele>
        <time>2019-06-16T07:16:54Z</time>
      </trkpt>
      <trkpt lat="49.0981" lon="1.78455">
        <ele>134.1</ele>
        <time>2019-06-16T07:17:13Z</time>
      </trkpt>
      <trkpt lat="49.09803" lon="1.78483">
        <ele>134.76</ele>
        <time>2019-06-16T07:17:31Z</time>
      </trkpt>
      <trkpt lat="49.09797" lon="1.78514">
        <ele>134.89</ele>
        <time>2019-06-16T07:17:49Z</time>
      </trkpt>
      <trkpt lat="49.09794" lon="1.78542">
        <ele>135.61</ele>
        <time>2019-06-16T07:18:06Z</time>
      </trkpt>
      <trkpt lat="49.09794" lon="1.78565">
        <ele>135.12</ele>
        <time>2019-06-16T07:18:20Z</time>
      </trkpt>
      <trkpt lat="49.09792" lon="1.78584">
        <ele>135.17</ele>
        <time>2019-06-16T07:18:33Z</time>
      </trkpt>
      <trkpt lat="49.09791" lon="1.78606">
        <ele>136.28</ele>
        <time>2019-06-16T07:18:48Z</time>
      </trkpt>
      <trkpt lat="49.09788" lon="1.78619">
        <ele>136.45</ele>
        <time>2019-06-16T07:19:00Z</time>
      </trkpt>
      <trkpt lat="49.09776" lon="1.78633">
        <ele>137.76</ele>
        <time>2019-06-16T07:19:15Z</time>
      </trkpt>
      <trkpt lat="49.09761" lon="1.78647">
        <ele>139.4</ele>
        <time>2019-06-16T07:19:32Z</time>
      </trkpt>
      <trkpt lat="49.09747" lon="1.78662">
        <ele>140.95</ele>
        <time>2019-06-16T07:19:49Z</time>
      </trkpt>
      <trkpt lat="49.09739" lon="1.78671">
        <ele>142.34</ele>
        <time>2019-06-16T07:20:00Z</time>
      </trkpt>
      <trkpt lat="49.09724" lon="1.78685">
        <ele>143.66</ele>
        <time>2019-06-16T07:20:18Z</time>
      </trkpt>
      <trkpt lat="49.09711" lon="1.78698">
        <ele>144.2</ele>
        <time>2019-06-16T07:20:33Z</time>
      </trkpt>
      <trkpt lat="49.09696" lon="1.78713">
        <ele>145.74</ele>
        <time>2019-06-16T07:20:52Z</time>
      </trkpt>
      <trkpt lat="49.09693" lon="1.78715">
        <ele>146.47</ele>
        <time>2019-06-16T07:20:55Z</time>
      </trkpt>
      <trkpt lat="49.09683" lon="1.78723">
        <ele>147.23</ele>
        <time>2019-06-16T07:21:10Z</time>
      </trkpt>
      <trkpt lat="49.09679" lon="1.78726">
        <ele>147.67</ele>
        <time>2019-06-16T07:21:28Z</time>
      </trkpt>
      <trkpt lat="49.09676" lon="1.78726">
        <ele>147.71</ele>
        <time>2019-06-16T07:21:44Z</time>
      </trkpt>
      <trkpt lat="49.09676" lon="1.78725">
        <ele>147.39</ele>
        <time>2019-06-16T07:22:10Z</time>
      </trkpt>
      <trkpt lat="49.09672" lon="1.78727">
        <ele>147.49</ele>
        <time>2019-06-16T07:22:26Z</time>
      </trkpt>
      <trkpt lat="49.09655" lon="1.78733">
        <ele>149.33</ele>
        <time>2019-06-16T07:22:43Z</time>
      </trkpt>
      <trkpt lat="49.0965" lon="1.78735">
        <ele>149.4</ele>
        <time>2019-06-16T07:22:54Z</time>
      </trkpt>
      <trkpt lat="49.09645" lon="1.78736">
        <ele>149.4</ele>
        <time>2019-06-16T07:22:59Z</time>
      </trkpt>
      <trkpt lat="49.09631" lon="1.78739">
        <ele>149.51</ele>
        <time>2019-06-16T07:23:13Z</time>
      </trkpt>
      <trkpt lat="49.09617" lon="1.78742">
        <ele>151.11</ele>
        <time>2019-06-16T07:23:26Z</time>
      </trkpt>
      <trkpt lat="49.09604" lon="1.78743">
        <ele>152.16</ele>
        <time>2019-06-16T07:23:40Z</time>
      </trkpt>
      <trkpt lat="49.09594" lon="1.78747">
        <ele>152.57</ele>
        <time>2019-06-16T07:23:53Z</time>
      </trkpt>
      <trkpt lat="49.0959" lon="1.78747">
        <ele>152.7</ele>
        <time>2019-06-16T07:23:57Z</time>
      </trkpt>
      <trkpt lat="49.09574" lon="1.78753">
        <ele>154.88</ele>
        <time>2019-06-16T07:24:16Z</time>
      </trkpt>
      <trkpt lat="49.09559" lon="1.78758">
        <ele>156.42</ele>
        <time>2019-06-16T07:24:31Z</time>
      </trkpt>
      <trkpt lat="49.09543" lon="1.78763">
        <ele>157.03</ele>
        <time>2019-06-16T07:24:48Z</time>
      </trkpt>
      <trkpt lat="49.09527" lon="1.78774">
        <ele>159.01</ele>
        <time>2019-06-16T07:25:03Z</time>
      </trkpt>
      <trkpt lat="49.09507" lon="1.78791">
        <ele>160.25</ele>
        <time>2019-06-16T07:25:25Z</time>
      </trkpt>
      <trkpt lat="49.09493" lon="1.78802">
        <ele>162.84</ele>
        <time>2019-06-16T07:25:41Z</time>
      </trkpt>
      <trkpt lat="49.0948" lon="1.7881">
        <ele>164.15</ele>
        <time>2019-06-16T07:25:54Z</time>
      </trkpt>
      <trkpt lat="49.09473" lon="1.78819">
        <ele>164.9</ele>
        <time>2019-06-16T07:26:04Z</time>
      </trkpt>
      <trkpt lat="49.09464" lon="1.78835">
        <ele>165.76</ele>
        <time>2019-06-16T07:26:21Z</time>
      </trkpt>
      <trkpt lat="49.09459" lon="1.78841">
        <ele>166.19</ele>
        <time>2019-06-16T07:26:27Z</time>
      </trkpt>
      <trkpt lat="49.09457" lon="1.78844">
        <ele>165.88</ele>
        <time>2019-06-16T07:26:29Z</time>
      </trkpt>
      <trkpt lat="49.0945" lon="1.78852">
        <ele>166.2</ele>
        <time>2019-06-16T07:26:38Z</time>
      </trkpt>
      <trkpt lat="49.09444" lon="1.78864">
        <ele>166.81</ele>
        <time>2019-06-16T07:26:52Z</time>
      </trkpt>
      <trkpt lat="49.09441" lon="1.78869">
        <ele>166.73</ele>
        <time>2019-06-16T07:26:56Z</time>
      </trkpt>
      <trkpt lat="49.09439" lon="1.78875">
        <ele>167.84</ele>
        <time>2019-06-16T07:27:02Z</time>
      </trkpt>
      <trkpt lat="49.09436" lon="1.78884">
        <ele>167.44</ele>
        <time>2019-06-16T07:27:08Z</time>
      </trkpt>
      <trkpt lat="49.09432" lon="1.78896">
        <ele>166.9</ele>
        <time>2019-06-16T07:27:17Z</time>
      </trkpt>
      <trkpt lat="49.09429" lon="1.78904">
        <ele>166.08</ele>
        <time>2019-06-16T07:27:23Z</time>
      </trkpt>
      <trkpt lat="49.09427" lon="1.78916">
        <ele>166.13</ele>
        <time>2019-06-16T07:27:39Z</time>
      </trkpt>
      <trkpt lat="49.09425" lon="1.78931">
        <ele>165.32</ele>
        <time>2019-06-16T07:28:01Z</time>
      </trkpt>
      <trkpt lat="49.09417" lon="1.78943">
        <ele>163.81</ele>
        <time>2019-06-16T07:28:16Z</time>
      </trkpt>
      <trkpt lat="49.09409" lon="1.78956">
        <ele>164.01</ele>
        <time>2019-06-16T07:28:33Z</time>
      </trkpt>
      <trkpt lat="49.09408" lon="1.78951">
        <ele>164.52</ele>
        <time>2019-06-16T07:28:52Z</time>
      </trkpt>
      <trkpt lat="49.09409" lon="1.78954">
        <ele>163.71</ele>
        <time>2019-06-16T07:29:12Z</time>
      </trkpt>
      <trkpt lat="49.09403" lon="1.7896">
        <ele>163.58</ele>
        <time>2019-06-16T07:29:32Z</time>
      </trkpt>
      <trkpt lat="49.09408" lon="1.78959">
        <ele>163.3</ele>
        <time>2019-06-16T07:29:50Z</time>
      </trkpt>
      <trkpt lat="49.09406" lon="1.78962">
        <ele>163.11</ele>
        <time>2019-06-16T07:30:15Z</time>
      </trkpt>
      <trkpt lat="49.09405" lon="1.78961">
        <ele>163.52</ele>
        <time>2019-06-16T07:30:30Z</time>
      </trkpt>
      <trkpt lat="49.09405" lon="1.78961">
        <ele>163.11</ele>
        <time>2019-06-16T07:30:58Z</time>
      </trkpt>
      <trkpt lat="49.09405" lon="1.78959">
        <ele>163.07</ele>
        <time>2019-06-16T07:31:20Z</time>
      </trkpt>
      <trkpt lat="49.09406" lon="1.78962">
        <ele>162.71</ele>
        <time>2019-06-16T07:31:52Z</time>
      </trkpt>
      <trkpt lat="49.09403" lon="1.78975">
        <ele>162.24</ele>
        <time>2019-06-16T07:32:04Z</time>
      </trkpt>
      <trkpt lat="49.09385" lon="1.78973">
        <ele>163.03</ele>
        <time>2019-06-16T07:32:25Z</time>
      </trkpt>
      <trkpt lat="49.09375" lon="1.7897">
        <ele>164.24</ele>
        <time>2019-06-16T07:32:40Z</time>
      </trkpt>
      <trkpt lat="49.09362" lon="1.78968">
        <ele>166.18</ele>
        <time>2019-06-16T07:32:57Z</time>
      </trkpt>
      <trkpt lat="49.09353" lon="1.7897">
        <ele>166.26</ele>
        <time>2019-06-16T07:33:15Z</time>
      </trkpt>
      <trkpt lat="49.09347" lon="1.7897">
        <ele>166.5</ele>
        <time>2019-06-16T07:33:50Z</time>
      </trkpt>
      <trkpt lat="49.09348" lon="1.78971">
        <ele>166.48</ele>
        <time>2019-06-16T07:34:06Z</time>
      </trkpt>
      <trkpt lat="49.09344" lon="1.7897">
        <ele>166.98</ele>
        <time>2019-06-16T07:34:11Z</time>
      </trkpt>
      <trkpt lat="49.0934" lon="1.78972">
        <ele>167.14</ele>
        <time>2019-06-16T07:34:15Z</time>
      </trkpt>
      <trkpt lat="49.09333" lon="1.78975">
        <ele>167.63</ele>
        <time>2019-06-16T07:34:30Z</time>
      </trkpt>
      <trkpt lat="49.09325" lon="1.78992">
        <ele>169</ele>
        <time>2019-06-16T07:34:51Z</time>
      </trkpt>
      <trkpt lat="49.09316" lon="1.79025">
        <ele>172.21</ele>
        <time>2019-06-16T07:35:15Z</time>
      </trkpt>
      <trkpt lat="49.09315" lon="1.79033">
        <ele>172.97</ele>
        <time>2019-06-16T07:35:22Z</time>
      </trkpt>
      <trkpt lat="49.09305" lon="1.79064">
        <ele>174.9</ele>
        <time>2019-06-16T07:35:43Z</time>
      </trkpt>
      <trkpt lat="49.09294" lon="1.79092">
        <ele>175.37</ele>
        <time>2019-06-16T07:36:07Z</time>
      </trkpt>
      <trkpt lat="49.09292" lon="1.79104">
        <ele>175.85</ele>
        <time>2019-06-16T07:36:20Z</time>
      </trkpt>
      <trkpt lat="49.09289" lon="1.79127">
        <ele>175.55</ele>
        <time>2019-06-16T07:36:36Z</time>
      </trkpt>
      <trkpt lat="49.09289" lon="1.79135">
        <ele>175.98</ele>
        <time>2019-06-16T07:36:56Z</time>
      </trkpt>
      <trkpt lat="49.09289" lon="1.79138">
        <ele>176.02</ele>
        <time>2019-06-16T07:37:00Z</time>
      </trkpt>
      <trkpt lat="49.09287" lon="1.79143">
        <ele>176.34</ele>
        <time>2019-06-16T07:37:04Z</time>
      </trkpt>
      <trkpt lat="49.09282" lon="1.79162">
        <ele>178.46</ele>
        <time>2019-06-16T07:37:19Z</time>
      </trkpt>
      <trkpt lat="49.09281" lon="1.7918">
        <ele>178.13</ele>
        <time>2019-06-16T07:37:33Z</time>
      </trkpt>
      <trkpt lat="49.09277" lon="1.79196">
        <ele>176.74</ele>
        <time>2019-06-16T07:37:50Z</time>
      </trkpt>
      <trkpt lat="49.09274" lon="1.79207">
        <ele>176.07</ele>
        <time>2019-06-16T07:38:09Z</time>
      </trkpt>
      <trkpt lat="49.09276" lon="1.79208">
        <ele>177.19</ele>
        <time>2019-06-16T07:38:31Z</time>
      </trkpt>
      <trkpt lat="49.09274" lon="1.79214">
        <ele>176.24</ele>
        <time>2019-06-16T07:38:57Z</time>
      </trkpt>
      <trkpt lat="49.09276" lon="1.79215">
        <ele>176.13</ele>
        <time>2019-06-16T07:39:19Z</time>
      </trkpt>
      <trkpt lat="49.0927" lon="1.79226">
        <ele>174.82</ele>
        <time>2019-06-16T07:39:35Z</time>
      </trkpt>
      <trkpt lat="49.09255" lon="1.79248">
        <ele>175.78</ele>
        <time>2019-06-16T07:39:54Z</time>
      </trkpt>
      <trkpt lat="49.09246" lon="1.79262">
        <ele>176.63</ele>
        <time>2019-06-16T07:40:09Z</time>
      </trkpt>
      <trkpt lat="49.09231" lon="1.79283">
        <ele>175.91</ele>
        <time>2019-06-16T07:40:29Z</time>
      </trkpt>
      <trkpt lat="49.09213" lon="1.79291">
        <ele>175.52</ele>
        <time>2019-06-16T07:40:51Z</time>
      </trkpt>
      <trkpt lat="49.09195" lon="1.79282">
        <ele>175.78</ele>
        <time>2019-06-16T07:41:10Z</time>
      </trkpt>
      <trkpt lat="49.09181" lon="1.79275">
        <ele>178.88</ele>
        <time>2019-06-16T07:41:28Z</time>
      </trkpt>
      <trkpt lat="49.09164" lon="1.79264">
        <ele>180.57</ele>
        <time>2019-06-16T07:41:48Z</time>
      </trkpt>
      <trkpt lat="49.09147" lon="1.79252">
        <ele>182.31</ele>
        <time>2019-06-16T07:42:09Z</time>
      </trkpt>
      <trkpt lat="49.09129" lon="1.79226">
        <ele>183.32</ele>
        <time>2019-06-16T07:42:29Z</time>
      </trkpt>
      <trkpt lat="49.09118" lon="1.79203">
        <ele>183.09</ele>
        <time>2019-06-16T07:42:47Z</time>
      </trkpt>
      <trkpt lat="49.09108" lon="1.79175">
        <ele>182.63</ele>
        <time>2019-06-16T07:43:07Z</time>
      </trkpt>
      <trkpt lat="49.09106" lon="1.79167">
        <ele>182.52</ele>
        <time>2019-06-16T07:43:14Z</time>
      </trkpt>
      <trkpt lat="49.09105" lon="1.79143">
        <ele>183.54</ele>
        <time>2019-06-16T07:43:33Z</time>
      </trkpt>
      <trkpt lat="49.09101" lon="1.79112">
        <ele>183.73</ele>
        <time>2019-06-16T07:43:54Z</time>
      </trkpt>
      <trkpt lat="49.09096" lon="1.79077">
        <ele>183.96</ele>
        <time>2019-06-16T07:44:15Z</time>
      </trkpt>
      <trkpt lat="49.09095" lon="1.79045">
        <ele>183.97</ele>
        <time>2019-06-16T07:44:36Z</time>
      </trkpt>
      <trkpt lat="49.09091" lon="1.79017">
        <ele>183.46</ele>
        <time>2019-06-16T07:44:57Z</time>
      </trkpt>
      <trkpt lat="49.09089" lon="1.79003">
        <ele>183.41</ele>
        <time>2019-06-16T07:45:07Z</time>
      </trkpt>
      <trkpt lat="49.09086" lon="1.78967">
        <ele>182.39</ele>
        <time>2019-06-16T07:45:29Z</time>
      </trkpt>
      <trkpt lat="49.0908" lon="1.78931">
        <ele>182.07</ele>
        <time>2019-06-16T07:45:50Z</time>
      </trkpt>
      <trkpt lat="49.09077" lon="1.78912">
        <ele>181.86</ele>
        <time>2019-06-16T07:46:02Z</time>
      </trkpt>
      <trkpt lat="49.09075" lon="1.78902">
        <ele>181.74</ele>
        <time>2019-06-16T07:46:08Z</time>
      </trkpt>
      <trkpt lat="49.09068" lon="1.78871">
        <ele>181.85</ele>
        <time>2019-06-16T07:46:20Z</time>
      </trkpt>
      <trkpt lat="49.09068" lon="1.78858">
        <ele>181.28</ele>
        <time>2019-06-16T07:46:39Z</time>
      </trkpt>
      <trkpt lat="49.09062" lon="1.7885">
        <ele>181.18</ele>
        <time>2019-06-16T07:47:08Z</time>
      </trkpt>
      <trkpt lat="49.09065" lon="1.78852">
        <ele>180.95</ele>
        <time>2019-06-16T07:47:36Z</time>
      </trkpt>
      <trkpt lat="49.09066" lon="1.78851">
        <ele>180.58</ele>
        <time>2019-06-16T07:48:10Z</time>
      </trkpt>
      <trkpt lat="49.09063" lon="1.78849">
        <ele>179.98</ele>
        <time>2019-06-16T07:48:41Z</time>
      </trkpt>
      <trkpt lat="49.0906" lon="1.7885">
        <ele>180.19</ele>
        <time>2019-06-16T07:49:09Z</time>
      </trkpt>
      <trkpt lat="49.0906" lon="1.78848">
        <ele>180.63</ele>
        <time>2019-06-16T07:49:43Z</time>
      </trkpt>
      <trkpt lat="49.0906" lon="1.78847">
        <ele>180.44</ele>
        <time>2019-06-16T07:50:08Z</time>
      </trkpt>
      <trkpt lat="49.09058" lon="1.78829">
        <ele>180.51</ele>
        <time>2019-06-16T07:50:25Z</time>
      </trkpt>
      <trkpt lat="49.09053" lon="1.78803">
        <ele>181.1</ele>
        <time>2019-06-16T07:50:43Z</time>
      </trkpt>
      <trkpt lat="49.0905" lon="1.78765">
        <ele>180.7</ele>
        <time>2019-06-16T07:51:05Z</time>
      </trkpt>
      <trkpt lat="49.09053" lon="1.78728">
        <ele>181.44</ele>
        <time>2019-06-16T07:51:27Z</time>
      </trkpt>
      <trkpt lat="49.09053" lon="1.78694">
        <ele>181.5</ele>
        <time>2019-06-16T07:51:47Z</time>
      </trkpt>
      <trkpt lat="49.09055" lon="1.78668">
        <ele>181.4</ele>
        <time>2019-06-16T07:52:04Z</time>
      </trkpt>
      <trkpt lat="49.0905" lon="1.78637">
        <ele>181.21</ele>
        <time>2019-06-16T07:52:24Z</time>
      </trkpt>
      <trkpt lat="49.09046" lon="1.78602">
        <ele>181.93</ele>
        <time>2019-06-16T07:52:44Z</time>
      </trkpt>
      <trkpt lat="49.09047" lon="1.78574">
        <ele>180.7</ele>
        <time>2019-06-16T07:53:03Z</time>
      </trkpt>
      <trkpt lat="49.09046" lon="1.78548">
        <ele>180.47</ele>
        <time>2019-06-16T07:53:22Z</time>
      </trkpt>
      <trkpt lat="49.09045" lon="1.78516">
        <ele>180.35</ele>
        <time>2019-06-16T07:53:43Z</time>
      </trkpt>
      <trkpt lat="49.09043" lon="1.7849">
        <ele>180.29</ele>
        <time>2019-06-16T07:53:56Z</time>
      </trkpt>
      <trkpt lat="49.09041" lon="1.78471">
        <ele>179.59</ele>
        <time>2019-06-16T07:54:08Z</time>
      </trkpt>
      <trkpt lat="49.09039" lon="1.78436">
        <ele>179.36</ele>
        <time>2019-06-16T07:54:28Z</time>
      </trkpt>
      <trkpt lat="49.09033" lon="1.78407">
        <ele>179.16</ele>
        <time>2019-06-16T07:54:47Z</time>
      </trkpt>
      <trkpt lat="49.09024" lon="1.78374">
        <ele>179.62</ele>
        <time>2019-06-16T07:55:05Z</time>
      </trkpt>
      <trkpt lat="49.09023" lon="1.7836">
        <ele>178.94</ele>
        <time>2019-06-16T07:55:21Z</time>
      </trkpt>
      <trkpt lat="49.09027" lon="1.78342">
        <ele>178.73</ele>
        <time>2019-06-16T07:55:36Z</time>
      </trkpt>
      <trkpt lat="49.09029" lon="1.78336">
        <ele>178.92</ele>
        <time>2019-06-16T07:55:40Z</time>
      </trkpt>
      <trkpt lat="49.09026" lon="1.78311">
        <ele>178.99</ele>
        <time>2019-06-16T07:56:00Z</time>
      </trkpt>
      <trkpt lat="49.09024" lon="1.78279">
        <ele>178.89</ele>
        <time>2019-06-16T07:56:17Z</time>
      </trkpt>
      <trkpt lat="49.09019" lon="1.78256">
        <ele>179.34</ele>
        <time>2019-06-16T07:56:33Z</time>
      </trkpt>
      <trkpt lat="49.09017" lon="1.78222">
        <ele>179.5</ele>
        <time>2019-06-16T07:56:55Z</time>
      </trkpt>
      <trkpt lat="49.09015" lon="1.78198">
        <ele>179.55</ele>
        <time>2019-06-16T07:57:13Z</time>
      </trkpt>
      <trkpt lat="49.0901" lon="1.78187">
        <ele>179.72</ele>
        <time>2019-06-16T07:57:32Z</time>
      </trkpt>
      <trkpt lat="49.09011" lon="1.78162">
        <ele>179.3</ele>
        <time>2019-06-16T07:57:52Z</time>
      </trkpt>
      <trkpt lat="49.09009" lon="1.78149">
        <ele>179.75</ele>
        <time>2019-06-16T07:58:12Z</time>
      </trkpt>
      <trkpt lat="49.0901" lon="1.78125">
        <ele>179.86</ele>
        <time>2019-06-16T07:58:26Z</time>
      </trkpt>
      <trkpt lat="49.09001" lon="1.78109">
        <ele>179.49</ele>
        <time>2019-06-16T07:58:43Z</time>
      </trkpt>
      <trkpt lat="49.09" lon="1.78096">
        <ele>179.46</ele>
        <time>2019-06-16T07:58:51Z</time>
      </trkpt>
      <trkpt lat="49.09001" lon="1.78074">
        <ele>179.05</ele>
        <time>2019-06-16T07:59:06Z</time>
      </trkpt>
      <trkpt lat="49.09001" lon="1.78072">
        <ele>179.89</ele>
        <time>2019-06-16T07:59:07Z</time>
      </trkpt>
      <trkpt lat="49.09008" lon="1.78055">
        <ele>179.15</ele>
        <time>2019-06-16T07:59:20Z</time>
      </trkpt>
      <trkpt lat="49.09012" lon="1.78025">
        <ele>178.77</ele>
        <time>2019-06-16T07:59:38Z</time>
      </trkpt>
      <trkpt lat="49.09012" lon="1.7801">
        <ele>179.05</ele>
        <time>2019-06-16T07:59:47Z</time>
      </trkpt>
      <trkpt lat="49.09013" lon="1.77987">
        <ele>178.83</ele>
        <time>2019-06-16T08:00:03Z</time>
      </trkpt>
      <trkpt lat="49.09008" lon="1.77971">
        <ele>179.06</ele>
        <time>2019-06-16T08:00:17Z</time>
      </trkpt>
      <trkpt lat="49.09011" lon="1.77963">
        <ele>178.59</ele>
        <time>2019-06-16T08:00:34Z</time>
      </trkpt>
      <trkpt lat="49.09012" lon="1.77959">
        <ele>179.28</ele>
        <time>2019-06-16T08:00:52Z</time>
      </trkpt>
      <trkpt lat="49.09005" lon="1.77938">
        <ele>178.87</ele>
        <time>2019-06-16T08:01:06Z</time>
      </trkpt>
      <trkpt lat="49.09009" lon="1.77923">
        <ele>178.58</ele>
        <time>2019-06-16T08:01:27Z</time>
      </trkpt>
      <trkpt lat="49.0901" lon="1.77898">
        <ele>178.43</ele>
        <time>2019-06-16T08:01:47Z</time>
      </trkpt>
      <trkpt lat="49.09005" lon="1.77867">
        <ele>178.46</ele>
        <time>2019-06-16T08:02:07Z</time>
      </trkpt>
      <trkpt lat="49.09005" lon="1.77852">
        <ele>177.7</ele>
        <time>2019-06-16T08:02:17Z</time>
      </trkpt>
      <trkpt lat="49.09006" lon="1.77828">
        <ele>177.52</ele>
        <time>2019-06-16T08:02:37Z</time>
      </trkpt>
      <trkpt lat="49.09003" lon="1.77803">
        <ele>177.15</ele>
        <time>2019-06-16T08:02:56Z</time>
      </trkpt>
      <trkpt lat="49.08998" lon="1.77775">
        <ele>176.72</ele>
        <time>2019-06-16T08:03:15Z</time>
      </trkpt>
      <trkpt lat="49.0899" lon="1.77749">
        <ele>176.66</ele>
        <time>2019-06-16T08:03:35Z</time>
      </trkpt>
      <trkpt lat="49.08982" lon="1.77733">
        <ele>176.8</ele>
        <time>2019-06-16T08:03:57Z</time>
      </trkpt>
      <trkpt lat="49.08988" lon="1.77717">
        <ele>176.88</ele>
        <time>2019-06-16T08:04:17Z</time>
      </trkpt>
      <trkpt lat="49.0899" lon="1.77696">
        <ele>176.07</ele>
        <time>2019-06-16T08:04:35Z</time>
      </trkpt>
      <trkpt lat="49.08988" lon="1.77671">
        <ele>176.53</ele>
        <time>2019-06-16T08:04:51Z</time>
      </trkpt>
      <trkpt lat="49.0899" lon="1.77649">
        <ele>176.37</ele>
        <time>2019-06-16T08:05:07Z</time>
      </trkpt>
      <trkpt lat="49.08992" lon="1.77621">
        <ele>175.57</ele>
        <time>2019-06-16T08:05:27Z</time>
      </trkpt>
      <trkpt lat="49.08993" lon="1.77594">
        <ele>176.67</ele>
        <time>2019-06-16T08:05:44Z</time>
      </trkpt>
      <trkpt lat="49.08995" lon="1.77574">
        <ele>176.26</ele>
        <time>2019-06-16T08:06:01Z</time>
      </trkpt>
      <trkpt lat="49.08997" lon="1.77545">
        <ele>176.12</ele>
        <time>2019-06-16T08:06:22Z</time>
      </trkpt>
      <trkpt lat="49.08997" lon="1.77526">
        <ele>176.31</ele>
        <time>2019-06-16T08:06:37Z</time>
      </trkpt>
      <trkpt lat="49.09001" lon="1.77498">
        <ele>176.6</ele>
        <time>2019-06-16T08:06:55Z</time>
      </trkpt>
      <trkpt lat="49.09006" lon="1.7747">
        <ele>176.25</ele>
        <time>2019-06-16T08:07:17Z</time>
      </trkpt>
      <trkpt lat="49.09003" lon="1.77441">
        <ele>176.11</ele>
        <time>2019-06-16T08:07:33Z</time>
      </trkpt>
      <trkpt lat="49.09" lon="1.77411">
        <ele>175.8</ele>
        <time>2019-06-16T08:07:52Z</time>
      </trkpt>
      <trkpt lat="49.08999" lon="1.77382">
        <ele>176.2</ele>
        <time>2019-06-16T08:08:12Z</time>
      </trkpt>
      <trkpt lat="49.08996" lon="1.77357">
        <ele>175.91</ele>
        <time>2019-06-16T08:08:27Z</time>
      </trkpt>
      <trkpt lat="49.08997" lon="1.77352">
        <ele>175.99</ele>
        <time>2019-06-16T08:08:54Z</time>
      </trkpt>
      <trkpt lat="49.08991" lon="1.77333">
        <ele>176.3</ele>
        <time>2019-06-16T08:09:20Z</time>
      </trkpt>
      <trkpt lat="49.08987" lon="1.7731">
        <ele>176.82</ele>
        <time>2019-06-16T08:09:39Z</time>
      </trkpt>
      <trkpt lat="49.08982" lon="1.77285">
        <ele>175.59</ele>
        <time>2019-06-16T08:09:56Z</time>
      </trkpt>
      <trkpt lat="49.08968" lon="1.77275">
        <ele>176.41</ele>
        <time>2019-06-16T08:10:14Z</time>
      </trkpt>
      <trkpt lat="49.08954" lon="1.77271">
        <ele>175.81</ele>
        <time>2019-06-16T08:10:33Z</time>
      </trkpt>
      <trkpt lat="49.08938" lon="1.77268">
        <ele>175.25</ele>
        <time>2019-06-16T08:10:50Z</time>
      </trkpt>
      <trkpt lat="49.08933" lon="1.77269">
        <ele>175.3</ele>
        <time>2019-06-16T08:10:54Z</time>
      </trkpt>
      <trkpt lat="49.08921" lon="1.77271">
        <ele>175.24</ele>
        <time>2019-06-16T08:11:10Z</time>
      </trkpt>
      <trkpt lat="49.0891" lon="1.77262">
        <ele>173.95</ele>
        <time>2019-06-16T08:11:30Z</time>
      </trkpt>
      <trkpt lat="49.08895" lon="1.7724">
        <ele>173.11</ele>
        <time>2019-06-16T08:11:47Z</time>
      </trkpt>
      <trkpt lat="49.08882" lon="1.77208">
        <ele>172.59</ele>
        <time>2019-06-16T08:12:03Z</time>
      </trkpt>
      <trkpt lat="49.08871" lon="1.77186">
        <ele>172.95</ele>
        <time>2019-06-16T08:12:17Z</time>
      </trkpt>
      <trkpt lat="49.08857" lon="1.77172">
        <ele>172.31</ele>
        <time>2019-06-16T08:12:32Z</time>
      </trkpt>
      <trkpt lat="49.08852" lon="1.77153">
        <ele>172.73</ele>
        <time>2019-06-16T08:12:53Z</time>
      </trkpt>
      <trkpt lat="49.08844" lon="1.7713">
        <ele>173.11</ele>
        <time>2019-06-16T08:13:04Z</time>
      </trkpt>
      <trkpt lat="49.08844" lon="1.77126">
        <ele>173.12</ele>
        <time>2019-06-16T08:13:26Z</time>
      </trkpt>
      <trkpt lat="49.08842" lon="1.77122">
        <ele>172.99</ele>
        <time>2019-06-16T08:13:46Z</time>
      </trkpt>
      <trkpt lat="49.08837" lon="1.77114">
        <ele>173.5</ele>
        <time>2019-06-16T08:13:53Z</time>
      </trkpt>
      <trkpt lat="49.08827" lon="1.77092">
        <ele>174.15</ele>
        <time>2019-06-16T08:14:08Z</time>
      </trkpt>
      <trkpt lat="49.08816" lon="1.77075">
        <ele>173.83</ele>
        <time>2019-06-16T08:14:25Z</time>
      </trkpt>
      <trkpt lat="49.0881" lon="1.77063">
        <ele>174.08</ele>
        <time>2019-06-16T08:14:43Z</time>
      </trkpt>
      <trkpt lat="49.08802" lon="1.77054">
        <ele>174.08</ele>
        <time>2019-06-16T08:15:06Z</time>
      </trkpt>
      <trkpt lat="49.0879" lon="1.77038">
        <ele>174.39</ele>
        <time>2019-06-16T08:15:24Z</time>
      </trkpt>
      <trkpt lat="49.08785" lon="1.77028">
        <ele>174.29</ele>
        <time>2019-06-16T08:15:30Z</time>
      </trkpt>
      <trkpt lat="49.08776" lon="1.77005">
        <ele>174.4</ele>
        <time>2019-06-16T08:15:43Z</time>
      </trkpt>
      <trkpt lat="49.08766" lon="1.76973">
        <ele>173.96</ele>
        <time>2019-06-16T08:16:03Z</time>
      </trkpt>
      <trkpt lat="49.08758" lon="1.76951">
        <ele>174.99</ele>
        <time>2019-06-16T08:16:18Z</time>
      </trkpt>
      <trkpt lat="49.08745" lon="1.76924">
        <ele>175.03</ele>
        <time>2019-06-16T08:16:39Z</time>
      </trkpt>
      <trkpt lat="49.08733" lon="1.76906">
        <ele>174.74</ele>
        <time>2019-06-16T08:16:53Z</time>
      </trkpt>
      <trkpt lat="49.08724" lon="1.76885">
        <ele>174.81</ele>
        <time>2019-06-16T08:17:11Z</time>
      </trkpt>
      <trkpt lat="49.08716" lon="1.76851">
        <ele>174.23</ele>
        <time>2019-06-16T08:17:31Z</time>
      </trkpt>
      <trkpt lat="49.08714" lon="1.7682">
        <ele>174.56</ele>
        <time>2019-06-16T08:17:49Z</time>
      </trkpt>
      <trkpt lat="49.08712" lon="1.76798">
        <ele>174.33</ele>
        <time>2019-06-16T08:18:04Z</time>
      </trkpt>
      <trkpt lat="49.08715" lon="1.76762">
        <ele>173.45</ele>
        <time>2019-06-16T08:18:24Z</time>
      </trkpt>
      <trkpt lat="49.08714" lon="1.76739">
        <ele>173.24</ele>
        <time>2019-06-16T08:18:41Z</time>
      </trkpt>
      <trkpt lat="49.08711" lon="1.76718">
        <ele>174.09</ele>
        <time>2019-06-16T08:19:01Z</time>
      </trkpt>
      <trkpt lat="49.08713" lon="1.76718">
        <ele>174.08</ele>
        <time>2019-06-16T08:19:10Z</time>
      </trkpt>
      <trkpt lat="49.08712" lon="1.76703">
        <ele>174.17</ele>
        <time>2019-06-16T08:19:35Z</time>
      </trkpt>
      <trkpt lat="49.08711" lon="1.76678">
        <ele>173.87</ele>
        <time>2019-06-16T08:19:50Z</time>
      </trkpt>
      <trkpt lat="49.08712" lon="1.76662">
        <ele>174.92</ele>
        <time>2019-06-16T08:20:04Z</time>
      </trkpt>
      <trkpt lat="49.08714" lon="1.76648">
        <ele>173.67</ele>
        <time>2019-06-16T08:20:17Z</time>
      </trkpt>
      <trkpt lat="49.08716" lon="1.76627">
        <ele>173.74</ele>
        <time>2019-06-16T08:20:35Z</time>
      </trkpt>
      <trkpt lat="49.08718" lon="1.766">
        <ele>174.31</ele>
        <time>2019-06-16T08:20:54Z</time>
      </trkpt>
      <trkpt lat="49.08716" lon="1.76565">
        <ele>174.7</ele>
        <time>2019-06-16T08:21:15Z</time>
      </trkpt>
      <trkpt lat="49.08712" lon="1.76529">
        <ele>174.37</ele>
        <time>2019-06-16T08:21:36Z</time>
      </trkpt>
      <trkpt lat="49.08707" lon="1.76504">
        <ele>173.54</ele>
        <time>2019-06-16T08:21:54Z</time>
      </trkpt>
      <trkpt lat="49.087" lon="1.76476">
        <ele>173.11</ele>
        <time>2019-06-16T08:22:10Z</time>
      </trkpt>
      <trkpt lat="49.08691" lon="1.7644">
        <ele>172.82</ele>
        <time>2019-06-16T08:22:28Z</time>
      </trkpt>
      <trkpt lat="49.08685" lon="1.76417">
        <ele>171.84</ele>
        <time>2019-06-16T08:22:44Z</time>
      </trkpt>
      <trkpt lat="49.08683" lon="1.76398">
        <ele>171.92</ele>
        <time>2019-06-16T08:22:58Z</time>
      </trkpt>
      <trkpt lat="49.08681" lon="1.76368">
        <ele>171.33</ele>
        <time>2019-06-16T08:23:19Z</time>
      </trkpt>
      <trkpt lat="49.08684" lon="1.76336">
        <ele>171.91</ele>
        <time>2019-06-16T08:23:39Z</time>
      </trkpt>
      <trkpt lat="49.08687" lon="1.76311">
        <ele>172.04</ele>
        <time>2019-06-16T08:23:58Z</time>
      </trkpt>
      <trkpt lat="49.08687" lon="1.76289">
        <ele>171.59</ele>
        <time>2019-06-16T08:24:09Z</time>
      </trkpt>
      <trkpt lat="49.0869" lon="1.76274">
        <ele>171.94</ele>
        <time>2019-06-16T08:24:39Z</time>
      </trkpt>
      <trkpt lat="49.08683" lon="1.7627">
        <ele>171.51</ele>
        <time>2019-06-16T08:25:05Z</time>
      </trkpt>
      <trkpt lat="49.08685" lon="1.76269">
        <ele>171.21</ele>
        <time>2019-06-16T08:25:29Z</time>
      </trkpt>
      <trkpt lat="49.08685" lon="1.7627">
        <ele>170.99</ele>
        <time>2019-06-16T08:25:52Z</time>
      </trkpt>
      <trkpt lat="49.08689" lon="1.76266">
        <ele>171.5</ele>
        <time>2019-06-16T08:26:16Z</time>
      </trkpt>
      <trkpt lat="49.08688" lon="1.7626">
        <ele>171.25</ele>
        <time>2019-06-16T08:26:40Z</time>
      </trkpt>
      <trkpt lat="49.08685" lon="1.76254">
        <ele>171.61</ele>
        <time>2019-06-16T08:27:07Z</time>
      </trkpt>
      <trkpt lat="49.08689" lon="1.76245">
        <ele>171.73</ele>
        <time>2019-06-16T08:27:27Z</time>
      </trkpt>
      <trkpt lat="49.08696" lon="1.76232">
        <ele>173.28</ele>
        <time>2019-06-16T08:27:44Z</time>
      </trkpt>
      <trkpt lat="49.08696" lon="1.76231">
        <ele>172.04</ele>
        <time>2019-06-16T08:27:46Z</time>
      </trkpt>
      <trkpt lat="49.08697" lon="1.76216">
        <ele>172.63</ele>
        <time>2019-06-16T08:28:00Z</time>
      </trkpt>
      <trkpt lat="49.08698" lon="1.76213">
        <ele>172.61</ele>
        <time>2019-06-16T08:28:02Z</time>
      </trkpt>
      <trkpt lat="49.08701" lon="1.7621">
        <ele>173.08</ele>
        <time>2019-06-16T08:28:07Z</time>
      </trkpt>
      <trkpt lat="49.08705" lon="1.76188">
        <ele>174.3</ele>
        <time>2019-06-16T08:28:23Z</time>
      </trkpt>
      <trkpt lat="49.0871" lon="1.76162">
        <ele>173.88</ele>
        <time>2019-06-16T08:28:39Z</time>
      </trkpt>
      <trkpt lat="49.08712" lon="1.76151">
        <ele>174.08</ele>
        <time>2019-06-16T08:28:47Z</time>
      </trkpt>
      <trkpt lat="49.08715" lon="1.76126">
        <ele>174.37</ele>
        <time>2019-06-16T08:29:02Z</time>
      </trkpt>
      <trkpt lat="49.08721" lon="1.76106">
        <ele>174.66</ele>
        <time>2019-06-16T08:29:17Z</time>
      </trkpt>
      <trkpt lat="49.08722" lon="1.76101">
        <ele>174.75</ele>
        <time>2019-06-16T08:29:22Z</time>
      </trkpt>
      <trkpt lat="49.08727" lon="1.76085">
        <ele>174.5</ele>
        <time>2019-06-16T08:29:33Z</time>
      </trkpt>
      <trkpt lat="49.08727" lon="1.76073">
        <ele>174.83</ele>
        <time>2019-06-16T08:29:50Z</time>
      </trkpt>
      <trkpt lat="49.08728" lon="1.76071">
        <ele>174.93</ele>
        <time>2019-06-16T08:30:14Z</time>
      </trkpt>
      <trkpt lat="49.08733" lon="1.76058">
        <ele>175.91</ele>
        <time>2019-06-16T08:30:33Z</time>
      </trkpt>
      <trkpt lat="49.08758" lon="1.76059">
        <ele>176.07</ele>
        <time>2019-06-16T08:30:49Z</time>
      </trkpt>
      <trkpt lat="49.08779" lon="1.76063">
        <ele>176.7</ele>
        <time>2019-06-16T08:31:06Z</time>
      </trkpt>
      <trkpt lat="49.08793" lon="1.76066">
        <ele>176.49</ele>
        <time>2019-06-16T08:31:20Z</time>
      </trkpt>
      <trkpt lat="49.08794" lon="1.76067">
        <ele>176.55</ele>
        <time>2019-06-16T08:31:21Z</time>
      </trkpt>
      <trkpt lat="49.08809" lon="1.76078">
        <ele>177.15</ele>
        <time>2019-06-16T08:31:35Z</time>
      </trkpt>
      <trkpt lat="49.08824" lon="1.76091">
        <ele>177.7</ele>
        <time>2019-06-16T08:31:49Z</time>
      </trkpt>
      <trkpt lat="49.08832" lon="1.76089">
        <ele>178.2</ele>
        <time>2019-06-16T08:32:04Z</time>
      </trkpt>
      <trkpt lat="49.08845" lon="1.76077">
        <ele>178.42</ele>
        <time>2019-06-16T08:32:22Z</time>
      </trkpt>
      <trkpt lat="49.08854" lon="1.76086">
        <ele>179.23</ele>
        <time>2019-06-16T08:32:40Z</time>
      </trkpt>
      <trkpt lat="49.08862" lon="1.76092">
        <ele>179.18</ele>
        <time>2019-06-16T08:32:51Z</time>
      </trkpt>
      <trkpt lat="49.08882" lon="1.76088">
        <ele>179.43</ele>
        <time>2019-06-16T08:33:10Z</time>
      </trkpt>
      <trkpt lat="49.08903" lon="1.76095">
        <ele>180.06</ele>
        <time>2019-06-16T08:33:29Z</time>
      </trkpt>
      <trkpt lat="49.08922" lon="1.76095">
        <ele>179.57</ele>
        <time>2019-06-16T08:33:50Z</time>
      </trkpt>
      <trkpt lat="49.08931" lon="1.76095">
        <ele>180.28</ele>
        <time>2019-06-16T08:33:59Z</time>
      </trkpt>
      <trkpt lat="49.08954" lon="1.76097">
        <ele>180.25</ele>
        <time>2019-06-16T08:34:18Z</time>
      </trkpt>
      <trkpt lat="49.08972" lon="1.76098">
        <ele>179.99</ele>
        <time>2019-06-16T08:34:35Z</time>
      </trkpt>
      <trkpt lat="49.08986" lon="1.76109">
        <ele>180.12</ele>
        <time>2019-06-16T08:34:53Z</time>
      </trkpt>
      <trkpt lat="49.0899" lon="1.76112">
        <ele>180.48</ele>
        <time>2019-06-16T08:35:12Z</time>
      </trkpt>
      <trkpt lat="49.09003" lon="1.76116">
        <ele>180.36</ele>
        <time>2019-06-16T08:35:28Z</time>
      </trkpt>
      <trkpt lat="49.09004" lon="1.76116">
        <ele>180.41</ele>
        <time>2019-06-16T08:35:29Z</time>
      </trkpt>
      <trkpt lat="49.09016" lon="1.76115">
        <ele>179.93</ele>
        <time>2019-06-16T08:35:39Z</time>
      </trkpt>
      <trkpt lat="49.09021" lon="1.76113">
        <ele>180.15</ele>
        <time>2019-06-16T08:35:43Z</time>
      </trkpt>
      <trkpt lat="49.09043" lon="1.76103">
        <ele>179.17</ele>
        <time>2019-06-16T08:36:01Z</time>
      </trkpt>
      <trkpt lat="49.09047" lon="1.76102">
        <ele>179.06</ele>
        <time>2019-06-16T08:36:14Z</time>
      </trkpt>
      <trkpt lat="49.09051" lon="1.76095">
        <ele>178.98</ele>
        <time>2019-06-16T08:36:44Z</time>
      </trkpt>
      <trkpt lat="49.09051" lon="1.76094">
        <ele>179.22</ele>
        <time>2019-06-16T08:36:45Z</time>
      </trkpt>
      <trkpt lat="49.09048" lon="1.76073">
        <ele>179.39</ele>
        <time>2019-06-16T08:36:55Z</time>
      </trkpt>
      <trkpt lat="49.09044" lon="1.76047">
        <ele>179.53</ele>
        <time>2019-06-16T08:37:09Z</time>
      </trkpt>
      <trkpt lat="49.09042" lon="1.76027">
        <ele>180.21</ele>
        <time>2019-06-16T08:37:21Z</time>
      </trkpt>
      <trkpt lat="49.09041" lon="1.75995">
        <ele>180.62</ele>
        <time>2019-06-16T08:37:41Z</time>
      </trkpt>
      <trkpt lat="49.09043" lon="1.7598">
        <ele>180.67</ele>
        <time>2019-06-16T08:37:55Z</time>
      </trkpt>
      <trkpt lat="49.09041" lon="1.75984">
        <ele>180.38</ele>
        <time>2019-06-16T08:38:12Z</time>
      </trkpt>
      <trkpt lat="49.09039" lon="1.7596">
        <ele>180.59</ele>
        <time>2019-06-16T08:38:27Z</time>
      </trkpt>
      <trkpt lat="49.09036" lon="1.75946">
        <ele>180.72</ele>
        <time>2019-06-16T08:38:36Z</time>
      </trkpt>
      <trkpt lat="49.09033" lon="1.75917">
        <ele>180.99</ele>
        <time>2019-06-16T08:38:53Z</time>
      </trkpt>
      <trkpt lat="49.09029" lon="1.75887">
        <ele>181.37</ele>
        <time>2019-06-16T08:39:10Z</time>
      </trkpt>
      <trkpt lat="49.09029" lon="1.75861">
        <ele>181.08</ele>
        <time>2019-06-16T08:39:25Z</time>
      </trkpt>
      <trkpt lat="49.09028" lon="1.75832">
        <ele>180.93</ele>
        <time>2019-06-16T08:39:44Z</time>
      </trkpt>
      <trkpt lat="49.09025" lon="1.75814">
        <ele>181.06</ele>
        <time>2019-06-16T08:39:57Z</time>
      </trkpt>
      <trkpt lat="49.09023" lon="1.75773">
        <ele>180.64</ele>
        <time>2019-06-16T08:40:17Z</time>
      </trkpt>
      <trkpt lat="49.09017" lon="1.75742">
        <ele>180.72</ele>
        <time>2019-06-16T08:40:39Z</time>
      </trkpt>
      <trkpt lat="49.09005" lon="1.75728">
        <ele>180.56</ele>
        <time>2019-06-16T08:40:59Z</time>
      </trkpt>
      <trkpt lat="49.09" lon="1.75719">
        <ele>180.75</ele>
        <time>2019-06-16T08:41:02Z</time>
      </trkpt>
      <trkpt lat="49.08982" lon="1.75707">
        <ele>180.42</ele>
        <time>2019-06-16T08:41:16Z</time>
      </trkpt>
      <trkpt lat="49.08963" lon="1.75701">
        <ele>180.52</ele>
        <time>2019-06-16T08:41:33Z</time>
      </trkpt>
      <trkpt lat="49.08942" lon="1.75702">
        <ele>180.05</ele>
        <time>2019-06-16T08:41:53Z</time>
      </trkpt>
      <trkpt lat="49.0892" lon="1.75698">
        <ele>179.52</ele>
        <time>2019-06-16T08:42:09Z</time>
      </trkpt>
      <trkpt lat="49.08895" lon="1.75694">
        <ele>178.62</ele>
        <time>2019-06-16T08:42:29Z</time>
      </trkpt>
      <trkpt lat="49.08879" lon="1.7569">
        <ele>178.24</ele>
        <time>2019-06-16T08:42:44Z</time>
      </trkpt>
      <trkpt lat="49.08858" lon="1.75685">
        <ele>177.94</ele>
        <time>2019-06-16T08:43:04Z</time>
      </trkpt>
      <trkpt lat="49.08833" lon="1.7567">
        <ele>177.49</ele>
        <time>2019-06-16T08:43:26Z</time>
      </trkpt>
      <trkpt lat="49.08817" lon="1.75648">
        <ele>176.62</ele>
        <time>2019-06-16T08:43:44Z</time>
      </trkpt>
      <trkpt lat="49.08804" lon="1.75623">
        <ele>176.46</ele>
        <time>2019-06-16T08:44:04Z</time>
      </trkpt>
      <trkpt lat="49.08794" lon="1.75591">
        <ele>176.04</ele>
        <time>2019-06-16T08:44:25Z</time>
      </trkpt>
      <trkpt lat="49.08785" lon="1.75571">
        <ele>175.48</ele>
        <time>2019-06-16T08:44:39Z</time>
      </trkpt>
      <trkpt lat="49.08785" lon="1.75566">
        <ele>175.31</ele>
        <time>2019-06-16T08:44:44Z</time>
      </trkpt>
      <trkpt lat="49.08777" lon="1.75538">
        <ele>174.79</ele>
        <time>2019-06-16T08:45:06Z</time>
      </trkpt>
      <trkpt lat="49.08764" lon="1.75522">
        <ele>174.11</ele>
        <time>2019-06-16T08:45:30Z</time>
      </trkpt>
      <trkpt lat="49.08747" lon="1.75502">
        <ele>173.48</ele>
        <time>2019-06-16T08:45:50Z</time>
      </trkpt>
      <trkpt lat="49.08728" lon="1.75479">
        <ele>172.57</ele>
        <time>2019-06-16T08:46:09Z</time>
      </trkpt>
      <trkpt lat="49.08702" lon="1.7546">
        <ele>172.12</ele>
        <time>2019-06-16T08:46:31Z</time>
      </trkpt>
      <trkpt lat="49.08683" lon="1.75451">
        <ele>170.65</ele>
        <time>2019-06-16T08:46:51Z</time>
      </trkpt>
      <trkpt lat="49.08662" lon="1.75441">
        <ele>170.3</ele>
        <time>2019-06-16T08:47:10Z</time>
      </trkpt>
      <trkpt lat="49.08659" lon="1.75438">
        <ele>170.04</ele>
        <time>2019-06-16T08:47:13Z</time>
      </trkpt>
      <trkpt lat="49.08643" lon="1.75425">
        <ele>169.34</ele>
        <time>2019-06-16T08:47:29Z</time>
      </trkpt>
      <trkpt lat="49.08625" lon="1.75414">
        <ele>168.69</ele>
        <time>2019-06-16T08:47:50Z</time>
      </trkpt>
      <trkpt lat="49.08607" lon="1.75396">
        <ele>168.56</ele>
        <time>2019-06-16T08:48:08Z</time>
      </trkpt>
      <trkpt lat="49.08588" lon="1.75372">
        <ele>168.19</ele>
        <time>2019-06-16T08:48:29Z</time>
      </trkpt>
      <trkpt lat="49.08584" lon="1.75367">
        <ele>168.48</ele>
        <time>2019-06-16T08:48:36Z</time>
      </trkpt>
      <trkpt lat="49.08569" lon="1.75344">
        <ele>168.06</ele>
        <time>2019-06-16T08:48:51Z</time>
      </trkpt>
      <trkpt lat="49.0856" lon="1.75335">
        <ele>167.7</ele>
        <time>2019-06-16T08:49:01Z</time>
      </trkpt>
      <trkpt lat="49.08542" lon="1.75328">
        <ele>167.74</ele>
        <time>2019-06-16T08:49:17Z</time>
      </trkpt>
      <trkpt lat="49.0853" lon="1.75326">
        <ele>167.72</ele>
        <time>2019-06-16T08:49:35Z</time>
      </trkpt>
      <trkpt lat="49.08512" lon="1.75326">
        <ele>167.44</ele>
        <time>2019-06-16T08:49:55Z</time>
      </trkpt>
      <trkpt lat="49.08507" lon="1.75333">
        <ele>166.99</ele>
        <time>2019-06-16T08:50:17Z</time>
      </trkpt>
      <trkpt lat="49.08504" lon="1.75334">
        <ele>166.95</ele>
        <time>2019-06-16T08:50:45Z</time>
      </trkpt>
      <trkpt lat="49.08503" lon="1.75337">
        <ele>167.31</ele>
        <time>2019-06-16T08:51:14Z</time>
      </trkpt>
      <trkpt lat="49.08506" lon="1.75336">
        <ele>166.77</ele>
        <time>2019-06-16T08:51:37Z</time>
      </trkpt>
      <trkpt lat="49.08494" lon="1.75336">
        <ele>166.95</ele>
        <time>2019-06-16T08:51:52Z</time>
      </trkpt>
      <trkpt lat="49.08477" lon="1.75334">
        <ele>167.33</ele>
        <time>2019-06-16T08:52:09Z</time>
      </trkpt>
      <trkpt lat="49.08458" lon="1.75329">
        <ele>166.63</ele>
        <time>2019-06-16T08:52:26Z</time>
      </trkpt>
      <trkpt lat="49.08436" lon="1.75326">
        <ele>166.27</ele>
        <time>2019-06-16T08:52:46Z</time>
      </trkpt>
      <trkpt lat="49.08422" lon="1.75318">
        <ele>166.33</ele>
        <time>2019-06-16T08:53:00Z</time>
      </trkpt>
      <trkpt lat="49.08402" lon="1.75307">
        <ele>166.58</ele>
        <time>2019-06-16T08:53:19Z</time>
      </trkpt>
      <trkpt lat="49.08382" lon="1.75298">
        <ele>166.34</ele>
        <time>2019-06-16T08:53:35Z</time>
      </trkpt>
      <trkpt lat="49.08369" lon="1.75297">
        <ele>165.72</ele>
        <time>2019-06-16T08:53:53Z</time>
      </trkpt>
      <trkpt lat="49.0835" lon="1.75284">
        <ele>165.12</ele>
        <time>2019-06-16T08:54:12Z</time>
      </trkpt>
      <trkpt lat="49.0833" lon="1.75274">
        <ele>164.22</ele>
        <time>2019-06-16T08:54:33Z</time>
      </trkpt>
      <trkpt lat="49.08309" lon="1.7527">
        <ele>163.59</ele>
        <time>2019-06-16T08:54:50Z</time>
      </trkpt>
      <trkpt lat="49.08288" lon="1.75261">
        <ele>162.32</ele>
        <time>2019-06-16T08:55:10Z</time>
      </trkpt>
      <trkpt lat="49.08267" lon="1.75245">
        <ele>160.93</ele>
        <time>2019-06-16T08:55:27Z</time>
      </trkpt>
      <trkpt lat="49.08248" lon="1.7523">
        <ele>160.32</ele>
        <time>2019-06-16T08:55:46Z</time>
      </trkpt>
      <trkpt lat="49.08228" lon="1.75219">
        <ele>158.48</ele>
        <time>2019-06-16T08:56:04Z</time>
      </trkpt>
      <trkpt lat="49.0822" lon="1.75221">
        <ele>156.58</ele>
        <time>2019-06-16T08:56:26Z</time>
      </trkpt>
      <trkpt lat="49.08202" lon="1.75201">
        <ele>154.13</ele>
        <time>2019-06-16T08:56:46Z</time>
      </trkpt>
      <trkpt lat="49.08185" lon="1.75186">
        <ele>151.12</ele>
        <time>2019-06-16T08:57:06Z</time>
      </trkpt>
      <trkpt lat="49.0818" lon="1.75162">
        <ele>148.72</ele>
        <time>2019-06-16T08:57:23Z</time>
      </trkpt>
      <trkpt lat="49.08177" lon="1.75134">
        <ele>146.64</ele>
        <time>2019-06-16T08:57:43Z</time>
      </trkpt>
      <trkpt lat="49.08175" lon="1.75108">
        <ele>145.68</ele>
        <time>2019-06-16T08:58:02Z</time>
      </trkpt>
      <trkpt lat="49.08176" lon="1.75089">
        <ele>142.98</ele>
        <time>2019-06-16T08:58:21Z</time>
      </trkpt>
      <trkpt lat="49.08174" lon="1.7505">
        <ele>140.48</ele>
        <time>2019-06-16T08:58:41Z</time>
      </trkpt>
      <trkpt lat="49.08168" lon="1.75022">
        <ele>137.71</ele>
        <time>2019-06-16T08:58:58Z</time>
      </trkpt>
      <trkpt lat="49.08161" lon="1.74991">
        <ele>135.91</ele>
        <time>2019-06-16T08:59:16Z</time>
      </trkpt>
      <trkpt lat="49.08154" lon="1.74966">
        <ele>133.78</ele>
        <time>2019-06-16T08:59:34Z</time>
      </trkpt>
      <trkpt lat="49.08152" lon="1.74947">
        <ele>132.22</ele>
        <time>2019-06-16T08:59:49Z</time>
      </trkpt>
      <trkpt lat="49.08148" lon="1.74926">
        <ele>129.9</ele>
        <time>2019-06-16T09:00:08Z</time>
      </trkpt>
      <trkpt lat="49.08142" lon="1.74905">
        <ele>128.75</ele>
        <time>2019-06-16T09:00:24Z</time>
      </trkpt>
      <trkpt lat="49.08137" lon="1.74897">
        <ele>128.35</ele>
        <time>2019-06-16T09:00:49Z</time>
      </trkpt>
      <trkpt lat="49.08128" lon="1.7489">
        <ele>128.1</ele>
        <time>2019-06-16T09:01:12Z</time>
      </trkpt>
      <trkpt lat="49.08123" lon="1.74879">
        <ele>126.84</ele>
        <time>2019-06-16T09:01:33Z</time>
      </trkpt>
      <trkpt lat="49.08113" lon="1.74866">
        <ele>124.07</ele>
        <time>2019-06-16T09:01:52Z</time>
      </trkpt>
      <trkpt lat="49.08101" lon="1.74848">
        <ele>122.47</ele>
        <time>2019-06-16T09:02:09Z</time>
      </trkpt>
      <trkpt lat="49.08088" lon="1.74828">
        <ele>120.98</ele>
        <time>2019-06-16T09:02:25Z</time>
      </trkpt>
      <trkpt lat="49.08077" lon="1.74813">
        <ele>117.88</ele>
        <time>2019-06-16T09:02:41Z</time>
      </trkpt>
      <trkpt lat="49.0807" lon="1.74802">
        <ele>117.24</ele>
        <time>2019-06-16T09:02:46Z</time>
      </trkpt>
      <trkpt lat="49.08068" lon="1.748">
        <ele>117.57</ele>
        <time>2019-06-16T09:02:48Z</time>
      </trkpt>
      <trkpt lat="49.08053" lon="1.74776">
        <ele>115.24</ele>
        <time>2019-06-16T09:03:05Z</time>
      </trkpt>
      <trkpt lat="49.08046" lon="1.74762">
        <ele>114.03</ele>
        <time>2019-06-16T09:03:13Z</time>
      </trkpt>
      <trkpt lat="49.08032" lon="1.74746">
        <ele>112.58</ele>
        <time>2019-06-16T09:03:30Z</time>
      </trkpt>
      <trkpt lat="49.08018" lon="1.74727">
        <ele>111.25</ele>
        <time>2019-06-16T09:03:45Z</time>
      </trkpt>
      <trkpt lat="49.08007" lon="1.74709">
        <ele>111.17</ele>
        <time>2019-06-16T09:04:03Z</time>
      </trkpt>
      <trkpt lat="49.08003" lon="1.747">
        <ele>111.04</ele>
        <time>2019-06-16T09:04:07Z</time>
      </trkpt>
      <trkpt lat="49.08" lon="1.74692">
        <ele>110.97</ele>
        <time>2019-06-16T09:04:29Z</time>
      </trkpt>
      <trkpt lat="49.08002" lon="1.74688">
        <ele>110.89</ele>
        <time>2019-06-16T09:04:53Z</time>
      </trkpt>
      <trkpt lat="49.08" lon="1.74685">
        <ele>110.76</ele>
        <time>2019-06-16T09:04:59Z</time>
      </trkpt>
      <trkpt lat="49.07994" lon="1.74676">
        <ele>111.24</ele>
        <time>2019-06-16T09:05:14Z</time>
      </trkpt>
      <trkpt lat="49.07994" lon="1.74672">
        <ele>111.44</ele>
        <time>2019-06-16T09:05:40Z</time>
      </trkpt>
      <trkpt lat="49.07996" lon="1.74673">
        <ele>111.56</ele>
        <time>2019-06-16T09:06:08Z</time>
      </trkpt>
      <trkpt lat="49.07989" lon="1.74679">
        <ele>111.47</ele>
        <time>2019-06-16T09:06:27Z</time>
      </trkpt>
      <trkpt lat="49.07985" lon="1.7468">
        <ele>111.35</ele>
        <time>2019-06-16T09:06:31Z</time>
      </trkpt>
      <trkpt lat="49.07974" lon="1.7468">
        <ele>112.4</ele>
        <time>2019-06-16T09:06:49Z</time>
      </trkpt>
      <trkpt lat="49.07964" lon="1.74671">
        <ele>111.37</ele>
        <time>2019-06-16T09:07:06Z</time>
      </trkpt>
      <trkpt lat="49.07964" lon="1.74666">
        <ele>110.92</ele>
        <time>2019-06-16T09:07:14Z</time>
      </trkpt>
      <trkpt lat="49.07964" lon="1.74663">
        <ele>110.35</ele>
        <time>2019-06-16T09:07:16Z</time>
      </trkpt>
      <trkpt lat="49.07964" lon="1.74659">
        <ele>109.53</ele>
        <time>2019-06-16T09:07:18Z</time>
      </trkpt>
      <trkpt lat="49.07962" lon="1.74654">
        <ele>109.44</ele>
        <time>2019-06-16T09:07:22Z</time>
      </trkpt>
      <trkpt lat="49.07958" lon="1.74635">
        <ele>109.08</ele>
        <time>2019-06-16T09:07:38Z</time>
      </trkpt>
      <trkpt lat="49.07952" lon="1.74621">
        <ele>108.69</ele>
        <time>2019-06-16T09:07:51Z</time>
      </trkpt>
      <trkpt lat="49.07937" lon="1.74596">
        <ele>108.79</ele>
        <time>2019-06-16T09:08:06Z</time>
      </trkpt>
      <trkpt lat="49.07932" lon="1.74589">
        <ele>108.47</ele>
        <time>2019-06-16T09:08:12Z</time>
      </trkpt>
      <trkpt lat="49.07917" lon="1.74575">
        <ele>108.85</ele>
        <time>2019-06-16T09:08:29Z</time>
      </trkpt>
      <trkpt lat="49.07917" lon="1.7457">
        <ele>109.17</ele>
        <time>2019-06-16T09:08:43Z</time>
      </trkpt>
      <trkpt lat="49.07917" lon="1.74572">
        <ele>109.54</ele>
        <time>2019-06-16T09:08:45Z</time>
      </trkpt>
      <trkpt lat="49.07919" lon="1.74574">
        <ele>109.08</ele>
        <time>2019-06-16T09:08:47Z</time>
      </trkpt>
      <trkpt lat="49.07924" lon="1.74579">
        <ele>108.66</ele>
        <time>2019-06-16T09:09:02Z</time>
      </trkpt>
      <trkpt lat="49.07926" lon="1.7458">
        <ele>108.98</ele>
        <time>2019-06-16T09:09:24Z</time>
      </trkpt>
      <trkpt lat="49.07927" lon="1.7458">
        <ele>109.23</ele>
        <time>2019-06-16T09:09:51Z</time>
      </trkpt>
      <trkpt lat="49.07927" lon="1.7458">
        <ele>109.59</ele>
        <time>2019-06-16T09:10:26Z</time>
      </trkpt>
      <trkpt lat="49.07927" lon="1.74579">
        <ele>109.95</ele>
        <time>2019-06-16T09:10:56Z</time>
      </trkpt>
      <trkpt lat="49.07927" lon="1.74578">
        <ele>110.16</ele>
        <time>2019-06-16T09:11:31Z</time>
      </trkpt>
      <trkpt lat="49.07929" lon="1.74578">
        <ele>110.99</ele>
        <time>2019-06-16T09:11:58Z</time>
      </trkpt>
      <trkpt lat="49.07928" lon="1.74578">
        <ele>111.43</ele>
        <time>2019-06-16T09:12:23Z</time>
      </trkpt>
      <trkpt lat="49.07928" lon="1.74581">
        <ele>111.32</ele>
        <time>2019-06-16T09:12:48Z</time>
      </trkpt>
      <trkpt lat="49.07921" lon="1.74573">
        <ele>111.02</ele>
        <time>2019-06-16T09:13:07Z</time>
      </trkpt>
      <trkpt lat="49.07911" lon="1.74565">
        <ele>112.35</ele>
        <time>2019-06-16T09:13:21Z</time>
      </trkpt>
      <trkpt lat="49.07902" lon="1.7456">
        <ele>112</ele>
        <time>2019-06-16T09:13:34Z</time>
      </trkpt>
      <trkpt lat="49.07896" lon="1.74556">
        <ele>112.32</ele>
        <time>2019-06-16T09:13:42Z</time>
      </trkpt>
      <trkpt lat="49.07881" lon="1.7455">
        <ele>110.94</ele>
        <time>2019-06-16T09:13:57Z</time>
      </trkpt>
      <trkpt lat="49.07875" lon="1.74547">
        <ele>112.77</ele>
        <time>2019-06-16T09:14:04Z</time>
      </trkpt>
      <trkpt lat="49.07864" lon="1.7454">
        <ele>112.61</ele>
        <time>2019-06-16T09:14:16Z</time>
      </trkpt>
      <trkpt lat="49.07862" lon="1.74537">
        <ele>112.25</ele>
        <time>2019-06-16T09:14:20Z</time>
      </trkpt>
      <trkpt lat="49.07857" lon="1.7453">
        <ele>112.64</ele>
        <time>2019-06-16T09:14:26Z</time>
      </trkpt>
      <trkpt lat="49.07848" lon="1.74511">
        <ele>113.78</ele>
        <time>2019-06-16T09:14:42Z</time>
      </trkpt>
      <trkpt lat="49.07845" lon="1.74502">
        <ele>113.94</ele>
        <time>2019-06-16T09:14:58Z</time>
      </trkpt>
      <trkpt lat="49.07846" lon="1.74495">
        <ele>114.76</ele>
        <time>2019-06-16T09:15:13Z</time>
      </trkpt>
      <trkpt lat="49.07846" lon="1.74489">
        <ele>115.33</ele>
        <time>2019-06-16T09:15:20Z</time>
      </trkpt>
      <trkpt lat="49.07844" lon="1.74484">
        <ele>114.9</ele>
        <time>2019-06-16T09:15:41Z</time>
      </trkpt>
      <trkpt lat="49.07839" lon="1.74478">
        <ele>115.2</ele>
        <time>2019-06-16T09:15:54Z</time>
      </trkpt>
      <trkpt lat="49.07836" lon="1.74475">
        <ele>115.89</ele>
        <time>2019-06-16T09:15:58Z</time>
      </trkpt>
      <trkpt lat="49.07823" lon="1.74459">
        <ele>116.78</ele>
        <time>2019-06-16T09:16:13Z</time>
      </trkpt>
      <trkpt lat="49.07812" lon="1.74444">
        <ele>118.34</ele>
        <time>2019-06-16T09:16:27Z</time>
      </trkpt>
      <trkpt lat="49.078" lon="1.74425">
        <ele>119.57</ele>
        <time>2019-06-16T09:16:42Z</time>
      </trkpt>
      <trkpt lat="49.07787" lon="1.7441">
        <ele>120.88</ele>
        <time>2019-06-16T09:16:56Z</time>
      </trkpt>
      <trkpt lat="49.07771" lon="1.74399">
        <ele>121.26</ele>
        <time>2019-06-16T09:17:10Z</time>
      </trkpt>
      <trkpt lat="49.07761" lon="1.74394">
        <ele>121.71</ele>
        <time>2019-06-16T09:17:19Z</time>
      </trkpt>
      <trkpt lat="49.07746" lon="1.74389">
        <ele>121.46</ele>
        <time>2019-06-16T09:17:33Z</time>
      </trkpt>
      <trkpt lat="49.07734" lon="1.74385">
        <ele>121.19</ele>
        <time>2019-06-16T09:17:44Z</time>
      </trkpt>
      <trkpt lat="49.07714" lon="1.74378">
        <ele>121.33</ele>
        <time>2019-06-16T09:18:02Z</time>
      </trkpt>
      <trkpt lat="49.07697" lon="1.74371">
        <ele>121.52</ele>
        <time>2019-06-16T09:18:19Z</time>
      </trkpt>
      <trkpt lat="49.07691" lon="1.7437">
        <ele>121.05</ele>
        <time>2019-06-16T09:18:29Z</time>
      </trkpt>
      <trkpt lat="49.07689" lon="1.7437">
        <ele>121.11</ele>
        <time>2019-06-16T09:18:31Z</time>
      </trkpt>
      <trkpt lat="49.07679" lon="1.74366">
        <ele>121.29</ele>
        <time>2019-06-16T09:18:41Z</time>
      </trkpt>
      <trkpt lat="49.07683" lon="1.74358">
        <ele>121.48</ele>
        <time>2019-06-16T09:18:49Z</time>
      </trkpt>
      <trkpt lat="49.07686" lon="1.74343">
        <ele>120.9</ele>
        <time>2019-06-16T09:19:00Z</time>
      </trkpt>
      <trkpt lat="49.07688" lon="1.74338">
        <ele>121.76</ele>
        <time>2019-06-16T09:19:04Z</time>
      </trkpt>
      <trkpt lat="49.07689" lon="1.74331">
        <ele>122.02</ele>
        <time>2019-06-16T09:19:08Z</time>
      </trkpt>
      <trkpt lat="49.07693" lon="1.74307">
        <ele>122.13</ele>
        <time>2019-06-16T09:19:24Z</time>
      </trkpt>
      <trkpt lat="49.07694" lon="1.74301">
        <ele>121.85</ele>
        <time>2019-06-16T09:19:27Z</time>
      </trkpt>
      <trkpt lat="49.07699" lon="1.74277">
        <ele>121.49</ele>
        <time>2019-06-16T09:19:44Z</time>
      </trkpt>
      <trkpt lat="49.07703" lon="1.74261">
        <ele>122.93</ele>
        <time>2019-06-16T09:19:59Z</time>
      </trkpt>
      <trkpt lat="49.07704" lon="1.74242">
        <ele>123.38</ele>
        <time>2019-06-16T09:20:12Z</time>
      </trkpt>
      <trkpt lat="49.07699" lon="1.74214">
        <ele>123.63</ele>
        <time>2019-06-16T09:20:27Z</time>
      </trkpt>
      <trkpt lat="49.07691" lon="1.74192">
        <ele>122.92</ele>
        <time>2019-06-16T09:20:44Z</time>
      </trkpt>
      <trkpt lat="49.07684" lon="1.74174">
        <ele>122.81</ele>
        <time>2019-06-16T09:20:58Z</time>
      </trkpt>
      <trkpt lat="49.07676" lon="1.74154">
        <ele>122.12</ele>
        <time>2019-06-16T09:21:13Z</time>
      </trkpt>
      <trkpt lat="49.07663" lon="1.74128">
        <ele>121.36</ele>
        <time>2019-06-16T09:21:31Z</time>
      </trkpt>
      <trkpt lat="49.0765" lon="1.741">
        <ele>122.27</ele>
        <time>2019-06-16T09:21:50Z</time>
      </trkpt>
      <trkpt lat="49.07645" lon="1.74088">
        <ele>121.24</ele>
        <time>2019-06-16T09:22:02Z</time>
      </trkpt>
      <trkpt lat="49.07644" lon="1.74085">
        <ele>121.13</ele>
        <time>2019-06-16T09:22:04Z</time>
      </trkpt>
      <trkpt lat="49.07634" lon="1.74064">
        <ele>120.95</ele>
        <time>2019-06-16T09:22:20Z</time>
      </trkpt>
      <trkpt lat="49.07633" lon="1.74061">
        <ele>120.93</ele>
        <time>2019-06-16T09:22:22Z</time>
      </trkpt>
      <trkpt lat="49.0763" lon="1.74057">
        <ele>120.39</ele>
        <time>2019-06-16T09:22:26Z</time>
      </trkpt>
      <trkpt lat="49.07618" lon="1.74031">
        <ele>120.59</ele>
        <time>2019-06-16T09:22:44Z</time>
      </trkpt>
      <trkpt lat="49.07607" lon="1.74008">
        <ele>120.68</ele>
        <time>2019-06-16T09:23:01Z</time>
      </trkpt>
      <trkpt lat="49.07595" lon="1.73985">
        <ele>120.04</ele>
        <time>2019-06-16T09:23:19Z</time>
      </trkpt>
      <trkpt lat="49.07584" lon="1.73961">
        <ele>119.87</ele>
        <time>2019-06-16T09:23:36Z</time>
      </trkpt>
      <trkpt lat="49.07574" lon="1.73939">
        <ele>120.2</ele>
        <time>2019-06-16T09:23:52Z</time>
      </trkpt>
      <trkpt lat="49.07562" lon="1.73915">
        <ele>120.55</ele>
        <time>2019-06-16T09:24:09Z</time>
      </trkpt>
      <trkpt lat="49.07549" lon="1.73887">
        <ele>120.3</ele>
        <time>2019-06-16T09:24:27Z</time>
      </trkpt>
      <trkpt lat="49.07535" lon="1.73856">
        <ele>120.18</ele>
        <time>2019-06-16T09:24:47Z</time>
      </trkpt>
      <trkpt lat="49.0752" lon="1.73827">
        <ele>120.16</ele>
        <time>2019-06-16T09:25:05Z</time>
      </trkpt>
      <trkpt lat="49.07507" lon="1.73794">
        <ele>119.73</ele>
        <time>2019-06-16T09:25:27Z</time>
      </trkpt>
      <trkpt lat="49.07497" lon="1.7377">
        <ele>119.96</ele>
        <time>2019-06-16T09:25:45Z</time>
      </trkpt>
      <trkpt lat="49.07494" lon="1.73763">
        <ele>120</ele>
        <time>2019-06-16T09:25:50Z</time>
      </trkpt>
      <trkpt lat="49.07491" lon="1.73755">
        <ele>120.25</ele>
        <time>2019-06-16T09:25:56Z</time>
      </trkpt>
      <trkpt lat="49.07482" lon="1.73727">
        <ele>120.26</ele>
        <time>2019-06-16T09:26:14Z</time>
      </trkpt>
      <trkpt lat="49.07478" lon="1.73701">
        <ele>120.88</ele>
        <time>2019-06-16T09:26:31Z</time>
      </trkpt>
      <trkpt lat="49.07476" lon="1.73679">
        <ele>120.95</ele>
        <time>2019-06-16T09:26:45Z</time>
      </trkpt>
      <trkpt lat="49.07475" lon="1.73674">
        <ele>120.81</ele>
        <time>2019-06-16T09:26:48Z</time>
      </trkpt>
      <trkpt lat="49.0747" lon="1.73648">
        <ele>121.17</ele>
        <time>2019-06-16T09:27:04Z</time>
      </trkpt>
      <trkpt lat="49.07467" lon="1.73634">
        <ele>121.43</ele>
        <time>2019-06-16T09:27:13Z</time>
      </trkpt>
      <trkpt lat="49.07463" lon="1.73607">
        <ele>121.95</ele>
        <time>2019-06-16T09:27:30Z</time>
      </trkpt>
      <trkpt lat="49.07459" lon="1.73576">
        <ele>122.34</ele>
        <time>2019-06-16T09:27:48Z</time>
      </trkpt>
      <trkpt lat="49.07453" lon="1.73545">
        <ele>122.78</ele>
        <time>2019-06-16T09:28:07Z</time>
      </trkpt>
      <trkpt lat="49.0745" lon="1.73526">
        <ele>122.95</ele>
        <time>2019-06-16T09:28:19Z</time>
      </trkpt>
      <trkpt lat="49.07449" lon="1.73523">
        <ele>123.39</ele>
        <time>2019-06-16T09:28:21Z</time>
      </trkpt>
      <trkpt lat="49.07447" lon="1.73502">
        <ele>124.33</ele>
        <time>2019-06-16T09:28:38Z</time>
      </trkpt>
      <trkpt lat="49.07447" lon="1.73497">
        <ele>124.35</ele>
        <time>2019-06-16T09:28:41Z</time>
      </trkpt>
      <trkpt lat="49.07445" lon="1.73486">
        <ele>124.58</ele>
        <time>2019-06-16T09:28:48Z</time>
      </trkpt>
      <trkpt lat="49.07443" lon="1.7348">
        <ele>125.05</ele>
        <time>2019-06-16T09:28:52Z</time>
      </trkpt>
      <trkpt lat="49.07439" lon="1.73455">
        <ele>125.7</ele>
        <time>2019-06-16T09:29:09Z</time>
      </trkpt>
      <trkpt lat="49.07439" lon="1.73452">
        <ele>125.49</ele>
        <time>2019-06-16T09:29:11Z</time>
      </trkpt>
      <trkpt lat="49.07438" lon="1.73448">
        <ele>125.32</ele>
        <time>2019-06-16T09:29:14Z</time>
      </trkpt>
      <trkpt lat="49.07433" lon="1.73418">
        <ele>126.25</ele>
        <time>2019-06-16T09:29:33Z</time>
      </trkpt>
      <trkpt lat="49.07431" lon="1.73408">
        <ele>127.35</ele>
        <time>2019-06-16T09:29:41Z</time>
      </trkpt>
      <trkpt lat="49.0743" lon="1.73404">
        <ele>126.95</ele>
        <time>2019-06-16T09:29:57Z</time>
      </trkpt>
      <trkpt lat="49.0743" lon="1.734">
        <ele>126.69</ele>
        <time>2019-06-16T09:30:00Z</time>
      </trkpt>
      <trkpt lat="49.07429" lon="1.73397">
        <ele>126.37</ele>
        <time>2019-06-16T09:30:02Z</time>
      </trkpt>
      <trkpt lat="49.07427" lon="1.73383">
        <ele>126.86</ele>
        <time>2019-06-16T09:30:11Z</time>
      </trkpt>
      <trkpt lat="49.07422" lon="1.73358">
        <ele>127.08</ele>
        <time>2019-06-16T09:30:27Z</time>
      </trkpt>
      <trkpt lat="49.0742" lon="1.73343">
        <ele>127.64</ele>
        <time>2019-06-16T09:30:41Z</time>
      </trkpt>
      <trkpt lat="49.07419" lon="1.73345">
        <ele>127.48</ele>
        <time>2019-06-16T09:30:54Z</time>
      </trkpt>
      <trkpt lat="49.07421" lon="1.73353">
        <ele>127.66</ele>
        <time>2019-06-16T09:31:13Z</time>
      </trkpt>
      <trkpt lat="49.0742" lon="1.73351">
        <ele>126.66</ele>
        <time>2019-06-16T09:31:18Z</time>
      </trkpt>
      <trkpt lat="49.0742" lon="1.73338">
        <ele>127.92</ele>
        <time>2019-06-16T09:31:27Z</time>
      </trkpt>
      <trkpt lat="49.07418" lon="1.73332">
        <ele>128.01</ele>
        <time>2019-06-16T09:31:32Z</time>
      </trkpt>
      <trkpt lat="49.07414" lon="1.73302">
        <ele>127.89</ele>
        <time>2019-06-16T09:31:49Z</time>
      </trkpt>
      <trkpt lat="49.0741" lon="1.73274">
        <ele>128.35</ele>
        <time>2019-06-16T09:32:05Z</time>
      </trkpt>
      <trkpt lat="49.07408" lon="1.73262">
        <ele>128.59</ele>
        <time>2019-06-16T09:32:20Z</time>
      </trkpt>
      <trkpt lat="49.07408" lon="1.73257">
        <ele>128.99</ele>
        <time>2019-06-16T09:32:28Z</time>
      </trkpt>
      <trkpt lat="49.07407" lon="1.73252">
        <ele>127.66</ele>
        <time>2019-06-16T09:32:31Z</time>
      </trkpt>
      <trkpt lat="49.07405" lon="1.73229">
        <ele>128.79</ele>
        <time>2019-06-16T09:32:47Z</time>
      </trkpt>
      <trkpt lat="49.07415" lon="1.73227">
        <ele>128.48</ele>
        <time>2019-06-16T09:33:04Z</time>
      </trkpt>
      <trkpt lat="49.07418" lon="1.73229">
        <ele>128.58</ele>
        <time>2019-06-16T09:33:25Z</time>
      </trkpt>
      <trkpt lat="49.07414" lon="1.73227">
        <ele>128.32</ele>
        <time>2019-06-16T09:33:33Z</time>
      </trkpt>
      <trkpt lat="49.07406" lon="1.73217">
        <ele>129.06</ele>
        <time>2019-06-16T09:33:47Z</time>
      </trkpt>
      <trkpt lat="49.07405" lon="1.73209">
        <ele>128.18</ele>
        <time>2019-06-16T09:33:56Z</time>
      </trkpt>
      <trkpt lat="49.07405" lon="1.73196">
        <ele>128.71</ele>
        <time>2019-06-16T09:34:13Z</time>
      </trkpt>
      <trkpt lat="49.07403" lon="1.73172">
        <ele>128.36</ele>
        <time>2019-06-16T09:34:32Z</time>
      </trkpt>
      <trkpt lat="49.07405" lon="1.73143">
        <ele>128.5</ele>
        <time>2019-06-16T09:34:51Z</time>
      </trkpt>
      <trkpt lat="49.07407" lon="1.73128">
        <ele>128.13</ele>
        <time>2019-06-16T09:35:00Z</time>
      </trkpt>
      <trkpt lat="49.07408" lon="1.73118">
        <ele>129.15</ele>
        <time>2019-06-16T09:35:07Z</time>
      </trkpt>
      <trkpt lat="49.07412" lon="1.73094">
        <ele>128.63</ele>
        <time>2019-06-16T09:35:22Z</time>
      </trkpt>
      <trkpt lat="49.07413" lon="1.73092">
        <ele>128.73</ele>
        <time>2019-06-16T09:35:23Z</time>
      </trkpt>
      <trkpt lat="49.07413" lon="1.73082">
        <ele>128.04</ele>
        <time>2019-06-16T09:35:30Z</time>
      </trkpt>
      <trkpt lat="49.0742" lon="1.73044">
        <ele>128.77</ele>
        <time>2019-06-16T09:35:51Z</time>
      </trkpt>
      <trkpt lat="49.07428" lon="1.73011">
        <ele>128.94</ele>
        <time>2019-06-16T09:36:13Z</time>
      </trkpt>
      <trkpt lat="49.07434" lon="1.72982">
        <ele>128.73</ele>
        <time>2019-06-16T09:36:32Z</time>
      </trkpt>
      <trkpt lat="49.07442" lon="1.72946">
        <ele>128.9</ele>
        <time>2019-06-16T09:36:56Z</time>
      </trkpt>
      <trkpt lat="49.0745" lon="1.72907">
        <ele>129.07</ele>
        <time>2019-06-16T09:37:20Z</time>
      </trkpt>
      <trkpt lat="49.07458" lon="1.72874">
        <ele>127.64</ele>
        <time>2019-06-16T09:37:41Z</time>
      </trkpt>
      <trkpt lat="49.07465" lon="1.72845">
        <ele>127.21</ele>
        <time>2019-06-16T09:38:01Z</time>
      </trkpt>
      <trkpt lat="49.0747" lon="1.72832">
        <ele>126.99</ele>
        <time>2019-06-16T09:38:15Z</time>
      </trkpt>
      <trkpt lat="49.0747" lon="1.72819">
        <ele>126.22</ele>
        <time>2019-06-16T09:38:28Z</time>
      </trkpt>
      <trkpt lat="49.07474" lon="1.72805">
        <ele>126.43</ele>
        <time>2019-06-16T09:38:37Z</time>
      </trkpt>
      <trkpt lat="49.07483" lon="1.72771">
        <ele>126.43</ele>
        <time>2019-06-16T09:38:57Z</time>
      </trkpt>
      <trkpt lat="49.07489" lon="1.7275">
        <ele>126.49</ele>
        <time>2019-06-16T09:39:13Z</time>
      </trkpt>
      <trkpt lat="49.07496" lon="1.72726">
        <ele>126.51</ele>
        <time>2019-06-16T09:39:28Z</time>
      </trkpt>
      <trkpt lat="49.07504" lon="1.72695">
        <ele>126.64</ele>
        <time>2019-06-16T09:39:46Z</time>
      </trkpt>
      <trkpt lat="49.07512" lon="1.7267">
        <ele>125.93</ele>
        <time>2019-06-16T09:40:02Z</time>
      </trkpt>
      <trkpt lat="49.07521" lon="1.72639">
        <ele>125.33</ele>
        <time>2019-06-16T09:40:21Z</time>
      </trkpt>
      <trkpt lat="49.07528" lon="1.72607">
        <ele>125.84</ele>
        <time>2019-06-16T09:40:40Z</time>
      </trkpt>
      <trkpt lat="49.07535" lon="1.7258">
        <ele>126.03</ele>
        <time>2019-06-16T09:40:56Z</time>
      </trkpt>
      <trkpt lat="49.07536" lon="1.72575">
        <ele>125.88</ele>
        <time>2019-06-16T09:40:59Z</time>
      </trkpt>
      <trkpt lat="49.07538" lon="1.72568">
        <ele>125.88</ele>
        <time>2019-06-16T09:41:08Z</time>
      </trkpt>
      <trkpt lat="49.07539" lon="1.72564">
        <ele>126.67</ele>
        <time>2019-06-16T09:41:11Z</time>
      </trkpt>
      <trkpt lat="49.0754" lon="1.72559">
        <ele>125.89</ele>
        <time>2019-06-16T09:41:14Z</time>
      </trkpt>
      <trkpt lat="49.07544" lon="1.72547">
        <ele>125.98</ele>
        <time>2019-06-16T09:41:22Z</time>
      </trkpt>
      <trkpt lat="49.07547" lon="1.72527">
        <ele>126.81</ele>
        <time>2019-06-16T09:41:35Z</time>
      </trkpt>
      <trkpt lat="49.07554" lon="1.72496">
        <ele>127.09</ele>
        <time>2019-06-16T09:41:52Z</time>
      </trkpt>
      <trkpt lat="49.07557" lon="1.7248">
        <ele>127.02</ele>
        <time>2019-06-16T09:42:02Z</time>
      </trkpt>
      <trkpt lat="49.07559" lon="1.72475">
        <ele>127.53</ele>
        <time>2019-06-16T09:42:05Z</time>
      </trkpt>
      <trkpt lat="49.07564" lon="1.72446">
        <ele>127.58</ele>
        <time>2019-06-16T09:42:22Z</time>
      </trkpt>
      <trkpt lat="49.07569" lon="1.72422">
        <ele>126.46</ele>
        <time>2019-06-16T09:42:36Z</time>
      </trkpt>
      <trkpt lat="49.0757" lon="1.72415">
        <ele>126.74</ele>
        <time>2019-06-16T09:42:40Z</time>
      </trkpt>
      <trkpt lat="49.07575" lon="1.72391">
        <ele>127.05</ele>
        <time>2019-06-16T09:42:53Z</time>
      </trkpt>
      <trkpt lat="49.07581" lon="1.72363">
        <ele>126.79</ele>
        <time>2019-06-16T09:43:09Z</time>
      </trkpt>
      <trkpt lat="49.07588" lon="1.72336">
        <ele>125.57</ele>
        <time>2019-06-16T09:43:25Z</time>
      </trkpt>
      <trkpt lat="49.07592" lon="1.72311">
        <ele>124.83</ele>
        <time>2019-06-16T09:43:40Z</time>
      </trkpt>
      <trkpt lat="49.07597" lon="1.72284">
        <ele>124.16</ele>
        <time>2019-06-16T09:43:56Z</time>
      </trkpt>
      <trkpt lat="49.07598" lon="1.72269">
        <ele>123.47</ele>
        <time>2019-06-16T09:44:11Z</time>
      </trkpt>
      <trkpt lat="49.076" lon="1.72263">
        <ele>123.53</ele>
        <time>2019-06-16T09:44:15Z</time>
      </trkpt>
      <trkpt lat="49.07601" lon="1.72254">
        <ele>123.62</ele>
        <time>2019-06-16T09:44:20Z</time>
      </trkpt>
      <trkpt lat="49.07602" lon="1.72222">
        <ele>122.03</ele>
        <time>2019-06-16T09:44:39Z</time>
      </trkpt>
      <trkpt lat="49.07603" lon="1.72198">
        <ele>121.45</ele>
        <time>2019-06-16T09:44:53Z</time>
      </trkpt>
      <trkpt lat="49.07603" lon="1.72192">
        <ele>121.15</ele>
        <time>2019-06-16T09:44:56Z</time>
      </trkpt>
      <trkpt lat="49.07603" lon="1.72182">
        <ele>120.55</ele>
        <time>2019-06-16T09:45:02Z</time>
      </trkpt>
      <trkpt lat="49.07604" lon="1.72154">
        <ele>118.52</ele>
        <time>2019-06-16T09:45:17Z</time>
      </trkpt>
      <trkpt lat="49.07604" lon="1.72139">
        <ele>117.78</ele>
        <time>2019-06-16T09:45:36Z</time>
      </trkpt>
      <trkpt lat="49.07601" lon="1.72126">
        <ele>115.64</ele>
        <time>2019-06-16T09:46:03Z</time>
      </trkpt>
      <trkpt lat="49.07587" lon="1.72109">
        <ele>112.26</ele>
        <time>2019-06-16T09:46:22Z</time>
      </trkpt>
      <trkpt lat="49.07572" lon="1.72093">
        <ele>109</ele>
        <time>2019-06-16T09:46:40Z</time>
      </trkpt>
      <trkpt lat="49.07561" lon="1.72078">
        <ele>105.98</ele>
        <time>2019-06-16T09:46:57Z</time>
      </trkpt>
      <trkpt lat="49.07548" lon="1.72054">
        <ele>103.69</ele>
        <time>2019-06-16T09:47:17Z</time>
      </trkpt>
      <trkpt lat="49.07544" lon="1.72037">
        <ele>100.57</ele>
        <time>2019-06-16T09:47:31Z</time>
      </trkpt>
      <trkpt lat="49.07544" lon="1.7201">
        <ele>97.53</ele>
        <time>2019-06-16T09:47:51Z</time>
      </trkpt>
      <trkpt lat="49.07548" lon="1.71979">
        <ele>94.24</ele>
        <time>2019-06-16T09:48:12Z</time>
      </trkpt>
      <trkpt lat="49.07552" lon="1.71943">
        <ele>91.17</ele>
        <time>2019-06-16T09:48:31Z</time>
      </trkpt>
      <trkpt lat="49.07556" lon="1.71916">
        <ele>88.12</ele>
        <time>2019-06-16T09:48:48Z</time>
      </trkpt>
      <trkpt lat="49.07567" lon="1.71899">
        <ele>86.69</ele>
        <time>2019-06-16T09:48:59Z</time>
      </trkpt>
      <trkpt lat="49.07575" lon="1.71871">
        <ele>83.69</ele>
        <time>2019-06-16T09:49:16Z</time>
      </trkpt>
      <trkpt lat="49.07578" lon="1.71859">
        <ele>83.24</ele>
        <time>2019-06-16T09:49:34Z</time>
      </trkpt>
      <trkpt lat="49.07578" lon="1.71858">
        <ele>83.54</ele>
        <time>2019-06-16T09:50:19Z</time>
      </trkpt>
      <trkpt lat="49.07575" lon="1.71859">
        <ele>83.89</ele>
        <time>2019-06-16T09:50:34Z</time>
      </trkpt>
      <trkpt lat="49.07577" lon="1.71862">
        <ele>83.27</ele>
        <time>2019-06-16T09:51:11Z</time>
      </trkpt>
      <trkpt lat="49.07579" lon="1.71859">
        <ele>82.87</ele>
        <time>2019-06-16T09:51:17Z</time>
      </trkpt>
      <trkpt lat="49.07581" lon="1.71852">
        <ele>83.48</ele>
        <time>2019-06-16T09:51:21Z</time>
      </trkpt>
      <trkpt lat="49.07574" lon="1.71843">
        <ele>81.28</ele>
        <time>2019-06-16T09:51:30Z</time>
      </trkpt>
      <trkpt lat="49.07563" lon="1.71826">
        <ele>80.53</ele>
        <time>2019-06-16T09:51:44Z</time>
      </trkpt>
      <trkpt lat="49.07562" lon="1.71823">
        <ele>80.55</ele>
        <time>2019-06-16T09:51:47Z</time>
      </trkpt>
      <trkpt lat="49.07554" lon="1.71799">
        <ele>76.57</ele>
        <time>2019-06-16T09:52:03Z</time>
      </trkpt>
      <trkpt lat="49.07553" lon="1.71796">
        <ele>75.57</ele>
        <time>2019-06-16T09:52:05Z</time>
      </trkpt>
      <trkpt lat="49.07552" lon="1.71768">
        <ele>74.29</ele>
        <time>2019-06-16T09:52:21Z</time>
      </trkpt>
      <trkpt lat="49.07542" lon="1.71746">
        <ele>72.75</ele>
        <time>2019-06-16T09:52:36Z</time>
      </trkpt>
      <trkpt lat="49.07522" lon="1.71732">
        <ele>72.03</ele>
        <time>2019-06-16T09:52:56Z</time>
      </trkpt>
      <trkpt lat="49.07517" lon="1.71728">
        <ele>72.28</ele>
        <time>2019-06-16T09:53:20Z</time>
      </trkpt>
      <trkpt lat="49.0751" lon="1.71727">
        <ele>70.72</ele>
        <time>2019-06-16T09:53:26Z</time>
      </trkpt>
      <trkpt lat="49.07496" lon="1.71725">
        <ele>70.66</ele>
        <time>2019-06-16T09:53:45Z</time>
      </trkpt>
      <trkpt lat="49.07493" lon="1.71724">
        <ele>70.67</ele>
        <time>2019-06-16T09:53:47Z</time>
      </trkpt>
      <trkpt lat="49.07482" lon="1.71725">
        <ele>70.37</ele>
        <time>2019-06-16T09:53:57Z</time>
      </trkpt>
      <trkpt lat="49.0747" lon="1.71723">
        <ele>68.84</ele>
        <time>2019-06-16T09:54:14Z</time>
      </trkpt>
      <trkpt lat="49.0747" lon="1.71723">
        <ele>69.28</ele>
        <time>2019-06-16T09:54:40Z</time>
      </trkpt>
      <trkpt lat="49.0747" lon="1.71723">
        <ele>68.98</ele>
        <time>2019-06-16T09:54:41Z</time>
      </trkpt>
      <trkpt lat="49.07467" lon="1.71722">
        <ele>68.9</ele>
        <time>2019-06-16T09:55:01Z</time>
      </trkpt>
      <trkpt lat="49.07465" lon="1.71721">
        <ele>68.63</ele>
        <time>2019-06-16T09:55:17Z</time>
      </trkpt>
      <trkpt lat="49.07461" lon="1.71717">
        <ele>68.53</ele>
        <time>2019-06-16T09:55:27Z</time>
      </trkpt>
      <trkpt lat="49.07444" lon="1.71708">
        <ele>67.02</ele>
        <time>2019-06-16T09:55:46Z</time>
      </trkpt>
      <trkpt lat="49.0744" lon="1.71708">
        <ele>67.1</ele>
        <time>2019-06-16T09:56:03Z</time>
      </trkpt>
      <trkpt lat="49.07428" lon="1.71703">
        <ele>66.52</ele>
        <time>2019-06-16T09:56:20Z</time>
      </trkpt>
      <trkpt lat="49.07412" lon="1.71702">
        <ele>65.76</ele>
        <time>2019-06-16T09:56:33Z</time>
      </trkpt>
      <trkpt lat="49.07395" lon="1.71695">
        <ele>64.58</ele>
        <time>2019-06-16T09:56:50Z</time>
      </trkpt>
      <trkpt lat="49.07383" lon="1.71694">
        <ele>63.96</ele>
        <time>2019-06-16T09:57:01Z</time>
      </trkpt>
      <trkpt lat="49.07372" lon="1.71697">
        <ele>64.26</ele>
        <time>2019-06-16T09:57:17Z</time>
      </trkpt>
      <trkpt lat="49.07369" lon="1.71694">
        <ele>64.42</ele>
        <time>2019-06-16T09:57:27Z</time>
      </trkpt>
      <trkpt lat="49.07361" lon="1.71693">
        <ele>63.27</ele>
        <time>2019-06-16T09:57:52Z</time>
      </trkpt>
      <trkpt lat="49.07348" lon="1.71686">
        <ele>62.85</ele>
        <time>2019-06-16T09:58:06Z</time>
      </trkpt>
      <trkpt lat="49.07334" lon="1.71681">
        <ele>62.25</ele>
        <time>2019-06-16T09:58:19Z</time>
      </trkpt>
      <trkpt lat="49.0732" lon="1.71676">
        <ele>62.17</ele>
        <time>2019-06-16T09:58:30Z</time>
      </trkpt>
      <trkpt lat="49.07303" lon="1.71673">
        <ele>61.11</ele>
        <time>2019-06-16T09:58:45Z</time>
      </trkpt>
      <trkpt lat="49.07296" lon="1.71672">
        <ele>60.65</ele>
        <time>2019-06-16T09:58:52Z</time>
      </trkpt>
      <trkpt lat="49.07279" lon="1.71666">
        <ele>59.27</ele>
        <time>2019-06-16T09:59:05Z</time>
      </trkpt>
      <trkpt lat="49.07259" lon="1.7166">
        <ele>59.43</ele>
        <time>2019-06-16T09:59:22Z</time>
      </trkpt>
      <trkpt lat="49.07249" lon="1.71657">
        <ele>59.44</ele>
        <time>2019-06-16T09:59:35Z</time>
      </trkpt>
      <trkpt lat="49.07245" lon="1.71658">
        <ele>59.76</ele>
        <time>2019-06-16T09:59:47Z</time>
      </trkpt>
      <trkpt lat="49.07246" lon="1.71657">
        <ele>59.72</ele>
        <time>2019-06-16T09:59:50Z</time>
      </trkpt>
      <trkpt lat="49.07234" lon="1.71636">
        <ele>59.96</ele>
        <time>2019-06-16T10:00:06Z</time>
      </trkpt>
      <trkpt lat="49.07228" lon="1.71626">
        <ele>59.58</ele>
        <time>2019-06-16T10:00:15Z</time>
      </trkpt>
      <trkpt lat="49.07217" lon="1.71614">
        <ele>59.67</ele>
        <time>2019-06-16T10:00:26Z</time>
      </trkpt>
      <trkpt lat="49.07202" lon="1.71601">
        <ele>59.45</ele>
        <time>2019-06-16T10:00:40Z</time>
      </trkpt>
      <trkpt lat="49.07187" lon="1.71602">
        <ele>58.61</ele>
        <time>2019-06-16T10:00:53Z</time>
      </trkpt>
      <trkpt lat="49.07179" lon="1.71604">
        <ele>58.6</ele>
        <time>2019-06-16T10:01:01Z</time>
      </trkpt>
      <trkpt lat="49.07165" lon="1.71606">
        <ele>58.42</ele>
        <time>2019-06-16T10:01:16Z</time>
      </trkpt>
      <trkpt lat="49.07162" lon="1.71606">
        <ele>58.49</ele>
        <time>2019-06-16T10:01:18Z</time>
      </trkpt>
      <trkpt lat="49.07147" lon="1.71609">
        <ele>58.01</ele>
        <time>2019-06-16T10:01:32Z</time>
      </trkpt>
      <trkpt lat="49.07137" lon="1.71611">
        <ele>57.8</ele>
        <time>2019-06-16T10:01:43Z</time>
      </trkpt>
      <trkpt lat="49.07114" lon="1.71616">
        <ele>58.39</ele>
        <time>2019-06-16T10:02:07Z</time>
      </trkpt>
      <trkpt lat="49.07096" lon="1.71622">
        <ele>59.26</ele>
        <time>2019-06-16T10:02:25Z</time>
      </trkpt>
      <trkpt lat="49.07076" lon="1.71624">
        <ele>60</ele>
        <time>2019-06-16T10:02:44Z</time>
      </trkpt>
      <trkpt lat="49.07063" lon="1.71617">
        <ele>60.7</ele>
        <time>2019-06-16T10:02:52Z</time>
      </trkpt>
      <trkpt lat="49.07061" lon="1.7162">
        <ele>60.39</ele>
        <time>2019-06-16T10:03:06Z</time>
      </trkpt>
      <trkpt lat="49.07058" lon="1.71626">
        <ele>60.77</ele>
        <time>2019-06-16T10:03:28Z</time>
      </trkpt>
      <trkpt lat="49.07052" lon="1.71628">
        <ele>60.19</ele>
        <time>2019-06-16T10:03:46Z</time>
      </trkpt>
      <trkpt lat="49.07048" lon="1.71635">
        <ele>60.46</ele>
        <time>2019-06-16T10:03:51Z</time>
      </trkpt>
      <trkpt lat="49.07042" lon="1.71634">
        <ele>60.17</ele>
        <time>2019-06-16T10:03:57Z</time>
      </trkpt>
      <trkpt lat="49.07027" lon="1.71631">
        <ele>59.49</ele>
        <time>2019-06-16T10:04:10Z</time>
      </trkpt>
      <trkpt lat="49.07023" lon="1.71629">
        <ele>59.37</ele>
        <time>2019-06-16T10:04:15Z</time>
      </trkpt>
      <trkpt lat="49.07009" lon="1.71625">
        <ele>58.59</ele>
        <time>2019-06-16T10:04:30Z</time>
      </trkpt>
      <trkpt lat="49.06983" lon="1.7162">
        <ele>57.92</ele>
        <time>2019-06-16T10:04:52Z</time>
      </trkpt>
      <trkpt lat="49.06963" lon="1.7161">
        <ele>58.74</ele>
        <time>2019-06-16T10:05:07Z</time>
      </trkpt>
      <trkpt lat="49.06946" lon="1.716">
        <ele>59.33</ele>
        <time>2019-06-16T10:05:23Z</time>
      </trkpt>
      <trkpt lat="49.06932" lon="1.71591">
        <ele>60.08</ele>
        <time>2019-06-16T10:05:35Z</time>
      </trkpt>
      <trkpt lat="49.06919" lon="1.71581">
        <ele>61.34</ele>
        <time>2019-06-16T10:05:49Z</time>
      </trkpt>
      <trkpt lat="49.0691" lon="1.71573">
        <ele>61.64</ele>
        <time>2019-06-16T10:06:00Z</time>
      </trkpt>
      <trkpt lat="49.06902" lon="1.71568">
        <ele>62.03</ele>
        <time>2019-06-16T10:06:09Z</time>
      </trkpt>
      <trkpt lat="49.069" lon="1.71566">
        <ele>62.38</ele>
        <time>2019-06-16T10:06:11Z</time>
      </trkpt>
      <trkpt lat="49.06896" lon="1.71564">
        <ele>62.04</ele>
        <time>2019-06-16T10:06:14Z</time>
      </trkpt>
      <trkpt lat="49.06883" lon="1.71557">
        <ele>62.75</ele>
        <time>2019-06-16T10:06:27Z</time>
      </trkpt>
      <trkpt lat="49.06867" lon="1.71548">
        <ele>63.89</ele>
        <time>2019-06-16T10:06:42Z</time>
      </trkpt>
      <trkpt lat="49.06852" lon="1.71534">
        <ele>64.14</ele>
        <time>2019-06-16T10:06:57Z</time>
      </trkpt>
      <trkpt lat="49.06836" lon="1.71521">
        <ele>63.95</ele>
        <time>2019-06-16T10:07:11Z</time>
      </trkpt>
      <trkpt lat="49.06829" lon="1.71514">
        <ele>64.19</ele>
        <time>2019-06-16T10:07:21Z</time>
      </trkpt>
      <trkpt lat="49.06818" lon="1.71506">
        <ele>63.91</ele>
        <time>2019-06-16T10:07:31Z</time>
      </trkpt>
      <trkpt lat="49.06811" lon="1.71499">
        <ele>63.39</ele>
        <time>2019-06-16T10:07:39Z</time>
      </trkpt>
      <trkpt lat="49.06808" lon="1.71495">
        <ele>63.7</ele>
        <time>2019-06-16T10:07:42Z</time>
      </trkpt>
      <trkpt lat="49.06795" lon="1.71484">
        <ele>63.67</ele>
        <time>2019-06-16T10:07:55Z</time>
      </trkpt>
      <trkpt lat="49.06774" lon="1.71459">
        <ele>62.73</ele>
        <time>2019-06-16T10:08:17Z</time>
      </trkpt>
      <trkpt lat="49.06763" lon="1.71446">
        <ele>61.7</ele>
        <time>2019-06-16T10:08:30Z</time>
      </trkpt>
      <trkpt lat="49.06759" lon="1.7144">
        <ele>61.91</ele>
        <time>2019-06-16T10:08:43Z</time>
      </trkpt>
      <trkpt lat="49.06759" lon="1.71438">
        <ele>62.33</ele>
        <time>2019-06-16T10:09:15Z</time>
      </trkpt>
      <trkpt lat="49.0676" lon="1.71438">
        <ele>62.58</ele>
        <time>2019-06-16T10:09:44Z</time>
      </trkpt>
      <trkpt lat="49.0676" lon="1.71439">
        <ele>62.9</ele>
        <time>2019-06-16T10:10:15Z</time>
      </trkpt>
      <trkpt lat="49.06761" lon="1.71439">
        <ele>62.57</ele>
        <time>2019-06-16T10:10:40Z</time>
      </trkpt>
      <trkpt lat="49.06761" lon="1.7144">
        <ele>62.9</ele>
        <time>2019-06-16T10:11:09Z</time>
      </trkpt>
      <trkpt lat="49.06754" lon="1.71433">
        <ele>61.68</ele>
        <time>2019-06-16T10:11:25Z</time>
      </trkpt>
      <trkpt lat="49.06739" lon="1.71415">
        <ele>61.83</ele>
        <time>2019-06-16T10:11:46Z</time>
      </trkpt>
      <trkpt lat="49.06727" lon="1.71396">
        <ele>61.44</ele>
        <time>2019-06-16T10:12:02Z</time>
      </trkpt>
      <trkpt lat="49.06719" lon="1.71374">
        <ele>62.18</ele>
        <time>2019-06-16T10:12:17Z</time>
      </trkpt>
      <trkpt lat="49.0671" lon="1.71349">
        <ele>61.94</ele>
        <time>2019-06-16T10:12:36Z</time>
      </trkpt>
      <trkpt lat="49.06701" lon="1.71325">
        <ele>61.56</ele>
        <time>2019-06-16T10:12:54Z</time>
      </trkpt>
      <trkpt lat="49.06693" lon="1.71301">
        <ele>60.6</ele>
        <time>2019-06-16T10:13:09Z</time>
      </trkpt>
      <trkpt lat="49.06686" lon="1.71275">
        <ele>59.85</ele>
        <time>2019-06-16T10:13:24Z</time>
      </trkpt>
      <trkpt lat="49.06679" lon="1.71247">
        <ele>59.59</ele>
        <time>2019-06-16T10:13:43Z</time>
      </trkpt>
      <trkpt lat="49.06674" lon="1.71226">
        <ele>59.73</ele>
        <time>2019-06-16T10:13:57Z</time>
      </trkpt>
      <trkpt lat="49.06667" lon="1.71191">
        <ele>59.35</ele>
        <time>2019-06-16T10:14:17Z</time>
      </trkpt>
      <trkpt lat="49.06663" lon="1.71162">
        <ele>58.16</ele>
        <time>2019-06-16T10:14:37Z</time>
      </trkpt>
      <trkpt lat="49.06659" lon="1.7112">
        <ele>56.3</ele>
        <time>2019-06-16T10:15:00Z</time>
      </trkpt>
      <trkpt lat="49.06653" lon="1.71089">
        <ele>55.07</ele>
        <time>2019-06-16T10:15:22Z</time>
      </trkpt>
      <trkpt lat="49.06645" lon="1.71047">
        <ele>54.68</ele>
        <time>2019-06-16T10:15:45Z</time>
      </trkpt>
      <trkpt lat="49.06639" lon="1.71015">
        <ele>52.86</ele>
        <time>2019-06-16T10:16:08Z</time>
      </trkpt>
      <trkpt lat="49.06628" lon="1.70974">
        <ele>50.95</ele>
        <time>2019-06-16T10:16:32Z</time>
      </trkpt>
      <trkpt lat="49.06618" lon="1.70948">
        <ele>49.8</ele>
        <time>2019-06-16T10:16:50Z</time>
      </trkpt>
      <trkpt lat="49.0661" lon="1.70908">
        <ele>47.92</ele>
        <time>2019-06-16T10:17:14Z</time>
      </trkpt>
      <trkpt lat="49.06603" lon="1.70871">
        <ele>46.85</ele>
        <time>2019-06-16T10:17:34Z</time>
      </trkpt>
      <trkpt lat="49.06603" lon="1.70866">
        <ele>46.37</ele>
        <time>2019-06-16T10:17:37Z</time>
      </trkpt>
      <trkpt lat="49.06597" lon="1.70835">
        <ele>44.36</ele>
        <time>2019-06-16T10:17:55Z</time>
      </trkpt>
      <trkpt lat="49.06596" lon="1.70828">
        <ele>43.53</ele>
        <time>2019-06-16T10:18:00Z</time>
      </trkpt>
      <trkpt lat="49.06595" lon="1.70821">
        <ele>43.56</ele>
        <time>2019-06-16T10:18:04Z</time>
      </trkpt>
      <trkpt lat="49.0659" lon="1.70793">
        <ele>41.9</ele>
        <time>2019-06-16T10:18:22Z</time>
      </trkpt>
      <trkpt lat="49.06586" lon="1.7076">
        <ele>40.03</ele>
        <time>2019-06-16T10:18:45Z</time>
      </trkpt>
      <trkpt lat="49.06583" lon="1.70722">
        <ele>37.61</ele>
        <time>2019-06-16T10:19:05Z</time>
      </trkpt>
      <trkpt lat="49.06575" lon="1.70699">
        <ele>35.91</ele>
        <time>2019-06-16T10:19:25Z</time>
      </trkpt>
      <trkpt lat="49.06569" lon="1.70668">
        <ele>33.65</ele>
        <time>2019-06-16T10:19:41Z</time>
      </trkpt>
      <trkpt lat="49.06568" lon="1.70663">
        <ele>32.88</ele>
        <time>2019-06-16T10:19:45Z</time>
      </trkpt>
      <trkpt lat="49.06572" lon="1.70644">
        <ele>32.18</ele>
        <time>2019-06-16T10:19:54Z</time>
      </trkpt>
      <trkpt lat="49.06585" lon="1.70635">
        <ele>32.01</ele>
        <time>2019-06-16T10:20:09Z</time>
      </trkpt>
      <trkpt lat="49.06598" lon="1.70623">
        <ele>33.1</ele>
        <time>2019-06-16T10:20:32Z</time>
      </trkpt>
      <trkpt lat="49.06597" lon="1.70624">
        <ele>32.71</ele>
        <time>2019-06-16T10:21:01Z</time>
      </trkpt>
      <trkpt lat="49.06603" lon="1.70619">
        <ele>35</ele>
        <time>2019-06-16T10:21:22Z</time>
      </trkpt>
      <trkpt lat="49.06613" lon="1.70622">
        <ele>37.32</ele>
        <time>2019-06-16T10:21:35Z</time>
      </trkpt>
      <trkpt lat="49.0662" lon="1.70623">
        <ele>37.89</ele>
        <time>2019-06-16T10:21:42Z</time>
      </trkpt>
      <trkpt lat="49.06634" lon="1.70626">
        <ele>41.34</ele>
        <time>2019-06-16T10:21:59Z</time>
      </trkpt>
      <trkpt lat="49.06649" lon="1.70624">
        <ele>43.83</ele>
        <time>2019-06-16T10:22:16Z</time>
      </trkpt>
      <trkpt lat="49.06667" lon="1.70626">
        <ele>47.13</ele>
        <time>2019-06-16T10:22:33Z</time>
      </trkpt>
      <trkpt lat="49.06685" lon="1.70637">
        <ele>48.28</ele>
        <time>2019-06-16T10:22:54Z</time>
      </trkpt>
      <trkpt lat="49.06703" lon="1.70655">
        <ele>48.31</ele>
        <time>2019-06-16T10:23:16Z</time>
      </trkpt>
      <trkpt lat="49.06704" lon="1.70657">
        <ele>51.71</ele>
        <time>2019-06-16T10:23:19Z</time>
      </trkpt>
      <trkpt lat="49.06705" lon="1.70658">
        <ele>51.83</ele>
        <time>2019-06-16T10:23:20Z</time>
      </trkpt>
      <trkpt lat="49.06724" lon="1.70667">
        <ele>54.32</ele>
        <time>2019-06-16T10:23:42Z</time>
      </trkpt>
      <trkpt lat="49.06741" lon="1.70682">
        <ele>57.8</ele>
        <time>2019-06-16T10:24:02Z</time>
      </trkpt>
      <trkpt lat="49.06756" lon="1.70697">
        <ele>59.92</ele>
        <time>2019-06-16T10:24:24Z</time>
      </trkpt>
      <trkpt lat="49.06766" lon="1.70711">
        <ele>61.84</ele>
        <time>2019-06-16T10:24:45Z</time>
      </trkpt>
      <trkpt lat="49.06776" lon="1.70729">
        <ele>63.97</ele>
        <time>2019-06-16T10:25:07Z</time>
      </trkpt>
      <trkpt lat="49.06794" lon="1.70739">
        <ele>66.95</ele>
        <time>2019-06-16T10:25:30Z</time>
      </trkpt>
      <trkpt lat="49.06803" lon="1.70748">
        <ele>67.7</ele>
        <time>2019-06-16T10:25:44Z</time>
      </trkpt>
      <trkpt lat="49.06817" lon="1.70764">
        <ele>69.91</ele>
        <time>2019-06-16T10:26:07Z</time>
      </trkpt>
      <trkpt lat="49.06832" lon="1.70774">
        <ele>71.89</ele>
        <time>2019-06-16T10:26:28Z</time>
      </trkpt>
      <trkpt lat="49.06852" lon="1.70797">
        <ele>73.75</ele>
        <time>2019-06-16T10:26:51Z</time>
      </trkpt>
      <trkpt lat="49.06854" lon="1.70798">
        <ele>73.93</ele>
        <time>2019-06-16T10:26:53Z</time>
      </trkpt>
      <trkpt lat="49.06871" lon="1.70818">
        <ele>75.8</ele>
        <time>2019-06-16T10:27:15Z</time>
      </trkpt>
      <trkpt lat="49.0688" lon="1.70827">
        <ele>77.17</ele>
        <time>2019-06-16T10:27:37Z</time>
      </trkpt>
      <trkpt lat="49.06881" lon="1.70827">
        <ele>77.17</ele>
        <time>2019-06-16T10:27:38Z</time>
      </trkpt>
      <trkpt lat="49.06891" lon="1.70833">
        <ele>79.39</ele>
        <time>2019-06-16T10:27:54Z</time>
      </trkpt>
      <trkpt lat="49.06908" lon="1.70849">
        <ele>81.84</ele>
        <time>2019-06-16T10:28:16Z</time>
      </trkpt>
      <trkpt lat="49.06923" lon="1.70862">
        <ele>83.54</ele>
        <time>2019-06-16T10:28:34Z</time>
      </trkpt>
      <trkpt lat="49.06941" lon="1.70876">
        <ele>85.46</ele>
        <time>2019-06-16T10:28:54Z</time>
      </trkpt>
      <trkpt lat="49.06957" lon="1.70898">
        <ele>88.22</ele>
        <time>2019-06-16T10:29:16Z</time>
      </trkpt>
      <trkpt lat="49.06973" lon="1.70922">
        <ele>90.76</ele>
        <time>2019-06-16T10:29:39Z</time>
      </trkpt>
      <trkpt lat="49.06984" lon="1.70946">
        <ele>92.65</ele>
        <time>2019-06-16T10:29:57Z</time>
      </trkpt>
      <trkpt lat="49.06997" lon="1.70957">
        <ele>94.87</ele>
        <time>2019-06-16T10:30:18Z</time>
      </trkpt>
      <trkpt lat="49.07009" lon="1.70962">
        <ele>97.65</ele>
        <time>2019-06-16T10:30:37Z</time>
      </trkpt>
      <trkpt lat="49.0701" lon="1.70962">
        <ele>97.7</ele>
        <time>2019-06-16T10:30:39Z</time>
      </trkpt>
      <trkpt lat="49.07026" lon="1.70978">
        <ele>99.11</ele>
        <time>2019-06-16T10:30:59Z</time>
      </trkpt>
      <trkpt lat="49.07043" lon="1.70984">
        <ele>101.35</ele>
        <time>2019-06-16T10:31:19Z</time>
      </trkpt>
      <trkpt lat="49.07056" lon="1.71002">
        <ele>103.67</ele>
        <time>2019-06-16T10:31:42Z</time>
      </trkpt>
      <trkpt lat="49.07067" lon="1.71013">
        <ele>106.41</ele>
        <time>2019-06-16T10:32:06Z</time>
      </trkpt>
      <trkpt lat="49.0708" lon="1.71035">
        <ele>108.33</ele>
        <time>2019-06-16T10:32:29Z</time>
      </trkpt>
      <trkpt lat="49.0709" lon="1.71054">
        <ele>108.89</ele>
        <time>2019-06-16T10:32:46Z</time>
      </trkpt>
      <trkpt lat="49.07098" lon="1.71065">
        <ele>109.24</ele>
        <time>2019-06-16T10:33:06Z</time>
      </trkpt>
      <trkpt lat="49.07105" lon="1.71066">
        <ele>109.6</ele>
        <time>2019-06-16T10:33:24Z</time>
      </trkpt>
      <trkpt lat="49.07111" lon="1.71074">
        <ele>109.49</ele>
        <time>2019-06-16T10:33:51Z</time>
      </trkpt>
      <trkpt lat="49.07116" lon="1.71076">
        <ele>109.84</ele>
        <time>2019-06-16T10:34:12Z</time>
      </trkpt>
      <trkpt lat="49.07122" lon="1.71081">
        <ele>109.73</ele>
        <time>2019-06-16T10:34:33Z</time>
      </trkpt>
      <trkpt lat="49.07128" lon="1.71079">
        <ele>110.38</ele>
        <time>2019-06-16T10:35:00Z</time>
      </trkpt>
      <trkpt lat="49.07143" lon="1.71073">
        <ele>110.16</ele>
        <time>2019-06-16T10:35:23Z</time>
      </trkpt>
      <trkpt lat="49.07145" lon="1.71081">
        <ele>110.06</ele>
        <time>2019-06-16T10:35:36Z</time>
      </trkpt>
      <trkpt lat="49.07146" lon="1.71088">
        <ele>110.54</ele>
        <time>2019-06-16T10:35:51Z</time>
      </trkpt>
      <trkpt lat="49.0714" lon="1.71087">
        <ele>110.2</ele>
        <time>2019-06-16T10:36:14Z</time>
      </trkpt>
      <trkpt lat="49.07134" lon="1.71081">
        <ele>110.8</ele>
        <time>2019-06-16T10:36:31Z</time>
      </trkpt>
      <trkpt lat="49.07139" lon="1.71081">
        <ele>110.61</ele>
        <time>2019-06-16T10:36:48Z</time>
      </trkpt>
      <trkpt lat="49.07144" lon="1.71085">
        <ele>110.21</ele>
        <time>2019-06-16T10:37:08Z</time>
      </trkpt>
      <trkpt lat="49.07148" lon="1.71089">
        <ele>110.4</ele>
        <time>2019-06-16T10:37:13Z</time>
      </trkpt>
      <trkpt lat="49.07161" lon="1.71099">
        <ele>110.44</ele>
        <time>2019-06-16T10:37:28Z</time>
      </trkpt>
      <trkpt lat="49.07165" lon="1.71102">
        <ele>110.61</ele>
        <time>2019-06-16T10:37:32Z</time>
      </trkpt>
      <trkpt lat="49.07183" lon="1.71113">
        <ele>111.59</ele>
        <time>2019-06-16T10:37:49Z</time>
      </trkpt>
      <trkpt lat="49.07207" lon="1.71127">
        <ele>111.72</ele>
        <time>2019-06-16T10:38:12Z</time>
      </trkpt>
      <trkpt lat="49.0723" lon="1.71139">
        <ele>112.21</ele>
        <time>2019-06-16T10:38:33Z</time>
      </trkpt>
      <trkpt lat="49.07247" lon="1.7115">
        <ele>113.44</ele>
        <time>2019-06-16T10:38:57Z</time>
      </trkpt>
      <trkpt lat="49.07249" lon="1.7115">
        <ele>113.52</ele>
        <time>2019-06-16T10:39:03Z</time>
      </trkpt>
      <trkpt lat="49.07263" lon="1.71156">
        <ele>113.82</ele>
        <time>2019-06-16T10:39:20Z</time>
      </trkpt>
      <trkpt lat="49.07277" lon="1.71164">
        <ele>113.87</ele>
        <time>2019-06-16T10:39:39Z</time>
      </trkpt>
      <trkpt lat="49.07294" lon="1.7117">
        <ele>115.86</ele>
        <time>2019-06-16T10:39:57Z</time>
      </trkpt>
      <trkpt lat="49.07306" lon="1.71178">
        <ele>115.91</ele>
        <time>2019-06-16T10:40:13Z</time>
      </trkpt>
      <trkpt lat="49.07319" lon="1.7118">
        <ele>116.61</ele>
        <time>2019-06-16T10:40:28Z</time>
      </trkpt>
      <trkpt lat="49.07323" lon="1.71183">
        <ele>116.99</ele>
        <time>2019-06-16T10:40:31Z</time>
      </trkpt>
      <trkpt lat="49.07331" lon="1.71186">
        <ele>117.2</ele>
        <time>2019-06-16T10:40:38Z</time>
      </trkpt>
      <trkpt lat="49.07348" lon="1.71193">
        <ele>116.9</ele>
        <time>2019-06-16T10:40:55Z</time>
      </trkpt>
      <trkpt lat="49.07361" lon="1.71198">
        <ele>116.88</ele>
        <time>2019-06-16T10:41:13Z</time>
      </trkpt>
      <trkpt lat="49.07378" lon="1.71211">
        <ele>117.48</ele>
        <time>2019-06-16T10:41:34Z</time>
      </trkpt>
      <trkpt lat="49.07394" lon="1.71219">
        <ele>117.08</ele>
        <time>2019-06-16T10:41:52Z</time>
      </trkpt>
      <trkpt lat="49.07407" lon="1.71229">
        <ele>117.55</ele>
        <time>2019-06-16T10:42:06Z</time>
      </trkpt>
      <trkpt lat="49.07413" lon="1.71232">
        <ele>116.87</ele>
        <time>2019-06-16T10:42:17Z</time>
      </trkpt>
      <trkpt lat="49.07422" lon="1.71236">
        <ele>117.47</ele>
        <time>2019-06-16T10:42:35Z</time>
      </trkpt>
      <trkpt lat="49.07437" lon="1.71246">
        <ele>118.5</ele>
        <time>2019-06-16T10:42:55Z</time>
      </trkpt>
      <trkpt lat="49.07439" lon="1.71245">
        <ele>118.75</ele>
        <time>2019-06-16T10:43:12Z</time>
      </trkpt>
      <trkpt lat="49.0744" lon="1.71243">
        <ele>118.46</ele>
        <time>2019-06-16T10:43:38Z</time>
      </trkpt>
      <trkpt lat="49.07442" lon="1.71243">
        <ele>118.76</ele>
        <time>2019-06-16T10:43:58Z</time>
      </trkpt>
      <trkpt lat="49.07447" lon="1.71247">
        <ele>119.35</ele>
        <time>2019-06-16T10:44:13Z</time>
      </trkpt>
      <trkpt lat="49.07448" lon="1.71244">
        <ele>119.54</ele>
        <time>2019-06-16T10:44:40Z</time>
      </trkpt>
      <trkpt lat="49.07447" lon="1.71242">
        <ele>119.07</ele>
        <time>2019-06-16T10:44:54Z</time>
      </trkpt>
      <trkpt lat="49.07458" lon="1.71249">
        <ele>118.8</ele>
        <time>2019-06-16T10:45:11Z</time>
      </trkpt>
      <trkpt lat="49.07468" lon="1.7126">
        <ele>118.87</ele>
        <time>2019-06-16T10:45:30Z</time>
      </trkpt>
      <trkpt lat="49.07485" lon="1.71269">
        <ele>119.97</ele>
        <time>2019-06-16T10:45:45Z</time>
      </trkpt>
      <trkpt lat="49.07492" lon="1.71272">
        <ele>117.67</ele>
        <time>2019-06-16T10:45:50Z</time>
      </trkpt>
      <trkpt lat="49.07506" lon="1.71279">
        <ele>116.6</ele>
        <time>2019-06-16T10:46:04Z</time>
      </trkpt>
      <trkpt lat="49.07519" lon="1.71287">
        <ele>117.28</ele>
        <time>2019-06-16T10:46:21Z</time>
      </trkpt>
      <trkpt lat="49.0754" lon="1.71293">
        <ele>117.46</ele>
        <time>2019-06-16T10:46:41Z</time>
      </trkpt>
      <trkpt lat="49.0756" lon="1.71306">
        <ele>117.65</ele>
        <time>2019-06-16T10:46:59Z</time>
      </trkpt>
      <trkpt lat="49.07575" lon="1.71314">
        <ele>117.81</ele>
        <time>2019-06-16T10:47:13Z</time>
      </trkpt>
      <trkpt lat="49.07584" lon="1.71317">
        <ele>118.74</ele>
        <time>2019-06-16T10:47:21Z</time>
      </trkpt>
      <trkpt lat="49.07596" lon="1.71323">
        <ele>119.51</ele>
        <time>2019-06-16T10:47:35Z</time>
      </trkpt>
      <trkpt lat="49.07603" lon="1.71326">
        <ele>119.72</ele>
        <time>2019-06-16T10:47:42Z</time>
      </trkpt>
      <trkpt lat="49.0761" lon="1.71327">
        <ele>120.32</ele>
        <time>2019-06-16T10:47:47Z</time>
      </trkpt>
      <trkpt lat="49.07629" lon="1.71336">
        <ele>120.87</ele>
        <time>2019-06-16T10:48:02Z</time>
      </trkpt>
      <trkpt lat="49.07638" lon="1.7134">
        <ele>120.91</ele>
        <time>2019-06-16T10:48:13Z</time>
      </trkpt>
      <trkpt lat="49.07644" lon="1.71342">
        <ele>120.54</ele>
        <time>2019-06-16T10:48:18Z</time>
      </trkpt>
      <trkpt lat="49.07651" lon="1.71344">
        <ele>120.71</ele>
        <time>2019-06-16T10:48:33Z</time>
      </trkpt>
      <trkpt lat="49.07655" lon="1.71347">
        <ele>121.03</ele>
        <time>2019-06-16T10:48:53Z</time>
      </trkpt>
      <trkpt lat="49.07659" lon="1.71348">
        <ele>121.3</ele>
        <time>2019-06-16T10:49:09Z</time>
      </trkpt>
      <trkpt lat="49.07671" lon="1.71354">
        <ele>121.7</ele>
        <time>2019-06-16T10:49:23Z</time>
      </trkpt>
      <trkpt lat="49.07689" lon="1.71362">
        <ele>122.37</ele>
        <time>2019-06-16T10:49:39Z</time>
      </trkpt>
      <trkpt lat="49.07703" lon="1.71368">
        <ele>121.82</ele>
        <time>2019-06-16T10:49:52Z</time>
      </trkpt>
      <trkpt lat="49.07718" lon="1.71374">
        <ele>122.63</ele>
        <time>2019-06-16T10:50:07Z</time>
      </trkpt>
      <trkpt lat="49.07735" lon="1.71383">
        <ele>123.05</ele>
        <time>2019-06-16T10:50:22Z</time>
      </trkpt>
      <trkpt lat="49.07752" lon="1.71392">
        <ele>123.33</ele>
        <time>2019-06-16T10:50:38Z</time>
      </trkpt>
      <trkpt lat="49.07767" lon="1.71401">
        <ele>122.99</ele>
        <time>2019-06-16T10:50:51Z</time>
      </trkpt>
      <trkpt lat="49.07784" lon="1.71411">
        <ele>123.16</ele>
        <time>2019-06-16T10:51:08Z</time>
      </trkpt>
      <trkpt lat="49.0779" lon="1.71413">
        <ele>123.61</ele>
        <time>2019-06-16T10:51:19Z</time>
      </trkpt>
      <trkpt lat="49.07807" lon="1.7142">
        <ele>123.85</ele>
        <time>2019-06-16T10:51:35Z</time>
      </trkpt>
      <trkpt lat="49.07822" lon="1.71429">
        <ele>124.25</ele>
        <time>2019-06-16T10:51:49Z</time>
      </trkpt>
      <trkpt lat="49.07826" lon="1.7143">
        <ele>123.89</ele>
        <time>2019-06-16T10:51:53Z</time>
      </trkpt>
      <trkpt lat="49.07845" lon="1.71439">
        <ele>124.44</ele>
        <time>2019-06-16T10:52:12Z</time>
      </trkpt>
      <trkpt lat="49.07863" lon="1.71449">
        <ele>124.77</ele>
        <time>2019-06-16T10:52:29Z</time>
      </trkpt>
      <trkpt lat="49.07868" lon="1.7145">
        <ele>124.67</ele>
        <time>2019-06-16T10:52:35Z</time>
      </trkpt>
      <trkpt lat="49.0787" lon="1.71451">
        <ele>124.37</ele>
        <time>2019-06-16T10:52:37Z</time>
      </trkpt>
      <trkpt lat="49.07883" lon="1.71454">
        <ele>124.68</ele>
        <time>2019-06-16T10:52:52Z</time>
      </trkpt>
      <trkpt lat="49.0789" lon="1.71455">
        <ele>124.88</ele>
        <time>2019-06-16T10:53:07Z</time>
      </trkpt>
      <trkpt lat="49.07892" lon="1.71454">
        <ele>125.61</ele>
        <time>2019-06-16T10:53:11Z</time>
      </trkpt>
      <trkpt lat="49.07898" lon="1.71455">
        <ele>125.01</ele>
        <time>2019-06-16T10:53:17Z</time>
      </trkpt>
      <trkpt lat="49.07909" lon="1.71458">
        <ele>125.22</ele>
        <time>2019-06-16T10:53:31Z</time>
      </trkpt>
      <trkpt lat="49.07915" lon="1.71461">
        <ele>125.43</ele>
        <time>2019-06-16T10:53:39Z</time>
      </trkpt>
      <trkpt lat="49.07919" lon="1.71463">
        <ele>125.28</ele>
        <time>2019-06-16T10:53:44Z</time>
      </trkpt>
      <trkpt lat="49.07923" lon="1.71464">
        <ele>125.89</ele>
        <time>2019-06-16T10:53:47Z</time>
      </trkpt>
      <trkpt lat="49.0794" lon="1.71468">
        <ele>125.57</ele>
        <time>2019-06-16T10:54:03Z</time>
      </trkpt>
      <trkpt lat="49.07945" lon="1.71469">
        <ele>125.17</ele>
        <time>2019-06-16T10:54:08Z</time>
      </trkpt>
      <trkpt lat="49.07965" lon="1.71472">
        <ele>125.47</ele>
        <time>2019-06-16T10:54:25Z</time>
      </trkpt>
      <trkpt lat="49.07981" lon="1.71476">
        <ele>125.77</ele>
        <time>2019-06-16T10:54:39Z</time>
      </trkpt>
      <trkpt lat="49.07997" lon="1.71486">
        <ele>126.08</ele>
        <time>2019-06-16T10:54:54Z</time>
      </trkpt>
      <trkpt lat="49.08011" lon="1.71499">
        <ele>126.65</ele>
        <time>2019-06-16T10:55:10Z</time>
      </trkpt>
      <trkpt lat="49.08023" lon="1.71512">
        <ele>126.23</ele>
        <time>2019-06-16T10:55:26Z</time>
      </trkpt>
      <trkpt lat="49.08033" lon="1.71525">
        <ele>126.85</ele>
        <time>2019-06-16T10:55:38Z</time>
      </trkpt>
      <trkpt lat="49.08035" lon="1.71526">
        <ele>126.46</ele>
        <time>2019-06-16T10:55:40Z</time>
      </trkpt>
      <trkpt lat="49.0805" lon="1.71541">
        <ele>127.21</ele>
        <time>2019-06-16T10:55:57Z</time>
      </trkpt>
      <trkpt lat="49.08052" lon="1.71542">
        <ele>126.44</ele>
        <time>2019-06-16T10:55:59Z</time>
      </trkpt>
      <trkpt lat="49.08068" lon="1.71561">
        <ele>127.2</ele>
        <time>2019-06-16T10:56:17Z</time>
      </trkpt>
      <trkpt lat="49.08082" lon="1.71578">
        <ele>127.1</ele>
        <time>2019-06-16T10:56:33Z</time>
      </trkpt>
      <trkpt lat="49.08097" lon="1.71594">
        <ele>128.16</ele>
        <time>2019-06-16T10:56:50Z</time>
      </trkpt>
      <trkpt lat="49.08113" lon="1.71614">
        <ele>127.99</ele>
        <time>2019-06-16T10:57:09Z</time>
      </trkpt>
      <trkpt lat="49.08129" lon="1.7163">
        <ele>127.87</ele>
        <time>2019-06-16T10:57:26Z</time>
      </trkpt>
      <trkpt lat="49.08137" lon="1.71639">
        <ele>128.67</ele>
        <time>2019-06-16T10:57:35Z</time>
      </trkpt>
      <trkpt lat="49.08154" lon="1.7166">
        <ele>128.86</ele>
        <time>2019-06-16T10:57:55Z</time>
      </trkpt>
      <trkpt lat="49.08168" lon="1.7168">
        <ele>129.09</ele>
        <time>2019-06-16T10:58:13Z</time>
      </trkpt>
      <trkpt lat="49.08175" lon="1.7169">
        <ele>129</ele>
        <time>2019-06-16T10:58:22Z</time>
      </trkpt>
      <trkpt lat="49.08181" lon="1.71699">
        <ele>128.97</ele>
        <time>2019-06-16T10:58:30Z</time>
      </trkpt>
      <trkpt lat="49.08194" lon="1.71721">
        <ele>129.48</ele>
        <time>2019-06-16T10:58:49Z</time>
      </trkpt>
      <trkpt lat="49.08207" lon="1.71739">
        <ele>129.31</ele>
        <time>2019-06-16T10:59:05Z</time>
      </trkpt>
      <trkpt lat="49.0822" lon="1.71755">
        <ele>129.58</ele>
        <time>2019-06-16T10:59:22Z</time>
      </trkpt>
      <trkpt lat="49.08232" lon="1.7177">
        <ele>130.04</ele>
        <time>2019-06-16T10:59:37Z</time>
      </trkpt>
      <trkpt lat="49.08232" lon="1.71771">
        <ele>129.82</ele>
        <time>2019-06-16T10:59:38Z</time>
      </trkpt>
      <trkpt lat="49.08236" lon="1.71776">
        <ele>129.4</ele>
        <time>2019-06-16T10:59:43Z</time>
      </trkpt>
      <trkpt lat="49.0825" lon="1.71792">
        <ele>130.3</ele>
        <time>2019-06-16T10:59:58Z</time>
      </trkpt>
      <trkpt lat="49.08264" lon="1.71804">
        <ele>130.1</ele>
        <time>2019-06-16T11:00:13Z</time>
      </trkpt>
      <trkpt lat="49.08277" lon="1.71815">
        <ele>130.36</ele>
        <time>2019-06-16T11:00:27Z</time>
      </trkpt>
      <trkpt lat="49.08293" lon="1.71829">
        <ele>131.45</ele>
        <time>2019-06-16T11:00:45Z</time>
      </trkpt>
      <trkpt lat="49.08306" lon="1.71839">
        <ele>131.82</ele>
        <time>2019-06-16T11:00:58Z</time>
      </trkpt>
      <trkpt lat="49.08321" lon="1.7185">
        <ele>131.43</ele>
        <time>2019-06-16T11:01:15Z</time>
      </trkpt>
      <trkpt lat="49.08331" lon="1.71857">
        <ele>131.56</ele>
        <time>2019-06-16T11:01:25Z</time>
      </trkpt>
      <trkpt lat="49.08344" lon="1.7187">
        <ele>132.35</ele>
        <time>2019-06-16T11:01:40Z</time>
      </trkpt>
      <trkpt lat="49.08359" lon="1.71882">
        <ele>132.42</ele>
        <time>2019-06-16T11:01:58Z</time>
      </trkpt>
      <trkpt lat="49.08366" lon="1.71888">
        <ele>132.37</ele>
        <time>2019-06-16T11:02:06Z</time>
      </trkpt>
      <trkpt lat="49.08369" lon="1.71891">
        <ele>132.42</ele>
        <time>2019-06-16T11:02:09Z</time>
      </trkpt>
      <trkpt lat="49.08387" lon="1.71903">
        <ele>133.16</ele>
        <time>2019-06-16T11:02:26Z</time>
      </trkpt>
      <trkpt lat="49.08401" lon="1.71919">
        <ele>133.82</ele>
        <time>2019-06-16T11:02:42Z</time>
      </trkpt>
      <trkpt lat="49.08412" lon="1.7193">
        <ele>133.68</ele>
        <time>2019-06-16T11:02:55Z</time>
      </trkpt>
      <trkpt lat="49.08426" lon="1.71948">
        <ele>134.18</ele>
        <time>2019-06-16T11:03:12Z</time>
      </trkpt>
      <trkpt lat="49.08429" lon="1.71951">
        <ele>134.91</ele>
        <time>2019-06-16T11:03:16Z</time>
      </trkpt>
      <trkpt lat="49.08437" lon="1.7196">
        <ele>134.51</ele>
        <time>2019-06-16T11:03:25Z</time>
      </trkpt>
      <trkpt lat="49.08438" lon="1.71962">
        <ele>134.73</ele>
        <time>2019-06-16T11:03:27Z</time>
      </trkpt>
      <trkpt lat="49.08446" lon="1.7197">
        <ele>134.59</ele>
        <time>2019-06-16T11:03:36Z</time>
      </trkpt>
      <trkpt lat="49.08457" lon="1.71985">
        <ele>134.75</ele>
        <time>2019-06-16T11:03:51Z</time>
      </trkpt>
      <trkpt lat="49.08469" lon="1.71999">
        <ele>134.6</ele>
        <time>2019-06-16T11:04:05Z</time>
      </trkpt>
      <trkpt lat="49.08479" lon="1.72014">
        <ele>134.98</ele>
        <time>2019-06-16T11:04:18Z</time>
      </trkpt>
      <trkpt lat="49.08489" lon="1.72022">
        <ele>134.12</ele>
        <time>2019-06-16T11:04:29Z</time>
      </trkpt>
      <trkpt lat="49.08492" lon="1.72026">
        <ele>134.88</ele>
        <time>2019-06-16T11:04:33Z</time>
      </trkpt>
      <trkpt lat="49.08506" lon="1.72036">
        <ele>134.73</ele>
        <time>2019-06-16T11:04:47Z</time>
      </trkpt>
      <trkpt lat="49.0851" lon="1.72036">
        <ele>133.76</ele>
        <time>2019-06-16T11:05:01Z</time>
      </trkpt>
      <trkpt lat="49.08511" lon="1.72038">
        <ele>134.2</ele>
        <time>2019-06-16T11:05:06Z</time>
      </trkpt>
      <trkpt lat="49.08517" lon="1.72042">
        <ele>134.16</ele>
        <time>2019-06-16T11:05:12Z</time>
      </trkpt>
      <trkpt lat="49.08525" lon="1.72048">
        <ele>133.67</ele>
        <time>2019-06-16T11:05:25Z</time>
      </trkpt>
      <trkpt lat="49.0854" lon="1.72056">
        <ele>133.93</ele>
        <time>2019-06-16T11:05:40Z</time>
      </trkpt>
      <trkpt lat="49.08558" lon="1.72064">
        <ele>132.9</ele>
        <time>2019-06-16T11:05:57Z</time>
      </trkpt>
      <trkpt lat="49.08575" lon="1.72067">
        <ele>132.68</ele>
        <time>2019-06-16T11:06:13Z</time>
      </trkpt>
      <trkpt lat="49.08577" lon="1.72069">
        <ele>132.97</ele>
        <time>2019-06-16T11:06:15Z</time>
      </trkpt>
      <trkpt lat="49.08579" lon="1.7207">
        <ele>132.85</ele>
        <time>2019-06-16T11:06:17Z</time>
      </trkpt>
      <trkpt lat="49.0859" lon="1.72074">
        <ele>132.19</ele>
        <time>2019-06-16T11:06:35Z</time>
      </trkpt>
      <trkpt lat="49.08596" lon="1.72078">
        <ele>132.34</ele>
        <time>2019-06-16T11:06:42Z</time>
      </trkpt>
      <trkpt lat="49.08615" lon="1.72083">
        <ele>131.01</ele>
        <time>2019-06-16T11:06:59Z</time>
      </trkpt>
      <trkpt lat="49.08629" lon="1.72098">
        <ele>131.15</ele>
        <time>2019-06-16T11:07:17Z</time>
      </trkpt>
      <trkpt lat="49.08631" lon="1.72101">
        <ele>131.11</ele>
        <time>2019-06-16T11:07:25Z</time>
      </trkpt>
      <trkpt lat="49.08633" lon="1.72108">
        <ele>131.15</ele>
        <time>2019-06-16T11:07:39Z</time>
      </trkpt>
      <trkpt lat="49.08633" lon="1.72109">
        <ele>129.94</ele>
        <time>2019-06-16T11:07:51Z</time>
      </trkpt>
      <trkpt lat="49.08633" lon="1.72114">
        <ele>130.46</ele>
        <time>2019-06-16T11:08:06Z</time>
      </trkpt>
      <trkpt lat="49.08631" lon="1.72125">
        <ele>129.8</ele>
        <time>2019-06-16T11:08:15Z</time>
      </trkpt>
      <trkpt lat="49.0863" lon="1.72148">
        <ele>129.66</ele>
        <time>2019-06-16T11:08:32Z</time>
      </trkpt>
      <trkpt lat="49.0863" lon="1.72152">
        <ele>129.54</ele>
        <time>2019-06-16T11:08:36Z</time>
      </trkpt>
      <trkpt lat="49.08629" lon="1.7216">
        <ele>129.51</ele>
        <time>2019-06-16T11:08:41Z</time>
      </trkpt>
      <trkpt lat="49.0863" lon="1.72201">
        <ele>129.02</ele>
        <time>2019-06-16T11:09:00Z</time>
      </trkpt>
      <trkpt lat="49.08626" lon="1.72234">
        <ele>129.22</ele>
        <time>2019-06-16T11:09:21Z</time>
      </trkpt>
      <trkpt lat="49.08622" lon="1.72256">
        <ele>129.14</ele>
        <time>2019-06-16T11:09:36Z</time>
      </trkpt>
      <trkpt lat="49.08617" lon="1.72282">
        <ele>129.59</ele>
        <time>2019-06-16T11:09:54Z</time>
      </trkpt>
      <trkpt lat="49.08617" lon="1.72307">
        <ele>129.67</ele>
        <time>2019-06-16T11:10:11Z</time>
      </trkpt>
      <trkpt lat="49.08618" lon="1.72315">
        <ele>129.61</ele>
        <time>2019-06-16T11:10:14Z</time>
      </trkpt>
      <trkpt lat="49.08633" lon="1.72335">
        <ele>129.75</ele>
        <time>2019-06-16T11:10:30Z</time>
      </trkpt>
      <trkpt lat="49.08638" lon="1.72343">
        <ele>129.72</ele>
        <time>2019-06-16T11:10:38Z</time>
      </trkpt>
      <trkpt lat="49.08656" lon="1.72353">
        <ele>129.91</ele>
        <time>2019-06-16T11:10:55Z</time>
      </trkpt>
      <trkpt lat="49.08673" lon="1.72366">
        <ele>130.39</ele>
        <time>2019-06-16T11:11:11Z</time>
      </trkpt>
      <trkpt lat="49.08685" lon="1.72381">
        <ele>131.05</ele>
        <time>2019-06-16T11:11:25Z</time>
      </trkpt>
      <trkpt lat="49.08696" lon="1.72396">
        <ele>131</ele>
        <time>2019-06-16T11:11:39Z</time>
      </trkpt>
      <trkpt lat="49.08706" lon="1.72409">
        <ele>131.46</ele>
        <time>2019-06-16T11:11:52Z</time>
      </trkpt>
      <trkpt lat="49.08707" lon="1.7241">
        <ele>131.54</ele>
        <time>2019-06-16T11:11:53Z</time>
      </trkpt>
      <trkpt lat="49.08718" lon="1.72428">
        <ele>131.58</ele>
        <time>2019-06-16T11:12:07Z</time>
      </trkpt>
      <trkpt lat="49.08721" lon="1.72433">
        <ele>131.75</ele>
        <time>2019-06-16T11:12:12Z</time>
      </trkpt>
      <trkpt lat="49.08734" lon="1.72448">
        <ele>132.09</ele>
        <time>2019-06-16T11:12:29Z</time>
      </trkpt>
      <trkpt lat="49.08742" lon="1.72458">
        <ele>132.28</ele>
        <time>2019-06-16T11:12:41Z</time>
      </trkpt>
      <trkpt lat="49.08754" lon="1.72473">
        <ele>132.94</ele>
        <time>2019-06-16T11:12:56Z</time>
      </trkpt>
      <trkpt lat="49.08769" lon="1.72495">
        <ele>133.36</ele>
        <time>2019-06-16T11:13:13Z</time>
      </trkpt>
      <trkpt lat="49.08782" lon="1.7251">
        <ele>134.48</ele>
        <time>2019-06-16T11:13:31Z</time>
      </trkpt>
      <trkpt lat="49.08785" lon="1.72516">
        <ele>134.07</ele>
        <time>2019-06-16T11:13:43Z</time>
      </trkpt>
      <trkpt lat="49.08788" lon="1.72519">
        <ele>134.2</ele>
        <time>2019-06-16T11:13:46Z</time>
      </trkpt>
      <trkpt lat="49.08794" lon="1.72524">
        <ele>134.43</ele>
        <time>2019-06-16T11:14:03Z</time>
      </trkpt>
      <trkpt lat="49.08796" lon="1.72528">
        <ele>134.45</ele>
        <time>2019-06-16T11:14:08Z</time>
      </trkpt>
      <trkpt lat="49.08803" lon="1.72536">
        <ele>135.02</ele>
        <time>2019-06-16T11:14:17Z</time>
      </trkpt>
      <trkpt lat="49.08811" lon="1.72544">
        <ele>135.23</ele>
        <time>2019-06-16T11:14:26Z</time>
      </trkpt>
      <trkpt lat="49.08813" lon="1.72549">
        <ele>135.56</ele>
        <time>2019-06-16T11:14:30Z</time>
      </trkpt>
      <trkpt lat="49.0882" lon="1.72565">
        <ele>136.09</ele>
        <time>2019-06-16T11:14:41Z</time>
      </trkpt>
      <trkpt lat="49.0882" lon="1.72562">
        <ele>136.39</ele>
        <time>2019-06-16T11:17:42Z</time>
      </trkpt>
      <trkpt lat="49.08821" lon="1.72557">
        <ele>136.37</ele>
        <time>2019-06-16T11:17:45Z</time>
      </trkpt>
      <trkpt lat="49.08822" lon="1.72548">
        <ele>136.05</ele>
        <time>2019-06-16T11:17:51Z</time>
      </trkpt>
      <trkpt lat="49.08831" lon="1.72534">
        <ele>136.25</ele>
        <time>2019-06-16T11:18:05Z</time>
      </trkpt>
      <trkpt lat="49.08831" lon="1.72533">
        <ele>135.36</ele>
        <time>2019-06-16T11:18:25Z</time>
      </trkpt>
      <trkpt lat="49.08837" lon="1.7253">
        <ele>136.2</ele>
        <time>2019-06-16T11:18:45Z</time>
      </trkpt>
      <trkpt lat="49.0884" lon="1.72525">
        <ele>136</ele>
        <time>2019-06-16T11:18:49Z</time>
      </trkpt>
      <trkpt lat="49.08845" lon="1.72504">
        <ele>137.94</ele>
        <time>2019-06-16T11:19:04Z</time>
      </trkpt>
      <trkpt lat="49.08844" lon="1.72499">
        <ele>137.36</ele>
        <time>2019-06-16T11:19:08Z</time>
      </trkpt>
      <trkpt lat="49.08845" lon="1.72489">
        <ele>137.95</ele>
        <time>2019-06-16T11:19:14Z</time>
      </trkpt>
      <trkpt lat="49.08841" lon="1.72469">
        <ele>143.3</ele>
        <time>2019-06-16T11:55:39Z</time>
      </trkpt>
      <trkpt lat="49.08841" lon="1.72468">
        <ele>143.6</ele>
        <time>2019-06-16T11:58:35Z</time>
      </trkpt>
      <trkpt lat="49.08841" lon="1.72468">
        <ele>143.07</ele>
        <time>2019-06-16T11:59:23Z</time>
      </trkpt>
      <trkpt lat="49.08841" lon="1.72468">
        <ele>143.19</ele>
        <time>2019-06-16T12:00:18Z</time>
      </trkpt>
      <trkpt lat="49.08841" lon="1.7247">
        <ele>143.47</ele>
        <time>2019-06-16T12:01:26Z</time>
      </trkpt>
      <trkpt lat="49.08839" lon="1.72474">
        <ele>143.4</ele>
        <time>2019-06-16T12:07:54Z</time>
      </trkpt>
      <trkpt lat="49.08833" lon="1.72467">
        <ele>142.56</ele>
        <time>2019-06-16T12:08:16Z</time>
      </trkpt>
      <trkpt lat="49.0884" lon="1.72485">
        <ele>143.62</ele>
        <time>2019-06-16T12:08:34Z</time>
      </trkpt>
      <trkpt lat="49.08843" lon="1.7249">
        <ele>144.05</ele>
        <time>2019-06-16T12:08:44Z</time>
      </trkpt>
      <trkpt lat="49.08849" lon="1.72503">
        <ele>143.33</ele>
        <time>2019-06-16T12:08:56Z</time>
      </trkpt>
      <trkpt lat="49.08847" lon="1.72516">
        <ele>143.09</ele>
        <time>2019-06-16T12:09:11Z</time>
      </trkpt>
      <trkpt lat="49.08845" lon="1.7252">
        <ele>143.07</ele>
        <time>2019-06-16T12:09:18Z</time>
      </trkpt>
      <trkpt lat="49.08843" lon="1.72525">
        <ele>142.47</ele>
        <time>2019-06-16T12:09:22Z</time>
      </trkpt>
      <trkpt lat="49.08832" lon="1.7254">
        <ele>141.59</ele>
        <time>2019-06-16T12:09:37Z</time>
      </trkpt>
      <trkpt lat="49.08819" lon="1.72548">
        <ele>141.22</ele>
        <time>2019-06-16T12:09:52Z</time>
      </trkpt>
      <trkpt lat="49.08821" lon="1.72566">
        <ele>141.48</ele>
        <time>2019-06-16T12:10:05Z</time>
      </trkpt>
      <trkpt lat="49.08827" lon="1.72577">
        <ele>141.24</ele>
        <time>2019-06-16T12:10:21Z</time>
      </trkpt>
      <trkpt lat="49.08834" lon="1.72592">
        <ele>142.06</ele>
        <time>2019-06-16T12:10:34Z</time>
      </trkpt>
      <trkpt lat="49.08843" lon="1.72605">
        <ele>141.84</ele>
        <time>2019-06-16T12:10:50Z</time>
      </trkpt>
      <trkpt lat="49.08854" lon="1.72622">
        <ele>141.98</ele>
        <time>2019-06-16T12:11:05Z</time>
      </trkpt>
      <trkpt lat="49.08861" lon="1.72632">
        <ele>142.2</ele>
        <time>2019-06-16T12:11:20Z</time>
      </trkpt>
      <trkpt lat="49.08865" lon="1.7264">
        <ele>141.8</ele>
        <time>2019-06-16T12:11:37Z</time>
      </trkpt>
      <trkpt lat="49.08866" lon="1.72644">
        <ele>141.81</ele>
        <time>2019-06-16T12:11:55Z</time>
      </trkpt>
      <trkpt lat="49.08877" lon="1.72637">
        <ele>142.01</ele>
        <time>2019-06-16T12:12:17Z</time>
      </trkpt>
      <trkpt lat="49.08889" lon="1.72629">
        <ele>139.99</ele>
        <time>2019-06-16T12:12:32Z</time>
      </trkpt>
      <trkpt lat="49.08897" lon="1.72626">
        <ele>143.94</ele>
        <time>2019-06-16T12:12:42Z</time>
      </trkpt>
      <trkpt lat="49.08897" lon="1.72625">
        <ele>143.7</ele>
        <time>2019-06-16T12:12:43Z</time>
      </trkpt>
      <trkpt lat="49.08916" lon="1.72616">
        <ele>144.7</ele>
        <time>2019-06-16T12:13:05Z</time>
      </trkpt>
      <trkpt lat="49.08929" lon="1.72608">
        <ele>145.88</ele>
        <time>2019-06-16T12:13:21Z</time>
      </trkpt>
      <trkpt lat="49.08946" lon="1.72601">
        <ele>147.24</ele>
        <time>2019-06-16T12:13:40Z</time>
      </trkpt>
      <trkpt lat="49.08954" lon="1.72597">
        <ele>147.35</ele>
        <time>2019-06-16T12:13:47Z</time>
      </trkpt>
      <trkpt lat="49.08969" lon="1.7258">
        <ele>148.37</ele>
        <time>2019-06-16T12:14:07Z</time>
      </trkpt>
      <trkpt lat="49.08985" lon="1.72576">
        <ele>149.33</ele>
        <time>2019-06-16T12:14:23Z</time>
      </trkpt>
      <trkpt lat="49.08998" lon="1.72571">
        <ele>150.69</ele>
        <time>2019-06-16T12:14:37Z</time>
      </trkpt>
      <trkpt lat="49.09012" lon="1.72567">
        <ele>151.73</ele>
        <time>2019-06-16T12:14:53Z</time>
      </trkpt>
      <trkpt lat="49.09029" lon="1.72567">
        <ele>152.67</ele>
        <time>2019-06-16T12:15:11Z</time>
      </trkpt>
      <trkpt lat="49.09043" lon="1.72555">
        <ele>153.94</ele>
        <time>2019-06-16T12:15:27Z</time>
      </trkpt>
      <trkpt lat="49.09049" lon="1.72557">
        <ele>154.3</ele>
        <time>2019-06-16T12:15:32Z</time>
      </trkpt>
      <trkpt lat="49.09053" lon="1.72557">
        <ele>154.74</ele>
        <time>2019-06-16T12:15:36Z</time>
      </trkpt>
      <trkpt lat="49.09076" lon="1.72556">
        <ele>154.64</ele>
        <time>2019-06-16T12:15:53Z</time>
      </trkpt>
      <trkpt lat="49.09086" lon="1.72542">
        <ele>155.64</ele>
        <time>2019-06-16T12:16:05Z</time>
      </trkpt>
      <trkpt lat="49.091" lon="1.72532">
        <ele>156.12</ele>
        <time>2019-06-16T12:16:20Z</time>
      </trkpt>
      <trkpt lat="49.09116" lon="1.72531">
        <ele>156.84</ele>
        <time>2019-06-16T12:16:37Z</time>
      </trkpt>
      <trkpt lat="49.09115" lon="1.72529">
        <ele>157.66</ele>
        <time>2019-06-16T12:16:38Z</time>
      </trkpt>
      <trkpt lat="49.09114" lon="1.72524">
        <ele>157.28</ele>
        <time>2019-06-16T12:16:41Z</time>
      </trkpt>
      <trkpt lat="49.09105" lon="1.72511">
        <ele>157.56</ele>
        <time>2019-06-16T12:16:54Z</time>
      </trkpt>
      <trkpt lat="49.09102" lon="1.72509">
        <ele>157.37</ele>
        <time>2019-06-16T12:16:58Z</time>
      </trkpt>
      <trkpt lat="49.091" lon="1.72507">
        <ele>156.94</ele>
        <time>2019-06-16T12:17:02Z</time>
      </trkpt>
      <trkpt lat="49.09089" lon="1.72487">
        <ele>156.53</ele>
        <time>2019-06-16T12:17:19Z</time>
      </trkpt>
      <trkpt lat="49.09077" lon="1.72473">
        <ele>155.88</ele>
        <time>2019-06-16T12:17:34Z</time>
      </trkpt>
      <trkpt lat="49.09074" lon="1.72454">
        <ele>155.28</ele>
        <time>2019-06-16T12:17:52Z</time>
      </trkpt>
      <trkpt lat="49.09073" lon="1.72451">
        <ele>155.7</ele>
        <time>2019-06-16T12:17:54Z</time>
      </trkpt>
      <trkpt lat="49.09073" lon="1.72432">
        <ele>155.79</ele>
        <time>2019-06-16T12:18:08Z</time>
      </trkpt>
      <trkpt lat="49.09082" lon="1.72423">
        <ele>158.31</ele>
        <time>2019-06-16T12:18:20Z</time>
      </trkpt>
      <trkpt lat="49.09087" lon="1.7242">
        <ele>158.58</ele>
        <time>2019-06-16T12:18:26Z</time>
      </trkpt>
      <trkpt lat="49.09099" lon="1.72415">
        <ele>159.98</ele>
        <time>2019-06-16T12:18:38Z</time>
      </trkpt>
      <trkpt lat="49.09114" lon="1.72407">
        <ele>160.17</ele>
        <time>2019-06-16T12:18:54Z</time>
      </trkpt>
      <trkpt lat="49.09119" lon="1.72403">
        <ele>162.84</ele>
        <time>2019-06-16T12:19:00Z</time>
      </trkpt>
      <trkpt lat="49.09125" lon="1.724">
        <ele>163.9</ele>
        <time>2019-06-16T12:19:07Z</time>
      </trkpt>
      <trkpt lat="49.09129" lon="1.72398">
        <ele>163.67</ele>
        <time>2019-06-16T12:19:12Z</time>
      </trkpt>
      <trkpt lat="49.09133" lon="1.72396">
        <ele>164.87</ele>
        <time>2019-06-16T12:19:18Z</time>
      </trkpt>
      <trkpt lat="49.09146" lon="1.72388">
        <ele>167.35</ele>
        <time>2019-06-16T12:19:34Z</time>
      </trkpt>
      <trkpt lat="49.09156" lon="1.72383">
        <ele>167.81</ele>
        <time>2019-06-16T12:19:50Z</time>
      </trkpt>
      <trkpt lat="49.0916" lon="1.72387">
        <ele>167.91</ele>
        <time>2019-06-16T12:20:04Z</time>
      </trkpt>
      <trkpt lat="49.09161" lon="1.72381">
        <ele>167.91</ele>
        <time>2019-06-16T12:20:24Z</time>
      </trkpt>
      <trkpt lat="49.0916" lon="1.72379">
        <ele>168.84</ele>
        <time>2019-06-16T12:20:43Z</time>
      </trkpt>
      <trkpt lat="49.0916" lon="1.72379">
        <ele>168.28</ele>
        <time>2019-06-16T12:21:02Z</time>
      </trkpt>
      <trkpt lat="49.09156" lon="1.72387">
        <ele>168.12</ele>
        <time>2019-06-16T12:21:22Z</time>
      </trkpt>
      <trkpt lat="49.09158" lon="1.72387">
        <ele>168.1</ele>
        <time>2019-06-16T12:21:42Z</time>
      </trkpt>
      <trkpt lat="49.09164" lon="1.72386">
        <ele>168.43</ele>
        <time>2019-06-16T12:22:09Z</time>
      </trkpt>
      <trkpt lat="49.09164" lon="1.72386">
        <ele>167.96</ele>
        <time>2019-06-16T12:22:43Z</time>
      </trkpt>
      <trkpt lat="49.09157" lon="1.72389">
        <ele>168.26</ele>
        <time>2019-06-16T12:23:06Z</time>
      </trkpt>
      <trkpt lat="49.09155" lon="1.72388">
        <ele>168.2</ele>
        <time>2019-06-16T12:23:26Z</time>
      </trkpt>
      <trkpt lat="49.09155" lon="1.72388">
        <ele>168.22</ele>
        <time>2019-06-16T12:23:52Z</time>
      </trkpt>
      <trkpt lat="49.09156" lon="1.72387">
        <ele>168.23</ele>
        <time>2019-06-16T12:24:14Z</time>
      </trkpt>
      <trkpt lat="49.09165" lon="1.7239">
        <ele>168.38</ele>
        <time>2019-06-16T12:24:33Z</time>
      </trkpt>
      <trkpt lat="49.09168" lon="1.72394">
        <ele>168.28</ele>
        <time>2019-06-16T12:24:37Z</time>
      </trkpt>
      <trkpt lat="49.09172" lon="1.72404">
        <ele>168.26</ele>
        <time>2019-06-16T12:24:49Z</time>
      </trkpt>
      <trkpt lat="49.09176" lon="1.7241">
        <ele>167.88</ele>
        <time>2019-06-16T12:24:55Z</time>
      </trkpt>
      <trkpt lat="49.09192" lon="1.72428">
        <ele>167.41</ele>
        <time>2019-06-16T12:25:16Z</time>
      </trkpt>
      <trkpt lat="49.09208" lon="1.72436">
        <ele>166.97</ele>
        <time>2019-06-16T12:25:34Z</time>
      </trkpt>
      <trkpt lat="49.09212" lon="1.72438">
        <ele>166.76</ele>
        <time>2019-06-16T12:25:52Z</time>
      </trkpt>
      <trkpt lat="49.09214" lon="1.72435">
        <ele>166.8</ele>
        <time>2019-06-16T12:26:15Z</time>
      </trkpt>
      <trkpt lat="49.09217" lon="1.72424">
        <ele>168.59</ele>
        <time>2019-06-16T12:26:35Z</time>
      </trkpt>
      <trkpt lat="49.09217" lon="1.72422">
        <ele>168.45</ele>
        <time>2019-06-16T12:26:40Z</time>
      </trkpt>
      <trkpt lat="49.09215" lon="1.72437">
        <ele>166.07</ele>
        <time>2019-06-16T12:27:03Z</time>
      </trkpt>
      <trkpt lat="49.0921" lon="1.72458">
        <ele>163.85</ele>
        <time>2019-06-16T12:27:20Z</time>
      </trkpt>
      <trkpt lat="49.09201" lon="1.7249">
        <ele>161.81</ele>
        <time>2019-06-16T12:27:39Z</time>
      </trkpt>
      <trkpt lat="49.09194" lon="1.72503">
        <ele>160.77</ele>
        <time>2019-06-16T12:27:49Z</time>
      </trkpt>
      <trkpt lat="49.09191" lon="1.72503">
        <ele>161.5</ele>
        <time>2019-06-16T12:28:02Z</time>
      </trkpt>
      <trkpt lat="49.09192" lon="1.72502">
        <ele>161.55</ele>
        <time>2019-06-16T12:28:09Z</time>
      </trkpt>
      <trkpt lat="49.09189" lon="1.72504">
        <ele>159.86</ele>
        <time>2019-06-16T12:28:22Z</time>
      </trkpt>
      <trkpt lat="49.09182" lon="1.72502">
        <ele>159.99</ele>
        <time>2019-06-16T12:28:34Z</time>
      </trkpt>
      <trkpt lat="49.09175" lon="1.72505">
        <ele>159.25</ele>
        <time>2019-06-16T12:28:40Z</time>
      </trkpt>
      <trkpt lat="49.0915" lon="1.72512">
        <ele>158.06</ele>
        <time>2019-06-16T12:29:00Z</time>
      </trkpt>
      <trkpt lat="49.09135" lon="1.72522">
        <ele>157.07</ele>
        <time>2019-06-16T12:29:14Z</time>
      </trkpt>
      <trkpt lat="49.09127" lon="1.72524">
        <ele>156.87</ele>
        <time>2019-06-16T12:29:30Z</time>
      </trkpt>
      <trkpt lat="49.09123" lon="1.72526">
        <ele>157.15</ele>
        <time>2019-06-16T12:29:43Z</time>
      </trkpt>
      <trkpt lat="49.09122" lon="1.72527">
        <ele>156.16</ele>
        <time>2019-06-16T12:30:00Z</time>
      </trkpt>
      <trkpt lat="49.09126" lon="1.72556">
        <ele>155.75</ele>
        <time>2019-06-16T12:30:17Z</time>
      </trkpt>
      <trkpt lat="49.0912" lon="1.72575">
        <ele>155.08</ele>
        <time>2019-06-16T12:30:29Z</time>
      </trkpt>
      <trkpt lat="49.09118" lon="1.7258">
        <ele>154.42</ele>
        <time>2019-06-16T12:30:33Z</time>
      </trkpt>
      <trkpt lat="49.09116" lon="1.72611">
        <ele>153.51</ele>
        <time>2019-06-16T12:30:52Z</time>
      </trkpt>
      <trkpt lat="49.09114" lon="1.72631">
        <ele>152.88</ele>
        <time>2019-06-16T12:31:05Z</time>
      </trkpt>
      <trkpt lat="49.09111" lon="1.72655">
        <ele>152.69</ele>
        <time>2019-06-16T12:31:20Z</time>
      </trkpt>
      <trkpt lat="49.09107" lon="1.72687">
        <ele>150.28</ele>
        <time>2019-06-16T12:31:40Z</time>
      </trkpt>
      <trkpt lat="49.09107" lon="1.72688">
        <ele>149.98</ele>
        <time>2019-06-16T12:31:41Z</time>
      </trkpt>
      <trkpt lat="49.09096" lon="1.72712">
        <ele>149.61</ele>
        <time>2019-06-16T12:31:55Z</time>
      </trkpt>
      <trkpt lat="49.09087" lon="1.72733">
        <ele>147.47</ele>
        <time>2019-06-16T12:32:11Z</time>
      </trkpt>
      <trkpt lat="49.09078" lon="1.72749">
        <ele>147.02</ele>
        <time>2019-06-16T12:32:22Z</time>
      </trkpt>
      <trkpt lat="49.09065" lon="1.72772">
        <ele>145.29</ele>
        <time>2019-06-16T12:32:38Z</time>
      </trkpt>
      <trkpt lat="49.09063" lon="1.72777">
        <ele>145.47</ele>
        <time>2019-06-16T12:32:43Z</time>
      </trkpt>
      <trkpt lat="49.09059" lon="1.72784">
        <ele>144.84</ele>
        <time>2019-06-16T12:32:48Z</time>
      </trkpt>
      <trkpt lat="49.09052" lon="1.72795">
        <ele>144.46</ele>
        <time>2019-06-16T12:33:03Z</time>
      </trkpt>
      <trkpt lat="49.0905" lon="1.72799">
        <ele>144.42</ele>
        <time>2019-06-16T12:33:27Z</time>
      </trkpt>
      <trkpt lat="49.09047" lon="1.72806">
        <ele>144.45</ele>
        <time>2019-06-16T12:33:47Z</time>
      </trkpt>
      <trkpt lat="49.09035" lon="1.72825">
        <ele>143.18</ele>
        <time>2019-06-16T12:34:04Z</time>
      </trkpt>
      <trkpt lat="49.09021" lon="1.72849">
        <ele>141.52</ele>
        <time>2019-06-16T12:34:28Z</time>
      </trkpt>
      <trkpt lat="49.09006" lon="1.7287">
        <ele>140.44</ele>
        <time>2019-06-16T12:34:47Z</time>
      </trkpt>
      <trkpt lat="49.09003" lon="1.7288">
        <ele>140</ele>
        <time>2019-06-16T12:35:02Z</time>
      </trkpt>
      <trkpt lat="49.09" lon="1.72888">
        <ele>139.7</ele>
        <time>2019-06-16T12:35:22Z</time>
      </trkpt>
      <trkpt lat="49.08998" lon="1.72894">
        <ele>139.4</ele>
        <time>2019-06-16T12:35:30Z</time>
      </trkpt>
      <trkpt lat="49.08983" lon="1.72924">
        <ele>137.88</ele>
        <time>2019-06-16T12:35:47Z</time>
      </trkpt>
      <trkpt lat="49.08974" lon="1.72943">
        <ele>136.71</ele>
        <time>2019-06-16T12:36:00Z</time>
      </trkpt>
      <trkpt lat="49.08972" lon="1.72951">
        <ele>136.33</ele>
        <time>2019-06-16T12:36:05Z</time>
      </trkpt>
      <trkpt lat="49.08964" lon="1.72975">
        <ele>136.16</ele>
        <time>2019-06-16T12:36:20Z</time>
      </trkpt>
      <trkpt lat="49.08956" lon="1.73002">
        <ele>135.06</ele>
        <time>2019-06-16T12:36:36Z</time>
      </trkpt>
      <trkpt lat="49.08949" lon="1.73022">
        <ele>133.86</ele>
        <time>2019-06-16T12:36:53Z</time>
      </trkpt>
      <trkpt lat="49.08946" lon="1.73036">
        <ele>134.21</ele>
        <time>2019-06-16T12:37:07Z</time>
      </trkpt>
      <trkpt lat="49.0894" lon="1.73057">
        <ele>133.49</ele>
        <time>2019-06-16T12:37:22Z</time>
      </trkpt>
      <trkpt lat="49.08933" lon="1.73084">
        <ele>133.24</ele>
        <time>2019-06-16T12:37:39Z</time>
      </trkpt>
      <trkpt lat="49.08932" lon="1.73094">
        <ele>133.65</ele>
        <time>2019-06-16T12:37:45Z</time>
      </trkpt>
      <trkpt lat="49.08931" lon="1.73106">
        <ele>133.69</ele>
        <time>2019-06-16T12:37:55Z</time>
      </trkpt>
      <trkpt lat="49.08932" lon="1.73131">
        <ele>135.41</ele>
        <time>2019-06-16T12:38:12Z</time>
      </trkpt>
      <trkpt lat="49.08934" lon="1.7315">
        <ele>136.31</ele>
        <time>2019-06-16T12:38:25Z</time>
      </trkpt>
      <trkpt lat="49.08934" lon="1.73157">
        <ele>137.01</ele>
        <time>2019-06-16T12:38:29Z</time>
      </trkpt>
      <trkpt lat="49.08929" lon="1.73171">
        <ele>137.9</ele>
        <time>2019-06-16T12:38:38Z</time>
      </trkpt>
      <trkpt lat="49.08919" lon="1.73191">
        <ele>139.4</ele>
        <time>2019-06-16T12:38:52Z</time>
      </trkpt>
      <trkpt lat="49.08911" lon="1.73209">
        <ele>140.17</ele>
        <time>2019-06-16T12:39:04Z</time>
      </trkpt>
      <trkpt lat="49.08907" lon="1.73218">
        <ele>140.46</ele>
        <time>2019-06-16T12:39:11Z</time>
      </trkpt>
      <trkpt lat="49.08904" lon="1.73225">
        <ele>140.67</ele>
        <time>2019-06-16T12:39:16Z</time>
      </trkpt>
      <trkpt lat="49.08896" lon="1.7324">
        <ele>141.84</ele>
        <time>2019-06-16T12:39:26Z</time>
      </trkpt>
      <trkpt lat="49.08884" lon="1.73262">
        <ele>141.83</ele>
        <time>2019-06-16T12:39:43Z</time>
      </trkpt>
      <trkpt lat="49.08875" lon="1.73276">
        <ele>141.72</ele>
        <time>2019-06-16T12:39:55Z</time>
      </trkpt>
      <trkpt lat="49.08872" lon="1.73279">
        <ele>141.86</ele>
        <time>2019-06-16T12:39:59Z</time>
      </trkpt>
      <trkpt lat="49.08861" lon="1.73293">
        <ele>141.64</ele>
        <time>2019-06-16T12:40:15Z</time>
      </trkpt>
      <trkpt lat="49.08844" lon="1.73313">
        <ele>143.02</ele>
        <time>2019-06-16T12:40:35Z</time>
      </trkpt>
      <trkpt lat="49.08828" lon="1.73338">
        <ele>144.17</ele>
        <time>2019-06-16T12:40:54Z</time>
      </trkpt>
      <trkpt lat="49.08823" lon="1.73346">
        <ele>143.99</ele>
        <time>2019-06-16T12:40:59Z</time>
      </trkpt>
      <trkpt lat="49.08816" lon="1.7336">
        <ele>145.31</ele>
        <time>2019-06-16T12:41:14Z</time>
      </trkpt>
      <trkpt lat="49.08816" lon="1.7336">
        <ele>145.22</ele>
        <time>2019-06-16T12:41:41Z</time>
      </trkpt>
      <trkpt lat="49.08805" lon="1.73368">
        <ele>145.95</ele>
        <time>2019-06-16T12:42:03Z</time>
      </trkpt>
      <trkpt lat="49.08796" lon="1.7338">
        <ele>146.5</ele>
        <time>2019-06-16T12:42:18Z</time>
      </trkpt>
      <trkpt lat="49.08795" lon="1.73382">
        <ele>147.11</ele>
        <time>2019-06-16T12:42:21Z</time>
      </trkpt>
      <trkpt lat="49.08783" lon="1.73402">
        <ele>149.03</ele>
        <time>2019-06-16T12:42:40Z</time>
      </trkpt>
      <trkpt lat="49.08782" lon="1.73403">
        <ele>148.82</ele>
        <time>2019-06-16T12:42:42Z</time>
      </trkpt>
      <trkpt lat="49.08765" lon="1.73435">
        <ele>150.45</ele>
        <time>2019-06-16T12:43:06Z</time>
      </trkpt>
      <trkpt lat="49.08761" lon="1.73453">
        <ele>150.79</ele>
        <time>2019-06-16T12:43:23Z</time>
      </trkpt>
      <trkpt lat="49.08758" lon="1.7346">
        <ele>150.56</ele>
        <time>2019-06-16T12:43:51Z</time>
      </trkpt>
      <trkpt lat="49.08748" lon="1.73462">
        <ele>150.45</ele>
        <time>2019-06-16T12:44:13Z</time>
      </trkpt>
      <trkpt lat="49.08729" lon="1.73461">
        <ele>150.05</ele>
        <time>2019-06-16T12:44:33Z</time>
      </trkpt>
      <trkpt lat="49.08708" lon="1.73458">
        <ele>149.79</ele>
        <time>2019-06-16T12:44:55Z</time>
      </trkpt>
      <trkpt lat="49.08683" lon="1.73453">
        <ele>149.33</ele>
        <time>2019-06-16T12:45:18Z</time>
      </trkpt>
      <trkpt lat="49.08671" lon="1.73461">
        <ele>150.41</ele>
        <time>2019-06-16T12:45:37Z</time>
      </trkpt>
      <trkpt lat="49.0867" lon="1.73462">
        <ele>149.6</ele>
        <time>2019-06-16T12:45:38Z</time>
      </trkpt>
      <trkpt lat="49.08669" lon="1.7347">
        <ele>151.03</ele>
        <time>2019-06-16T12:45:58Z</time>
      </trkpt>
      <trkpt lat="49.08666" lon="1.73501">
        <ele>152.94</ele>
        <time>2019-06-16T12:46:21Z</time>
      </trkpt>
      <trkpt lat="49.08666" lon="1.73504">
        <ele>153.46</ele>
        <time>2019-06-16T12:46:23Z</time>
      </trkpt>
      <trkpt lat="49.08665" lon="1.7353">
        <ele>155.11</ele>
        <time>2019-06-16T12:46:40Z</time>
      </trkpt>
      <trkpt lat="49.08668" lon="1.73561">
        <ele>156.59</ele>
        <time>2019-06-16T12:46:59Z</time>
      </trkpt>
      <trkpt lat="49.08672" lon="1.73582">
        <ele>157.68</ele>
        <time>2019-06-16T12:47:20Z</time>
      </trkpt>
      <trkpt lat="49.08681" lon="1.73587">
        <ele>158.3</ele>
        <time>2019-06-16T12:47:40Z</time>
      </trkpt>
      <trkpt lat="49.08678" lon="1.7359">
        <ele>158.39</ele>
        <time>2019-06-16T12:47:59Z</time>
      </trkpt>
      <trkpt lat="49.08684" lon="1.73606">
        <ele>159.47</ele>
        <time>2019-06-16T12:48:17Z</time>
      </trkpt>
      <trkpt lat="49.08689" lon="1.73617">
        <ele>160.71</ele>
        <time>2019-06-16T12:48:32Z</time>
      </trkpt>
      <trkpt lat="49.08694" lon="1.73631">
        <ele>160.67</ele>
        <time>2019-06-16T12:48:51Z</time>
      </trkpt>
      <trkpt lat="49.08699" lon="1.73643">
        <ele>162.67</ele>
        <time>2019-06-16T12:49:09Z</time>
      </trkpt>
      <trkpt lat="49.08694" lon="1.7366">
        <ele>162.44</ele>
        <time>2019-06-16T12:49:15Z</time>
      </trkpt>
      <trkpt lat="49.08694" lon="1.7367">
        <ele>163.78</ele>
        <time>2019-06-16T12:49:38Z</time>
      </trkpt>
      <trkpt lat="49.08692" lon="1.73677">
        <ele>162.92</ele>
        <time>2019-06-16T12:49:57Z</time>
      </trkpt>
      <trkpt lat="49.08697" lon="1.73687">
        <ele>164.28</ele>
        <time>2019-06-16T12:50:14Z</time>
      </trkpt>
      <trkpt lat="49.08699" lon="1.73699">
        <ele>165.39</ele>
        <time>2019-06-16T12:50:32Z</time>
      </trkpt>
      <trkpt lat="49.08702" lon="1.73731">
        <ele>167.37</ele>
        <time>2019-06-16T12:50:49Z</time>
      </trkpt>
      <trkpt lat="49.08702" lon="1.7374">
        <ele>168.02</ele>
        <time>2019-06-16T12:50:53Z</time>
      </trkpt>
      <trkpt lat="49.08703" lon="1.73764">
        <ele>169.34</ele>
        <time>2019-06-16T12:51:07Z</time>
      </trkpt>
      <trkpt lat="49.08703" lon="1.73773">
        <ele>169.9</ele>
        <time>2019-06-16T12:51:13Z</time>
      </trkpt>
      <trkpt lat="49.08714" lon="1.73794">
        <ele>171.63</ele>
        <time>2019-06-16T12:51:32Z</time>
      </trkpt>
      <trkpt lat="49.08722" lon="1.73814">
        <ele>173.45</ele>
        <time>2019-06-16T12:51:50Z</time>
      </trkpt>
      <trkpt lat="49.08726" lon="1.73817">
        <ele>174.78</ele>
        <time>2019-06-16T12:51:56Z</time>
      </trkpt>
      <trkpt lat="49.08736" lon="1.73842">
        <ele>175.85</ele>
        <time>2019-06-16T12:52:16Z</time>
      </trkpt>
      <trkpt lat="49.08738" lon="1.73851">
        <ele>175.67</ele>
        <time>2019-06-16T12:52:22Z</time>
      </trkpt>
      <trkpt lat="49.08739" lon="1.73854">
        <ele>176.61</ele>
        <time>2019-06-16T12:52:26Z</time>
      </trkpt>
      <trkpt lat="49.08755" lon="1.73866">
        <ele>177.13</ele>
        <time>2019-06-16T12:52:48Z</time>
      </trkpt>
      <trkpt lat="49.08755" lon="1.73867">
        <ele>177.04</ele>
        <time>2019-06-16T12:52:49Z</time>
      </trkpt>
      <trkpt lat="49.08768" lon="1.73886">
        <ele>178.17</ele>
        <time>2019-06-16T12:53:11Z</time>
      </trkpt>
      <trkpt lat="49.08769" lon="1.73889">
        <ele>177.72</ele>
        <time>2019-06-16T12:53:15Z</time>
      </trkpt>
      <trkpt lat="49.08773" lon="1.73896">
        <ele>177.59</ele>
        <time>2019-06-16T12:53:22Z</time>
      </trkpt>
      <trkpt lat="49.0878" lon="1.73906">
        <ele>177.82</ele>
        <time>2019-06-16T12:53:46Z</time>
      </trkpt>
      <trkpt lat="49.08781" lon="1.73912">
        <ele>177.6</ele>
        <time>2019-06-16T12:53:52Z</time>
      </trkpt>
      <trkpt lat="49.08782" lon="1.73915">
        <ele>177.65</ele>
        <time>2019-06-16T12:53:54Z</time>
      </trkpt>
      <trkpt lat="49.08784" lon="1.73926">
        <ele>177.51</ele>
        <time>2019-06-16T12:54:18Z</time>
      </trkpt>
      <trkpt lat="49.08793" lon="1.73942">
        <ele>176.96</ele>
        <time>2019-06-16T12:54:39Z</time>
      </trkpt>
      <trkpt lat="49.08796" lon="1.73949">
        <ele>177.09</ele>
        <time>2019-06-16T12:54:48Z</time>
      </trkpt>
      <trkpt lat="49.08795" lon="1.74017">
        <ele>177.66</ele>
        <time>2019-06-16T12:55:12Z</time>
      </trkpt>
      <trkpt lat="49.08795" lon="1.74018">
        <ele>177.91</ele>
        <time>2019-06-16T12:55:14Z</time>
      </trkpt>
      <trkpt lat="49.08795" lon="1.74074">
        <ele>178.1</ele>
        <time>2019-06-16T12:55:34Z</time>
      </trkpt>
      <trkpt lat="49.08802" lon="1.74102">
        <ele>178.27</ele>
        <time>2019-06-16T12:55:53Z</time>
      </trkpt>
      <trkpt lat="49.08803" lon="1.7412">
        <ele>178.31</ele>
        <time>2019-06-16T12:56:12Z</time>
      </trkpt>
      <trkpt lat="49.08807" lon="1.7414">
        <ele>178.67</ele>
        <time>2019-06-16T12:56:32Z</time>
      </trkpt>
      <trkpt lat="49.08806" lon="1.74154">
        <ele>179.11</ele>
        <time>2019-06-16T12:56:47Z</time>
      </trkpt>
      <trkpt lat="49.08805" lon="1.74183">
        <ele>179.55</ele>
        <time>2019-06-16T12:57:02Z</time>
      </trkpt>
      <trkpt lat="49.08805" lon="1.74218">
        <ele>180.29</ele>
        <time>2019-06-16T12:57:22Z</time>
      </trkpt>
      <trkpt lat="49.08805" lon="1.74251">
        <ele>180.61</ele>
        <time>2019-06-16T12:57:42Z</time>
      </trkpt>
      <trkpt lat="49.08803" lon="1.74273">
        <ele>180.08</ele>
        <time>2019-06-16T12:58:00Z</time>
      </trkpt>
      <trkpt lat="49.08804" lon="1.74296">
        <ele>180.41</ele>
        <time>2019-06-16T12:58:15Z</time>
      </trkpt>
      <trkpt lat="49.08804" lon="1.7431">
        <ele>179.92</ele>
        <time>2019-06-16T12:58:34Z</time>
      </trkpt>
      <trkpt lat="49.08805" lon="1.74322">
        <ele>180.06</ele>
        <time>2019-06-16T12:58:49Z</time>
      </trkpt>
      <trkpt lat="49.08807" lon="1.74328">
        <ele>180.27</ele>
        <time>2019-06-16T12:59:08Z</time>
      </trkpt>
      <trkpt lat="49.08805" lon="1.74347">
        <ele>180.67</ele>
        <time>2019-06-16T12:59:27Z</time>
      </trkpt>
      <trkpt lat="49.08805" lon="1.74349">
        <ele>180.11</ele>
        <time>2019-06-16T12:59:28Z</time>
      </trkpt>
      <trkpt lat="49.08806" lon="1.7437">
        <ele>180.36</ele>
        <time>2019-06-16T12:59:43Z</time>
      </trkpt>
      <trkpt lat="49.08803" lon="1.74395">
        <ele>180.95</ele>
        <time>2019-06-16T12:59:59Z</time>
      </trkpt>
      <trkpt lat="49.08805" lon="1.74422">
        <ele>180.38</ele>
        <time>2019-06-16T13:00:17Z</time>
      </trkpt>
      <trkpt lat="49.08807" lon="1.74443">
        <ele>180.92</ele>
        <time>2019-06-16T13:00:34Z</time>
      </trkpt>
      <trkpt lat="49.08808" lon="1.74459">
        <ele>181.19</ele>
        <time>2019-06-16T13:00:55Z</time>
      </trkpt>
      <trkpt lat="49.08806" lon="1.74474">
        <ele>181.14</ele>
        <time>2019-06-16T13:01:04Z</time>
      </trkpt>
      <trkpt lat="49.08806" lon="1.74503">
        <ele>180.58</ele>
        <time>2019-06-16T13:01:20Z</time>
      </trkpt>
      <trkpt lat="49.08808" lon="1.74533">
        <ele>180.49</ele>
        <time>2019-06-16T13:01:39Z</time>
      </trkpt>
      <trkpt lat="49.08812" lon="1.74563">
        <ele>181.06</ele>
        <time>2019-06-16T13:01:58Z</time>
      </trkpt>
      <trkpt lat="49.08817" lon="1.74598">
        <ele>180.85</ele>
        <time>2019-06-16T13:02:18Z</time>
      </trkpt>
      <trkpt lat="49.08825" lon="1.74626">
        <ele>181.05</ele>
        <time>2019-06-16T13:02:39Z</time>
      </trkpt>
      <trkpt lat="49.08836" lon="1.74652">
        <ele>180.66</ele>
        <time>2019-06-16T13:03:00Z</time>
      </trkpt>
      <trkpt lat="49.08845" lon="1.74685">
        <ele>181.21</ele>
        <time>2019-06-16T13:03:20Z</time>
      </trkpt>
      <trkpt lat="49.08849" lon="1.74696">
        <ele>181.09</ele>
        <time>2019-06-16T13:03:31Z</time>
      </trkpt>
      <trkpt lat="49.08851" lon="1.747">
        <ele>180.77</ele>
        <time>2019-06-16T13:03:34Z</time>
      </trkpt>
      <trkpt lat="49.08859" lon="1.74722">
        <ele>181.16</ele>
        <time>2019-06-16T13:03:53Z</time>
      </trkpt>
      <trkpt lat="49.08859" lon="1.74721">
        <ele>181</ele>
        <time>2019-06-16T13:04:08Z</time>
      </trkpt>
      <trkpt lat="49.08856" lon="1.74723">
        <ele>180.71</ele>
        <time>2019-06-16T13:04:25Z</time>
      </trkpt>
      <trkpt lat="49.08851" lon="1.7473">
        <ele>180.63</ele>
        <time>2019-06-16T13:04:53Z</time>
      </trkpt>
      <trkpt lat="49.08856" lon="1.74732">
        <ele>181</ele>
        <time>2019-06-16T13:05:21Z</time>
      </trkpt>
      <trkpt lat="49.08857" lon="1.74732">
        <ele>180.67</ele>
        <time>2019-06-16T13:05:22Z</time>
      </trkpt>
      <trkpt lat="49.08861" lon="1.74726">
        <ele>180.76</ele>
        <time>2019-06-16T13:05:33Z</time>
      </trkpt>
      <trkpt lat="49.08868" lon="1.74716">
        <ele>181.09</ele>
        <time>2019-06-16T13:05:41Z</time>
      </trkpt>
      <trkpt lat="49.08872" lon="1.74708">
        <ele>180.51</ele>
        <time>2019-06-16T13:05:50Z</time>
      </trkpt>
      <trkpt lat="49.08874" lon="1.74707">
        <ele>180.36</ele>
        <time>2019-06-16T13:05:52Z</time>
      </trkpt>
      <trkpt lat="49.089" lon="1.7468">
        <ele>179.68</ele>
        <time>2019-06-16T13:06:13Z</time>
      </trkpt>
      <trkpt lat="49.08904" lon="1.74671">
        <ele>179.92</ele>
        <time>2019-06-16T13:06:21Z</time>
      </trkpt>
      <trkpt lat="49.08906" lon="1.74668">
        <ele>179.89</ele>
        <time>2019-06-16T13:06:24Z</time>
      </trkpt>
      <trkpt lat="49.08922" lon="1.74647">
        <ele>179.08</ele>
        <time>2019-06-16T13:06:46Z</time>
      </trkpt>
      <trkpt lat="49.08925" lon="1.74644">
        <ele>179.7</ele>
        <time>2019-06-16T13:06:48Z</time>
      </trkpt>
      <trkpt lat="49.08933" lon="1.74631">
        <ele>178.88</ele>
        <time>2019-06-16T13:07:06Z</time>
      </trkpt>
      <trkpt lat="49.08957" lon="1.74609">
        <ele>178.57</ele>
        <time>2019-06-16T13:07:25Z</time>
      </trkpt>
      <trkpt lat="49.08958" lon="1.74608">
        <ele>178.65</ele>
        <time>2019-06-16T13:07:26Z</time>
      </trkpt>
      <trkpt lat="49.08973" lon="1.74587">
        <ele>178.21</ele>
        <time>2019-06-16T13:07:45Z</time>
      </trkpt>
      <trkpt lat="49.08976" lon="1.74583">
        <ele>178.33</ele>
        <time>2019-06-16T13:07:49Z</time>
      </trkpt>
      <trkpt lat="49.08983" lon="1.74577">
        <ele>178.55</ele>
        <time>2019-06-16T13:07:58Z</time>
      </trkpt>
      <trkpt lat="49.08985" lon="1.74576">
        <ele>177.97</ele>
        <time>2019-06-16T13:08:00Z</time>
      </trkpt>
      <trkpt lat="49.08999" lon="1.7457">
        <ele>178.06</ele>
        <time>2019-06-16T13:08:09Z</time>
      </trkpt>
      <trkpt lat="49.09004" lon="1.7457">
        <ele>178.02</ele>
        <time>2019-06-16T13:08:37Z</time>
      </trkpt>
      <trkpt lat="49.08998" lon="1.74565">
        <ele>177.87</ele>
        <time>2019-06-16T13:08:59Z</time>
      </trkpt>
      <trkpt lat="49.08998" lon="1.74565">
        <ele>177.66</ele>
        <time>2019-06-16T13:09:26Z</time>
      </trkpt>
      <trkpt lat="49.09007" lon="1.74573">
        <ele>178.21</ele>
        <time>2019-06-16T13:09:53Z</time>
      </trkpt>
      <trkpt lat="49.09004" lon="1.74573">
        <ele>178.4</ele>
        <time>2019-06-16T13:10:21Z</time>
      </trkpt>
      <trkpt lat="49.09003" lon="1.74571">
        <ele>178.7</ele>
        <time>2019-06-16T13:10:45Z</time>
      </trkpt>
      <trkpt lat="49.09001" lon="1.74569">
        <ele>178.67</ele>
        <time>2019-06-16T13:11:09Z</time>
      </trkpt>
      <trkpt lat="49.09011" lon="1.74578">
        <ele>179.27</ele>
        <time>2019-06-16T13:11:25Z</time>
      </trkpt>
      <trkpt lat="49.09021" lon="1.74591">
        <ele>178.46</ele>
        <time>2019-06-16T13:11:44Z</time>
      </trkpt>
      <trkpt lat="49.09034" lon="1.74612">
        <ele>178.68</ele>
        <time>2019-06-16T13:11:59Z</time>
      </trkpt>
      <trkpt lat="49.09041" lon="1.74627">
        <ele>177.8</ele>
        <time>2019-06-16T13:12:18Z</time>
      </trkpt>
      <trkpt lat="49.09046" lon="1.74633">
        <ele>176.93</ele>
        <time>2019-06-16T13:12:22Z</time>
      </trkpt>
      <trkpt lat="49.09052" lon="1.74645">
        <ele>178.84</ele>
        <time>2019-06-16T13:12:31Z</time>
      </trkpt>
      <trkpt lat="49.09056" lon="1.7465">
        <ele>178.43</ele>
        <time>2019-06-16T13:12:38Z</time>
      </trkpt>
      <trkpt lat="49.09065" lon="1.74662">
        <ele>178.59</ele>
        <time>2019-06-16T13:12:51Z</time>
      </trkpt>
      <trkpt lat="49.09072" lon="1.7467">
        <ele>177.95</ele>
        <time>2019-06-16T13:13:01Z</time>
      </trkpt>
      <trkpt lat="49.09086" lon="1.74691">
        <ele>177.81</ele>
        <time>2019-06-16T13:13:21Z</time>
      </trkpt>
      <trkpt lat="49.09087" lon="1.74693">
        <ele>177.78</ele>
        <time>2019-06-16T13:13:29Z</time>
      </trkpt>
      <trkpt lat="49.09093" lon="1.74704">
        <ele>178.73</ele>
        <time>2019-06-16T13:13:41Z</time>
      </trkpt>
      <trkpt lat="49.09095" lon="1.74707">
        <ele>179.01</ele>
        <time>2019-06-16T13:13:43Z</time>
      </trkpt>
      <trkpt lat="49.09096" lon="1.74711">
        <ele>178.39</ele>
        <time>2019-06-16T13:13:46Z</time>
      </trkpt>
      <trkpt lat="49.09099" lon="1.74714">
        <ele>178.9</ele>
        <time>2019-06-16T13:13:50Z</time>
      </trkpt>
      <trkpt lat="49.09103" lon="1.74718">
        <ele>178.81</ele>
        <time>2019-06-16T13:13:55Z</time>
      </trkpt>
      <trkpt lat="49.09104" lon="1.74722">
        <ele>178.89</ele>
        <time>2019-06-16T13:13:58Z</time>
      </trkpt>
      <trkpt lat="49.09124" lon="1.74744">
        <ele>179.64</ele>
        <time>2019-06-16T13:14:18Z</time>
      </trkpt>
      <trkpt lat="49.09133" lon="1.74762">
        <ele>180.05</ele>
        <time>2019-06-16T13:14:33Z</time>
      </trkpt>
      <trkpt lat="49.09143" lon="1.74788">
        <ele>180.22</ele>
        <time>2019-06-16T13:14:51Z</time>
      </trkpt>
      <trkpt lat="49.09155" lon="1.74814">
        <ele>180.47</ele>
        <time>2019-06-16T13:15:11Z</time>
      </trkpt>
      <trkpt lat="49.09164" lon="1.74841">
        <ele>180.52</ele>
        <time>2019-06-16T13:15:31Z</time>
      </trkpt>
      <trkpt lat="49.09178" lon="1.74875">
        <ele>181.25</ele>
        <time>2019-06-16T13:15:52Z</time>
      </trkpt>
      <trkpt lat="49.09185" lon="1.7489">
        <ele>181.45</ele>
        <time>2019-06-16T13:16:05Z</time>
      </trkpt>
      <trkpt lat="49.09185" lon="1.74894">
        <ele>181.17</ele>
        <time>2019-06-16T13:16:08Z</time>
      </trkpt>
      <trkpt lat="49.09194" lon="1.74917">
        <ele>181.09</ele>
        <time>2019-06-16T13:16:25Z</time>
      </trkpt>
      <trkpt lat="49.09196" lon="1.74925">
        <ele>181.2</ele>
        <time>2019-06-16T13:16:29Z</time>
      </trkpt>
      <trkpt lat="49.09204" lon="1.74952">
        <ele>181.18</ele>
        <time>2019-06-16T13:16:47Z</time>
      </trkpt>
      <trkpt lat="49.09206" lon="1.74958">
        <ele>181.31</ele>
        <time>2019-06-16T13:16:51Z</time>
      </trkpt>
      <trkpt lat="49.09216" lon="1.74983">
        <ele>181.63</ele>
        <time>2019-06-16T13:17:09Z</time>
      </trkpt>
      <trkpt lat="49.09232" lon="1.7501">
        <ele>181.75</ele>
        <time>2019-06-16T13:17:32Z</time>
      </trkpt>
      <trkpt lat="49.09247" lon="1.75038">
        <ele>182.31</ele>
        <time>2019-06-16T13:17:52Z</time>
      </trkpt>
      <trkpt lat="49.09262" lon="1.75065">
        <ele>182.5</ele>
        <time>2019-06-16T13:18:13Z</time>
      </trkpt>
      <trkpt lat="49.09276" lon="1.75094">
        <ele>181.94</ele>
        <time>2019-06-16T13:18:34Z</time>
      </trkpt>
      <trkpt lat="49.09289" lon="1.75116">
        <ele>181.51</ele>
        <time>2019-06-16T13:18:53Z</time>
      </trkpt>
      <trkpt lat="49.09304" lon="1.75143">
        <ele>181.72</ele>
        <time>2019-06-16T13:19:16Z</time>
      </trkpt>
      <trkpt lat="49.09314" lon="1.75159">
        <ele>181.32</ele>
        <time>2019-06-16T13:19:34Z</time>
      </trkpt>
      <trkpt lat="49.09325" lon="1.75175">
        <ele>181.59</ele>
        <time>2019-06-16T13:19:53Z</time>
      </trkpt>
      <trkpt lat="49.09339" lon="1.75194">
        <ele>181.81</ele>
        <time>2019-06-16T13:20:12Z</time>
      </trkpt>
      <trkpt lat="49.09343" lon="1.75202">
        <ele>181.66</ele>
        <time>2019-06-16T13:20:22Z</time>
      </trkpt>
      <trkpt lat="49.09347" lon="1.75211">
        <ele>181.42</ele>
        <time>2019-06-16T13:20:33Z</time>
      </trkpt>
      <trkpt lat="49.09349" lon="1.75214">
        <ele>182.22</ele>
        <time>2019-06-16T13:20:36Z</time>
      </trkpt>
      <trkpt lat="49.0936" lon="1.75234">
        <ele>181.35</ele>
        <time>2019-06-16T13:20:56Z</time>
      </trkpt>
      <trkpt lat="49.09368" lon="1.7524">
        <ele>180.9</ele>
        <time>2019-06-16T13:21:16Z</time>
      </trkpt>
      <trkpt lat="49.09374" lon="1.75245">
        <ele>181.34</ele>
        <time>2019-06-16T13:21:30Z</time>
      </trkpt>
      <trkpt lat="49.09383" lon="1.75251">
        <ele>181.54</ele>
        <time>2019-06-16T13:21:41Z</time>
      </trkpt>
      <trkpt lat="49.09396" lon="1.75276">
        <ele>181.27</ele>
        <time>2019-06-16T13:22:00Z</time>
      </trkpt>
      <trkpt lat="49.09406" lon="1.75289">
        <ele>181.52</ele>
        <time>2019-06-16T13:22:19Z</time>
      </trkpt>
      <trkpt lat="49.09418" lon="1.75304">
        <ele>181.47</ele>
        <time>2019-06-16T13:22:37Z</time>
      </trkpt>
      <trkpt lat="49.09427" lon="1.75327">
        <ele>181.13</ele>
        <time>2019-06-16T13:22:56Z</time>
      </trkpt>
      <trkpt lat="49.0944" lon="1.75344">
        <ele>180.55</ele>
        <time>2019-06-16T13:23:17Z</time>
      </trkpt>
      <trkpt lat="49.09452" lon="1.75363">
        <ele>180.56</ele>
        <time>2019-06-16T13:23:34Z</time>
      </trkpt>
      <trkpt lat="49.09457" lon="1.75376">
        <ele>180.07</ele>
        <time>2019-06-16T13:23:44Z</time>
      </trkpt>
      <trkpt lat="49.09467" lon="1.75389">
        <ele>179.75</ele>
        <time>2019-06-16T13:24:08Z</time>
      </trkpt>
      <trkpt lat="49.09469" lon="1.75408">
        <ele>180.19</ele>
        <time>2019-06-16T13:24:23Z</time>
      </trkpt>
      <trkpt lat="49.09478" lon="1.75433">
        <ele>179.03</ele>
        <time>2019-06-16T13:24:45Z</time>
      </trkpt>
      <trkpt lat="49.09484" lon="1.75458">
        <ele>178.67</ele>
        <time>2019-06-16T13:25:00Z</time>
      </trkpt>
      <trkpt lat="49.09493" lon="1.75485">
        <ele>178.1</ele>
        <time>2019-06-16T13:25:20Z</time>
      </trkpt>
      <trkpt lat="49.09503" lon="1.75505">
        <ele>177.35</ele>
        <time>2019-06-16T13:25:38Z</time>
      </trkpt>
      <trkpt lat="49.09511" lon="1.75537">
        <ele>176.42</ele>
        <time>2019-06-16T13:25:57Z</time>
      </trkpt>
      <trkpt lat="49.09513" lon="1.75547">
        <ele>176.31</ele>
        <time>2019-06-16T13:26:09Z</time>
      </trkpt>
      <trkpt lat="49.09514" lon="1.7555">
        <ele>175.74</ele>
        <time>2019-06-16T13:26:21Z</time>
      </trkpt>
      <trkpt lat="49.09513" lon="1.75548">
        <ele>175.03</ele>
        <time>2019-06-16T13:26:51Z</time>
      </trkpt>
      <trkpt lat="49.09513" lon="1.75549">
        <ele>174.32</ele>
        <time>2019-06-16T13:27:00Z</time>
      </trkpt>
      <trkpt lat="49.09512" lon="1.75553">
        <ele>174.36</ele>
        <time>2019-06-16T13:27:27Z</time>
      </trkpt>
      <trkpt lat="49.09515" lon="1.75551">
        <ele>174.43</ele>
        <time>2019-06-16T13:27:54Z</time>
      </trkpt>
      <trkpt lat="49.09504" lon="1.75567">
        <ele>174.06</ele>
        <time>2019-06-16T13:28:05Z</time>
      </trkpt>
      <trkpt lat="49.09492" lon="1.75575">
        <ele>173.69</ele>
        <time>2019-06-16T13:28:34Z</time>
      </trkpt>
      <trkpt lat="49.09497" lon="1.75584">
        <ele>174.42</ele>
        <time>2019-06-16T13:28:58Z</time>
      </trkpt>
      <trkpt lat="49.09496" lon="1.75583">
        <ele>174.09</ele>
        <time>2019-06-16T13:29:22Z</time>
      </trkpt>
      <trkpt lat="49.09495" lon="1.75589">
        <ele>173.78</ele>
        <time>2019-06-16T13:29:47Z</time>
      </trkpt>
      <trkpt lat="49.09499" lon="1.75598">
        <ele>174.04</ele>
        <time>2019-06-16T13:30:11Z</time>
      </trkpt>
      <trkpt lat="49.09502" lon="1.75609">
        <ele>173.58</ele>
        <time>2019-06-16T13:30:28Z</time>
      </trkpt>
      <trkpt lat="49.09504" lon="1.75643">
        <ele>172.93</ele>
        <time>2019-06-16T13:30:50Z</time>
      </trkpt>
      <trkpt lat="49.09508" lon="1.75668">
        <ele>171.22</ele>
        <time>2019-06-16T13:31:11Z</time>
      </trkpt>
      <trkpt lat="49.09509" lon="1.75696">
        <ele>168.67</ele>
        <time>2019-06-16T13:31:33Z</time>
      </trkpt>
      <trkpt lat="49.09507" lon="1.75722">
        <ele>167.06</ele>
        <time>2019-06-16T13:31:53Z</time>
      </trkpt>
      <trkpt lat="49.09507" lon="1.75728">
        <ele>166.8</ele>
        <time>2019-06-16T13:31:56Z</time>
      </trkpt>
      <trkpt lat="49.09506" lon="1.7575">
        <ele>164.77</ele>
        <time>2019-06-16T13:32:13Z</time>
      </trkpt>
      <trkpt lat="49.0951" lon="1.75777">
        <ele>161.93</ele>
        <time>2019-06-16T13:32:35Z</time>
      </trkpt>
      <trkpt lat="49.09512" lon="1.75803">
        <ele>158.8</ele>
        <time>2019-06-16T13:32:54Z</time>
      </trkpt>
      <trkpt lat="49.09512" lon="1.75804">
        <ele>158.69</ele>
        <time>2019-06-16T13:32:55Z</time>
      </trkpt>
      <trkpt lat="49.09508" lon="1.75842">
        <ele>158.24</ele>
        <time>2019-06-16T13:33:12Z</time>
      </trkpt>
      <trkpt lat="49.09508" lon="1.75859">
        <ele>154.89</ele>
        <time>2019-06-16T13:33:24Z</time>
      </trkpt>
      <trkpt lat="49.09514" lon="1.75881">
        <ele>151.96</ele>
        <time>2019-06-16T13:33:44Z</time>
      </trkpt>
      <trkpt lat="49.09519" lon="1.75895">
        <ele>149.67</ele>
        <time>2019-06-16T13:33:59Z</time>
      </trkpt>
      <trkpt lat="49.0952" lon="1.75898">
        <ele>149.16</ele>
        <time>2019-06-16T13:34:02Z</time>
      </trkpt>
      <trkpt lat="49.0952" lon="1.75911">
        <ele>149.02</ele>
        <time>2019-06-16T13:34:09Z</time>
      </trkpt>
      <trkpt lat="49.0952" lon="1.75952">
        <ele>147.73</ele>
        <time>2019-06-16T13:34:26Z</time>
      </trkpt>
      <trkpt lat="49.09521" lon="1.7597">
        <ele>146.36</ele>
        <time>2019-06-16T13:34:39Z</time>
      </trkpt>
      <trkpt lat="49.09521" lon="1.75979">
        <ele>145.2</ele>
        <time>2019-06-16T13:34:48Z</time>
      </trkpt>
      <trkpt lat="49.09526" lon="1.76017">
        <ele>143.05</ele>
        <time>2019-06-16T13:35:08Z</time>
      </trkpt>
      <trkpt lat="49.09523" lon="1.76038">
        <ele>142.64</ele>
        <time>2019-06-16T13:35:16Z</time>
      </trkpt>
      <trkpt lat="49.09523" lon="1.76066">
        <ele>142.32</ele>
        <time>2019-06-16T13:35:31Z</time>
      </trkpt>
      <trkpt lat="49.09522" lon="1.76086">
        <ele>141.63</ele>
        <time>2019-06-16T13:35:50Z</time>
      </trkpt>
      <trkpt lat="49.09529" lon="1.76102">
        <ele>142.36</ele>
        <time>2019-06-16T13:36:04Z</time>
      </trkpt>
      <trkpt lat="49.09529" lon="1.76114">
        <ele>142.44</ele>
        <time>2019-06-16T13:36:12Z</time>
      </trkpt>
      <trkpt lat="49.09531" lon="1.76132">
        <ele>142.92</ele>
        <time>2019-06-16T13:36:36Z</time>
      </trkpt>
      <trkpt lat="49.09542" lon="1.7616">
        <ele>142.61</ele>
        <time>2019-06-16T13:36:58Z</time>
      </trkpt>
      <trkpt lat="49.09554" lon="1.76187">
        <ele>143.67</ele>
        <time>2019-06-16T13:37:18Z</time>
      </trkpt>
      <trkpt lat="49.09563" lon="1.76215">
        <ele>143.41</ele>
        <time>2019-06-16T13:37:35Z</time>
      </trkpt>
      <trkpt lat="49.09568" lon="1.76234">
        <ele>143.41</ele>
        <time>2019-06-16T13:37:44Z</time>
      </trkpt>
      <trkpt lat="49.09572" lon="1.76264">
        <ele>143.95</ele>
        <time>2019-06-16T13:38:02Z</time>
      </trkpt>
      <trkpt lat="49.09578" lon="1.76288">
        <ele>143.34</ele>
        <time>2019-06-16T13:38:20Z</time>
      </trkpt>
      <trkpt lat="49.09579" lon="1.76295">
        <ele>143.53</ele>
        <time>2019-06-16T13:38:41Z</time>
      </trkpt>
      <trkpt lat="49.09585" lon="1.76307">
        <ele>144.5</ele>
        <time>2019-06-16T13:39:02Z</time>
      </trkpt>
      <trkpt lat="49.09586" lon="1.76306">
        <ele>144.26</ele>
        <time>2019-06-16T13:39:08Z</time>
      </trkpt>
      <trkpt lat="49.09589" lon="1.76301">
        <ele>144.03</ele>
        <time>2019-06-16T13:39:17Z</time>
      </trkpt>
      <trkpt lat="49.09597" lon="1.76301">
        <ele>144.45</ele>
        <time>2019-06-16T13:39:39Z</time>
      </trkpt>
      <trkpt lat="49.09591" lon="1.76308">
        <ele>144.96</ele>
        <time>2019-06-16T13:39:58Z</time>
      </trkpt>
      <trkpt lat="49.09585" lon="1.7631">
        <ele>145.18</ele>
        <time>2019-06-16T13:40:20Z</time>
      </trkpt>
      <trkpt lat="49.09587" lon="1.76314">
        <ele>145.21</ele>
        <time>2019-06-16T13:40:44Z</time>
      </trkpt>
      <trkpt lat="49.09587" lon="1.76313">
        <ele>144.79</ele>
        <time>2019-06-16T13:40:49Z</time>
      </trkpt>
      <trkpt lat="49.09593" lon="1.76316">
        <ele>145.12</ele>
        <time>2019-06-16T13:41:15Z</time>
      </trkpt>
      <trkpt lat="49.09595" lon="1.76322">
        <ele>145.44</ele>
        <time>2019-06-16T13:41:40Z</time>
      </trkpt>
      <trkpt lat="49.09596" lon="1.76322">
        <ele>143.86</ele>
        <time>2019-06-16T13:41:55Z</time>
      </trkpt>
      <trkpt lat="49.09597" lon="1.76322">
        <ele>145.63</ele>
        <time>2019-06-16T13:42:02Z</time>
      </trkpt>
      <trkpt lat="49.096" lon="1.76331">
        <ele>144.98</ele>
        <time>2019-06-16T13:42:27Z</time>
      </trkpt>
      <trkpt lat="49.09609" lon="1.76345">
        <ele>145.36</ele>
        <time>2019-06-16T13:42:48Z</time>
      </trkpt>
      <trkpt lat="49.09621" lon="1.76365">
        <ele>145.22</ele>
        <time>2019-06-16T13:43:09Z</time>
      </trkpt>
      <trkpt lat="49.09626" lon="1.76375">
        <ele>145.13</ele>
        <time>2019-06-16T13:43:16Z</time>
      </trkpt>
      <trkpt lat="49.09634" lon="1.76401">
        <ele>144.79</ele>
        <time>2019-06-16T13:43:30Z</time>
      </trkpt>
      <trkpt lat="49.09642" lon="1.76426">
        <ele>145.11</ele>
        <time>2019-06-16T13:43:47Z</time>
      </trkpt>
      <trkpt lat="49.09647" lon="1.76451">
        <ele>145.36</ele>
        <time>2019-06-16T13:44:03Z</time>
      </trkpt>
      <trkpt lat="49.09654" lon="1.76467">
        <ele>144.06</ele>
        <time>2019-06-16T13:44:21Z</time>
      </trkpt>
      <trkpt lat="49.09655" lon="1.76474">
        <ele>144.91</ele>
        <time>2019-06-16T13:44:40Z</time>
      </trkpt>
      <trkpt lat="49.09653" lon="1.76474">
        <ele>145.23</ele>
        <time>2019-06-16T13:44:56Z</time>
      </trkpt>
      <trkpt lat="49.09655" lon="1.7648">
        <ele>144.65</ele>
        <time>2019-06-16T13:45:14Z</time>
      </trkpt>
      <trkpt lat="49.09655" lon="1.76487">
        <ele>146.21</ele>
        <time>2019-06-16T13:45:34Z</time>
      </trkpt>
      <trkpt lat="49.09654" lon="1.76497">
        <ele>146.4</ele>
        <time>2019-06-16T13:45:52Z</time>
      </trkpt>
      <trkpt lat="49.09661" lon="1.76512">
        <ele>146.52</ele>
        <time>2019-06-16T13:46:07Z</time>
      </trkpt>
      <trkpt lat="49.09663" lon="1.76535">
        <ele>146.96</ele>
        <time>2019-06-16T13:46:24Z</time>
      </trkpt>
      <trkpt lat="49.09667" lon="1.76552">
        <ele>146.55</ele>
        <time>2019-06-16T13:46:37Z</time>
      </trkpt>
      <trkpt lat="49.0967" lon="1.76564">
        <ele>146.91</ele>
        <time>2019-06-16T13:46:46Z</time>
      </trkpt>
      <trkpt lat="49.09676" lon="1.7659">
        <ele>147.38</ele>
        <time>2019-06-16T13:47:01Z</time>
      </trkpt>
      <trkpt lat="49.09681" lon="1.76608">
        <ele>147.45</ele>
        <time>2019-06-16T13:47:13Z</time>
      </trkpt>
      <trkpt lat="49.09685" lon="1.76629">
        <ele>147.27</ele>
        <time>2019-06-16T13:47:26Z</time>
      </trkpt>
      <trkpt lat="49.09689" lon="1.76645">
        <ele>147.81</ele>
        <time>2019-06-16T13:47:36Z</time>
      </trkpt>
      <trkpt lat="49.09695" lon="1.76661">
        <ele>147.37</ele>
        <time>2019-06-16T13:47:49Z</time>
      </trkpt>
      <trkpt lat="49.09698" lon="1.76678">
        <ele>147.58</ele>
        <time>2019-06-16T13:48:06Z</time>
      </trkpt>
      <trkpt lat="49.09701" lon="1.76694">
        <ele>147.23</ele>
        <time>2019-06-16T13:48:23Z</time>
      </trkpt>
      <trkpt lat="49.09706" lon="1.7672">
        <ele>146.81</ele>
        <time>2019-06-16T13:48:40Z</time>
      </trkpt>
      <trkpt lat="49.0971" lon="1.76745">
        <ele>146.77</ele>
        <time>2019-06-16T13:48:57Z</time>
      </trkpt>
      <trkpt lat="49.09718" lon="1.76776">
        <ele>146.14</ele>
        <time>2019-06-16T13:49:18Z</time>
      </trkpt>
      <trkpt lat="49.09724" lon="1.76801">
        <ele>145.28</ele>
        <time>2019-06-16T13:49:35Z</time>
      </trkpt>
      <trkpt lat="49.09732" lon="1.76826">
        <ele>144.69</ele>
        <time>2019-06-16T13:49:53Z</time>
      </trkpt>
      <trkpt lat="49.09737" lon="1.76852">
        <ele>143.96</ele>
        <time>2019-06-16T13:50:11Z</time>
      </trkpt>
      <trkpt lat="49.09738" lon="1.7686">
        <ele>143.75</ele>
        <time>2019-06-16T13:50:19Z</time>
      </trkpt>
      <trkpt lat="49.09745" lon="1.76877">
        <ele>142.79</ele>
        <time>2019-06-16T13:50:32Z</time>
      </trkpt>
      <trkpt lat="49.09749" lon="1.76883">
        <ele>143.29</ele>
        <time>2019-06-16T13:50:36Z</time>
      </trkpt>
      <trkpt lat="49.09764" lon="1.76902">
        <ele>142.78</ele>
        <time>2019-06-16T13:50:53Z</time>
      </trkpt>
      <trkpt lat="49.09778" lon="1.76917">
        <ele>143.28</ele>
        <time>2019-06-16T13:51:09Z</time>
      </trkpt>
      <trkpt lat="49.09792" lon="1.76933">
        <ele>143.56</ele>
        <time>2019-06-16T13:51:28Z</time>
      </trkpt>
      <trkpt lat="49.09804" lon="1.7695">
        <ele>145.02</ele>
        <time>2019-06-16T13:51:43Z</time>
      </trkpt>
      <trkpt lat="49.09818" lon="1.76973">
        <ele>146.17</ele>
        <time>2019-06-16T13:52:03Z</time>
      </trkpt>
      <trkpt lat="49.09833" lon="1.77001">
        <ele>146.51</ele>
        <time>2019-06-16T13:52:23Z</time>
      </trkpt>
      <trkpt lat="49.09839" lon="1.77017">
        <ele>146.62</ele>
        <time>2019-06-16T13:52:35Z</time>
      </trkpt>
      <trkpt lat="49.09847" lon="1.77035">
        <ele>147</ele>
        <time>2019-06-16T13:52:51Z</time>
      </trkpt>
      <trkpt lat="49.09857" lon="1.77056">
        <ele>147.09</ele>
        <time>2019-06-16T13:53:07Z</time>
      </trkpt>
      <trkpt lat="49.09863" lon="1.77067">
        <ele>146.92</ele>
        <time>2019-06-16T13:53:17Z</time>
      </trkpt>
      <trkpt lat="49.09864" lon="1.77072">
        <ele>147.11</ele>
        <time>2019-06-16T13:53:20Z</time>
      </trkpt>
      <trkpt lat="49.09872" lon="1.77087">
        <ele>147</ele>
        <time>2019-06-16T13:53:33Z</time>
      </trkpt>
      <trkpt lat="49.0988" lon="1.77103">
        <ele>146.54</ele>
        <time>2019-06-16T13:53:47Z</time>
      </trkpt>
      <trkpt lat="49.09891" lon="1.7713">
        <ele>145.59</ele>
        <time>2019-06-16T13:54:08Z</time>
      </trkpt>
      <trkpt lat="49.09906" lon="1.77153">
        <ele>145.48</ele>
        <time>2019-06-16T13:54:27Z</time>
      </trkpt>
      <trkpt lat="49.09924" lon="1.77194">
        <ele>144.4</ele>
        <time>2019-06-16T13:54:52Z</time>
      </trkpt>
      <trkpt lat="49.09937" lon="1.77224">
        <ele>143.86</ele>
        <time>2019-06-16T13:55:15Z</time>
      </trkpt>
      <trkpt lat="49.09949" lon="1.77253">
        <ele>143.75</ele>
        <time>2019-06-16T13:55:35Z</time>
      </trkpt>
      <trkpt lat="49.09961" lon="1.77277">
        <ele>144.62</ele>
        <time>2019-06-16T13:55:55Z</time>
      </trkpt>
      <trkpt lat="49.09968" lon="1.77295">
        <ele>144.83</ele>
        <time>2019-06-16T13:56:13Z</time>
      </trkpt>
      <trkpt lat="49.0997" lon="1.77305">
        <ele>146.6</ele>
        <time>2019-06-16T13:56:26Z</time>
      </trkpt>
      <trkpt lat="49.09979" lon="1.77325">
        <ele>146.92</ele>
        <time>2019-06-16T13:56:47Z</time>
      </trkpt>
      <trkpt lat="49.09985" lon="1.77344">
        <ele>147.86</ele>
        <time>2019-06-16T13:57:07Z</time>
      </trkpt>
      <trkpt lat="49.09994" lon="1.77368">
        <ele>148.89</ele>
        <time>2019-06-16T13:57:27Z</time>
      </trkpt>
      <trkpt lat="49.09994" lon="1.77397">
        <ele>149.53</ele>
        <time>2019-06-16T13:57:49Z</time>
      </trkpt>
      <trkpt lat="49.09992" lon="1.77424">
        <ele>150.99</ele>
        <time>2019-06-16T13:58:12Z</time>
      </trkpt>
      <trkpt lat="49.0999" lon="1.77437">
        <ele>151.44</ele>
        <time>2019-06-16T13:58:22Z</time>
      </trkpt>
      <trkpt lat="49.09987" lon="1.77455">
        <ele>152.56</ele>
        <time>2019-06-16T13:58:34Z</time>
      </trkpt>
      <trkpt lat="49.09986" lon="1.77457">
        <ele>152.27</ele>
        <time>2019-06-16T13:58:36Z</time>
      </trkpt>
      <trkpt lat="49.0999" lon="1.77486">
        <ele>152.98</ele>
        <time>2019-06-16T13:58:57Z</time>
      </trkpt>
      <trkpt lat="49.09988" lon="1.77492">
        <ele>153.23</ele>
        <time>2019-06-16T13:59:14Z</time>
      </trkpt>
      <trkpt lat="49.0998" lon="1.77501">
        <ele>154.36</ele>
        <time>2019-06-16T13:59:30Z</time>
      </trkpt>
      <trkpt lat="49.0997" lon="1.7751">
        <ele>154.42</ele>
        <time>2019-06-16T13:59:49Z</time>
      </trkpt>
      <trkpt lat="49.09962" lon="1.77525">
        <ele>155.99</ele>
        <time>2019-06-16T14:00:09Z</time>
      </trkpt>
      <trkpt lat="49.09965" lon="1.77545">
        <ele>156.28</ele>
        <time>2019-06-16T14:00:28Z</time>
      </trkpt>
      <trkpt lat="49.09975" lon="1.77569">
        <ele>156.49</ele>
        <time>2019-06-16T14:00:47Z</time>
      </trkpt>
      <trkpt lat="49.09982" lon="1.77579">
        <ele>156.6</ele>
        <time>2019-06-16T14:01:03Z</time>
      </trkpt>
      <trkpt lat="49.09989" lon="1.77585">
        <ele>156.79</ele>
        <time>2019-06-16T14:01:18Z</time>
      </trkpt>
    </trkseg>
  </trk>
</gpx>